<?xml version='1.0' encoding='UTF-8'?><gpx version="1.1" creator="JPX - https://github.com/jenetics/jpx" xmlns="http://www.topografix.com/GPX/1/1"><trk><trkseg><trkpt lat="45.8133245" lon="10.0478439"><ele>296.0</ele><time>2026-05-03T15:33:33.963Z</time></trkpt><trkpt lat="45.8132479" lon="10.0478802"><ele>296.0</ele><time>2026-05-03T15:33:38.962Z</time></trkpt><trkpt lat="45.8131801" lon="10.047865"><ele>296.0</ele><time>2026-05-03T15:33:42.961Z</time></trkpt><trkpt lat="45.813212" lon="10.0477584"><ele>296.0</ele><time>2026-05-03T15:33:46.962Z</time></trkpt><trkpt lat="45.8132495" lon="10.0476673"><ele>296.0</ele><time>2026-05-03T15:33:49.962Z</time></trkpt><trkpt lat="45.8131971" lon="10.0475901"><ele>296.0</ele><time>2026-05-03T15:33:51.962Z</time></trkpt><trkpt lat="45.8128449" lon="10.047479"><ele>295.5</ele><time>2026-05-03T15:34:10.963Z</time></trkpt><trkpt lat="45.8127819" lon="10.0474224"><ele>295.0</ele><time>2026-05-03T15:34:12.963Z</time></trkpt><trkpt lat="45.8127395" lon="10.0473482"><ele>294.5</ele><time>2026-05-03T15:34:14.962Z</time></trkpt><trkpt lat="45.8126974" lon="10.0472531"><ele>294.0</ele><time>2026-05-03T15:34:16.963Z</time></trkpt><trkpt lat="45.8126359" lon="10.0471472"><ele>293.5</ele><time>2026-05-03T15:34:18.963Z</time></trkpt><trkpt lat="45.8125507" lon="10.0470563"><ele>293.0</ele><time>2026-05-03T15:34:20.963Z</time></trkpt><trkpt lat="45.8124337" lon="10.0469702"><ele>292.99999999999994</ele><time>2026-05-03T15:34:22.963Z</time></trkpt><trkpt lat="45.8123763" lon="10.0469119"><ele>293.0</ele><time>2026-05-03T15:34:23.963Z</time></trkpt><trkpt lat="45.8123162" lon="10.0468541"><ele>293.0</ele><time>2026-05-03T15:34:24.962Z</time></trkpt><trkpt lat="45.8122594" lon="10.0468002"><ele>293.0</ele><time>2026-05-03T15:34:25.962Z</time></trkpt><trkpt lat="45.8121996" lon="10.0467463"><ele>293.0</ele><time>2026-05-03T15:34:26.962Z</time></trkpt><trkpt lat="45.8121398" lon="10.0466955"><ele>292.99999999999994</ele><time>2026-05-03T15:34:27.962Z</time></trkpt><trkpt lat="45.8120801" lon="10.0466455"><ele>293.0</ele><time>2026-05-03T15:34:28.963Z</time></trkpt><trkpt lat="45.8120192" lon="10.0465986"><ele>294.0</ele><time>2026-05-03T15:34:29.963Z</time></trkpt><trkpt lat="45.8119525" lon="10.0465383"><ele>295.0</ele><time>2026-05-03T15:34:30.962Z</time></trkpt><trkpt lat="45.8118822" lon="10.0464798"><ele>296.0</ele><time>2026-05-03T15:34:31.963Z</time></trkpt><trkpt lat="45.8118084" lon="10.046418"><ele>297.0</ele><time>2026-05-03T15:34:32.962Z</time></trkpt><trkpt lat="45.8117401" lon="10.0463563"><ele>298.0</ele><time>2026-05-03T15:34:33.962Z</time></trkpt><trkpt lat="45.8116797" lon="10.0463082"><ele>299.0</ele><time>2026-05-03T15:34:34.963Z</time></trkpt><trkpt lat="45.8116194" lon="10.0462746"><ele>299.33333333333337</ele><time>2026-05-03T15:34:35.962Z</time></trkpt><trkpt lat="45.8115564" lon="10.0462457"><ele>299.6666666666667</ele><time>2026-05-03T15:34:36.963Z</time></trkpt><trkpt lat="45.811483" lon="10.0462041"><ele>300.0</ele><time>2026-05-03T15:34:37.963Z</time></trkpt><trkpt lat="45.8114185" lon="10.0461334"><ele>300.3333333333333</ele><time>2026-05-03T15:34:38.963Z</time></trkpt><trkpt lat="45.8113646" lon="10.046042"><ele>300.66666666666663</ele><time>2026-05-03T15:34:39.963Z</time></trkpt><trkpt lat="45.8113194" lon="10.0459373"><ele>301.0</ele><time>2026-05-03T15:34:40.962Z</time></trkpt><trkpt lat="45.8112758" lon="10.0458242"><ele>303.0</ele><time>2026-05-03T15:34:41.962Z</time></trkpt><trkpt lat="45.8112335" lon="10.0457215"><ele>305.0</ele><time>2026-05-03T15:34:42.962Z</time></trkpt><trkpt lat="45.8111823" lon="10.0456626"><ele>307.0</ele><time>2026-05-03T15:34:43.963Z</time></trkpt><trkpt lat="45.811115" lon="10.0456394"><ele>309.0</ele><time>2026-05-03T15:34:44.962Z</time></trkpt><trkpt lat="45.811036" lon="10.0456393"><ele>311.0</ele><time>2026-05-03T15:34:45.963Z</time></trkpt><trkpt lat="45.8109551" lon="10.0456631"><ele>313.0</ele><time>2026-05-03T15:34:46.962Z</time></trkpt><trkpt lat="45.8108785" lon="10.0457115"><ele>313.2</ele><time>2026-05-03T15:34:47.962Z</time></trkpt><trkpt lat="45.8107989" lon="10.0457695"><ele>313.4</ele><time>2026-05-03T15:34:48.962Z</time></trkpt><trkpt lat="45.8107136" lon="10.0458239"><ele>313.59999999999997</ele><time>2026-05-03T15:34:49.962Z</time></trkpt><trkpt lat="45.8106256" lon="10.045871"><ele>313.8</ele><time>2026-05-03T15:34:50.963Z</time></trkpt><trkpt lat="45.810539" lon="10.0459188"><ele>314.0</ele><time>2026-05-03T15:34:51.962Z</time></trkpt><trkpt lat="45.8104555" lon="10.0459588"><ele>314.0</ele><time>2026-05-03T15:34:52.963Z</time></trkpt><trkpt lat="45.8103757" lon="10.0459995"><ele>314.0</ele><time>2026-05-03T15:34:53.962Z</time></trkpt><trkpt lat="45.8103054" lon="10.0460414"><ele>314.0</ele><time>2026-05-03T15:34:54.962Z</time></trkpt><trkpt lat="45.8102065" lon="10.0460971"><ele>314.0</ele><time>2026-05-03T15:34:56.963Z</time></trkpt><trkpt lat="45.8101444" lon="10.0460292"><ele>314.0</ele><time>2026-05-03T15:36:23.963Z</time></trkpt><trkpt lat="45.8101582" lon="10.0459191"><ele>314.0</ele><time>2026-05-03T15:36:25.963Z</time></trkpt><trkpt lat="45.8101778" lon="10.0458242"><ele>314.33333333333337</ele><time>2026-05-03T15:36:27.963Z</time></trkpt><trkpt lat="45.8101908" lon="10.0457276"><ele>314.6666666666667</ele><time>2026-05-03T15:36:35.963Z</time></trkpt><trkpt lat="45.8100928" lon="10.0457442"><ele>315.0</ele><time>2026-05-03T15:36:37.962Z</time></trkpt><trkpt lat="45.8100217" lon="10.0458209"><ele>315.3333333333333</ele><time>2026-05-03T15:36:38.962Z</time></trkpt><trkpt lat="45.8099481" lon="10.0459023"><ele>315.66666666666663</ele><time>2026-05-03T15:36:39.962Z</time></trkpt><trkpt lat="45.8098692" lon="10.0459863"><ele>316.0</ele><time>2026-05-03T15:36:40.963Z</time></trkpt><trkpt lat="45.8097866" lon="10.0460853"><ele>316.75</ele><time>2026-05-03T15:36:41.963Z</time></trkpt><trkpt lat="45.8097053" lon="10.0461962"><ele>317.5</ele><time>2026-05-03T15:36:42.963Z</time></trkpt><trkpt lat="45.8096312" lon="10.0463197"><ele>318.25</ele><time>2026-05-03T15:36:43.962Z</time></trkpt><trkpt lat="45.8095644" lon="10.046485"><ele>319.0</ele><time>2026-05-03T15:36:44.962Z</time></trkpt><trkpt lat="45.8095089" lon="10.0466699"><ele>317.25</ele><time>2026-05-03T15:36:45.963Z</time></trkpt><trkpt lat="45.8094627" lon="10.0468593"><ele>315.5</ele><time>2026-05-03T15:36:46.963Z</time></trkpt><trkpt lat="45.8094138" lon="10.0470592"><ele>313.75</ele><time>2026-05-03T15:36:47.967Z</time></trkpt><trkpt lat="45.8093475" lon="10.0472392"><ele>312.0</ele><time>2026-05-03T15:36:48.964Z</time></trkpt><trkpt lat="45.8092601" lon="10.0474098"><ele>314.75</ele><time>2026-05-03T15:36:49.963Z</time></trkpt><trkpt lat="45.8091562" lon="10.0475497"><ele>317.5</ele><time>2026-05-03T15:36:50.962Z</time></trkpt><trkpt lat="45.8090569" lon="10.0476806"><ele>320.25</ele><time>2026-05-03T15:36:51.962Z</time></trkpt><trkpt lat="45.8089563" lon="10.0477999"><ele>323.0</ele><time>2026-05-03T15:36:52.963Z</time></trkpt><trkpt lat="45.808868" lon="10.0479107"><ele>323.0</ele><time>2026-05-03T15:36:53.962Z</time></trkpt><trkpt lat="45.8087858" lon="10.0480147"><ele>323.0</ele><time>2026-05-03T15:36:54.964Z</time></trkpt><trkpt lat="45.8087058" lon="10.0481004"><ele>323.0</ele><time>2026-05-03T15:36:55.962Z</time></trkpt><trkpt lat="45.8086194" lon="10.0481585"><ele>323.0</ele><time>2026-05-03T15:36:56.963Z</time></trkpt><trkpt lat="45.8085335" lon="10.0481571"><ele>323.0</ele><time>2026-05-03T15:36:57.963Z</time></trkpt><trkpt lat="45.8084447" lon="10.0481114"><ele>323.0</ele><time>2026-05-03T15:36:58.963Z</time></trkpt><trkpt lat="45.8083765" lon="10.0480197"><ele>323.0</ele><time>2026-05-03T15:36:59.963Z</time></trkpt><trkpt lat="45.808328" lon="10.0479029"><ele>323.0</ele><time>2026-05-03T15:37:00.964Z</time></trkpt><trkpt lat="45.8083153" lon="10.0477701"><ele>323.0</ele><time>2026-05-03T15:37:01.962Z</time></trkpt><trkpt lat="45.8083336" lon="10.0476163"><ele>323.0</ele><time>2026-05-03T15:37:02.962Z</time></trkpt><trkpt lat="45.8083617" lon="10.0474681"><ele>322.79999999999995</ele><time>2026-05-03T15:37:03.962Z</time></trkpt><trkpt lat="45.8083852" lon="10.047324"><ele>322.6</ele><time>2026-05-03T15:37:04.962Z</time></trkpt><trkpt lat="45.8084074" lon="10.0471687"><ele>322.4</ele><time>2026-05-03T15:37:05.963Z</time></trkpt><trkpt lat="45.8084382" lon="10.0470022"><ele>322.20000000000005</ele><time>2026-05-03T15:37:06.963Z</time></trkpt><trkpt lat="45.8084656" lon="10.0468519"><ele>322.0</ele><time>2026-05-03T15:37:07.963Z</time></trkpt><trkpt lat="45.8084895" lon="10.0467121"><ele>319.0</ele><time>2026-05-03T15:37:08.963Z</time></trkpt><trkpt lat="45.8085035" lon="10.0465802"><ele>316.0</ele><time>2026-05-03T15:37:09.963Z</time></trkpt><trkpt lat="45.8085108" lon="10.0464696"><ele>313.0</ele><time>2026-05-03T15:37:10.963Z</time></trkpt><trkpt lat="45.8085155" lon="10.0463576"><ele>310.0</ele><time>2026-05-03T15:37:11.962Z</time></trkpt><trkpt lat="45.8085072" lon="10.0462338"><ele>307.0</ele><time>2026-05-03T15:37:12.962Z</time></trkpt><trkpt lat="45.8085051" lon="10.0461077"><ele>304.0</ele><time>2026-05-03T15:37:13.963Z</time></trkpt><trkpt lat="45.8085076" lon="10.0459858"><ele>304.0</ele><time>2026-05-03T15:37:14.962Z</time></trkpt><trkpt lat="45.8085063" lon="10.0458614"><ele>304.0</ele><time>2026-05-03T15:37:15.963Z</time></trkpt><trkpt lat="45.8084932" lon="10.0457352"><ele>304.0</ele><time>2026-05-03T15:37:16.963Z</time></trkpt><trkpt lat="45.8084775" lon="10.0456208"><ele>304.0</ele><time>2026-05-03T15:37:17.964Z</time></trkpt><trkpt lat="45.8084467" lon="10.045523"><ele>304.0</ele><time>2026-05-03T15:37:18.962Z</time></trkpt><trkpt lat="45.8084168" lon="10.0454378"><ele>304.0</ele><time>2026-05-03T15:37:19.962Z</time></trkpt><trkpt lat="45.8083906" lon="10.0453496"><ele>306.2</ele><time>2026-05-03T15:37:20.963Z</time></trkpt><trkpt lat="45.8083446" lon="10.0451959"><ele>308.4</ele><time>2026-05-03T15:37:22.962Z</time></trkpt><trkpt lat="45.8083274" lon="10.0450523"><ele>310.6</ele><time>2026-05-03T15:37:24.963Z</time></trkpt><trkpt lat="45.80833" lon="10.0449139"><ele>312.8</ele><time>2026-05-03T15:37:26.962Z</time></trkpt><trkpt lat="45.8083659" lon="10.0448238"><ele>315.0</ele><time>2026-05-03T15:37:28.962Z</time></trkpt><trkpt lat="45.8084082" lon="10.0447538"><ele>315.2</ele><time>2026-05-03T15:39:16.962Z</time></trkpt><trkpt lat="45.808463" lon="10.0446535"><ele>315.4</ele><time>2026-05-03T15:43:36.962Z</time></trkpt><trkpt lat="45.8085026" lon="10.0445306"><ele>315.6</ele><time>2026-05-03T15:43:38.963Z</time></trkpt><trkpt lat="45.8085623" lon="10.0443994"><ele>315.8</ele><time>2026-05-03T15:43:40.961Z</time></trkpt><trkpt lat="45.8085952" lon="10.0443216"><ele>316.0</ele><time>2026-05-03T15:43:41.962Z</time></trkpt><trkpt lat="45.8086566" lon="10.0441686"><ele>311.75</ele><time>2026-05-03T15:43:43.963Z</time></trkpt><trkpt lat="45.8087189" lon="10.0440171"><ele>307.5</ele><time>2026-05-03T15:43:45.963Z</time></trkpt><trkpt lat="45.8087714" lon="10.0438627"><ele>303.25</ele><time>2026-05-03T15:43:47.963Z</time></trkpt><trkpt lat="45.8087957" lon="10.0436952"><ele>299.0</ele><time>2026-05-03T15:43:49.963Z</time></trkpt><trkpt lat="45.8087865" lon="10.0435202"><ele>299.0</ele><time>2026-05-03T15:43:51.962Z</time></trkpt><trkpt lat="45.8087496" lon="10.0433651"><ele>299.0</ele><time>2026-05-03T15:43:53.962Z</time></trkpt><trkpt lat="45.8086803" lon="10.0432319"><ele>299.0</ele><time>2026-05-03T15:43:55.962Z</time></trkpt><trkpt lat="45.8085919" lon="10.0431369"><ele>299.0</ele><time>2026-05-03T15:43:57.963Z</time></trkpt><trkpt lat="45.8084979" lon="10.0430635"><ele>299.0</ele><time>2026-05-03T15:43:59.962Z</time></trkpt><trkpt lat="45.8084075" lon="10.042996"><ele>298.0</ele><time>2026-05-03T15:44:01.962Z</time></trkpt><trkpt lat="45.8083207" lon="10.0429482"><ele>297.0</ele><time>2026-05-03T15:44:03.962Z</time></trkpt><trkpt lat="45.8082253" lon="10.0429309"><ele>296.0</ele><time>2026-05-03T15:44:05.963Z</time></trkpt><trkpt lat="45.8081364" lon="10.0429687"><ele>295.0</ele><time>2026-05-03T15:44:07.963Z</time></trkpt><trkpt lat="45.8080439" lon="10.0429873"><ele>294.0</ele><time>2026-05-03T15:44:09.963Z</time></trkpt><trkpt lat="45.8079522" lon="10.0430221"><ele>294.0</ele><time>2026-05-03T15:44:11.963Z</time></trkpt><trkpt lat="45.8078713" lon="10.0430824"><ele>294.0</ele><time>2026-05-03T15:44:13.962Z</time></trkpt><trkpt lat="45.8077982" lon="10.0431777"><ele>294.0</ele><time>2026-05-03T15:44:15.962Z</time></trkpt><trkpt lat="45.8077269" lon="10.0432908"><ele>294.0</ele><time>2026-05-03T15:44:17.961Z</time></trkpt><trkpt lat="45.8076662" lon="10.0434181"><ele>294.0</ele><time>2026-05-03T15:44:19.963Z</time></trkpt><trkpt lat="45.8076124" lon="10.0435575"><ele>295.2</ele><time>2026-05-03T15:44:21.963Z</time></trkpt><trkpt lat="45.8075606" lon="10.0436961"><ele>296.4</ele><time>2026-05-03T15:44:23.962Z</time></trkpt><trkpt lat="45.8075116" lon="10.0438317"><ele>297.6</ele><time>2026-05-03T15:44:25.962Z</time></trkpt><trkpt lat="45.80746" lon="10.0439712"><ele>298.8</ele><time>2026-05-03T15:44:27.961Z</time></trkpt><trkpt lat="45.8074042" lon="10.0441034"><ele>300.0</ele><time>2026-05-03T15:44:29.963Z</time></trkpt><trkpt lat="45.8073442" lon="10.0442185"><ele>302.8</ele><time>2026-05-03T15:44:31.962Z</time></trkpt><trkpt lat="45.8072855" lon="10.0443225"><ele>305.6</ele><time>2026-05-03T15:44:33.963Z</time></trkpt><trkpt lat="45.8072279" lon="10.0444006"><ele>308.4</ele><time>2026-05-03T15:44:36.963Z</time></trkpt><trkpt lat="45.8071881" lon="10.0444818"><ele>311.2</ele><time>2026-05-03T15:51:33.963Z</time></trkpt><trkpt lat="45.807099" lon="10.0446388"><ele>314.0</ele><time>2026-05-03T15:51:35.963Z</time></trkpt><trkpt lat="45.8070425" lon="10.0447289"><ele>314.0</ele><time>2026-05-03T15:51:36.963Z</time></trkpt><trkpt lat="45.806976" lon="10.0448323"><ele>314.0</ele><time>2026-05-03T15:51:37.962Z</time></trkpt><trkpt lat="45.8069196" lon="10.0449406"><ele>314.0</ele><time>2026-05-03T15:51:38.963Z</time></trkpt><trkpt lat="45.8068676" lon="10.0450705"><ele>314.0</ele><time>2026-05-03T15:51:39.962Z</time></trkpt><trkpt lat="45.8068228" lon="10.045213"><ele>314.0</ele><time>2026-05-03T15:51:40.962Z</time></trkpt><trkpt lat="45.8067734" lon="10.0453704"><ele>312.4</ele><time>2026-05-03T15:51:41.962Z</time></trkpt><trkpt lat="45.8067276" lon="10.0455226"><ele>310.79999999999995</ele><time>2026-05-03T15:51:42.962Z</time></trkpt><trkpt lat="45.8066802" lon="10.0456643"><ele>309.20000000000005</ele><time>2026-05-03T15:51:43.963Z</time></trkpt><trkpt lat="45.806637" lon="10.0457992"><ele>307.6</ele><time>2026-05-03T15:51:44.963Z</time></trkpt><trkpt lat="45.8065954" lon="10.0459304"><ele>306.0</ele><time>2026-05-03T15:51:45.963Z</time></trkpt><trkpt lat="45.8065665" lon="10.0460616"><ele>306.0</ele><time>2026-05-03T15:51:46.963Z</time></trkpt><trkpt lat="45.8065357" lon="10.0461617"><ele>306.0</ele><time>2026-05-03T15:51:47.963Z</time></trkpt><trkpt lat="45.8065066" lon="10.0462685"><ele>306.0</ele><time>2026-05-03T15:51:48.963Z</time></trkpt><trkpt lat="45.8064731" lon="10.0463718"><ele>306.0</ele><time>2026-05-03T15:51:49.963Z</time></trkpt><trkpt lat="45.8064569" lon="10.046469"><ele>306.0</ele><time>2026-05-03T15:51:50.961Z</time></trkpt><trkpt lat="45.8064477" lon="10.0465684"><ele>306.0</ele><time>2026-05-03T15:51:51.963Z</time></trkpt><trkpt lat="45.8064328" lon="10.046659"><ele>306.0</ele><time>2026-05-03T15:51:52.963Z</time></trkpt><trkpt lat="45.8064109" lon="10.0467457"><ele>307.40000000000003</ele><time>2026-05-03T15:51:53.962Z</time></trkpt><trkpt lat="45.8063853" lon="10.0469073"><ele>308.8</ele><time>2026-05-03T15:51:55.962Z</time></trkpt><trkpt lat="45.806374" lon="10.0470742"><ele>310.20000000000005</ele><time>2026-05-03T15:51:57.962Z</time></trkpt><trkpt lat="45.8063415" lon="10.0471893"><ele>311.6</ele><time>2026-05-03T15:51:59.962Z</time></trkpt><trkpt lat="45.8063173" lon="10.047322"><ele>313.0</ele><time>2026-05-03T15:52:01.963Z</time></trkpt><trkpt lat="45.8063018" lon="10.0474614"><ele>314.6</ele><time>2026-05-03T15:52:03.962Z</time></trkpt><trkpt lat="45.806288" lon="10.0476093"><ele>316.20000000000005</ele><time>2026-05-03T15:52:05.962Z</time></trkpt><trkpt lat="45.8062782" lon="10.0477303"><ele>317.8</ele><time>2026-05-03T15:52:06.962Z</time></trkpt><trkpt lat="45.8062598" lon="10.0479029"><ele>319.40000000000003</ele><time>2026-05-03T15:52:07.963Z</time></trkpt><trkpt lat="45.8062383" lon="10.0480863"><ele>321.0</ele><time>2026-05-03T15:52:08.962Z</time></trkpt><trkpt lat="45.8062164" lon="10.0482334"><ele>321.6</ele><time>2026-05-03T15:52:09.962Z</time></trkpt><trkpt lat="45.8062012" lon="10.048373"><ele>322.20000000000005</ele><time>2026-05-03T15:52:10.963Z</time></trkpt><trkpt lat="45.8061923" lon="10.0485132"><ele>322.79999999999995</ele><time>2026-05-03T15:52:11.962Z</time></trkpt><trkpt lat="45.8061956" lon="10.048645"><ele>323.4</ele><time>2026-05-03T15:52:12.962Z</time></trkpt><trkpt lat="45.8062026" lon="10.0487772"><ele>324.0</ele><time>2026-05-03T15:52:13.962Z</time></trkpt><trkpt lat="45.8062111" lon="10.0489062"><ele>324.0</ele><time>2026-05-03T15:52:14.963Z</time></trkpt><trkpt lat="45.8062241" lon="10.0490369"><ele>324.0</ele><time>2026-05-03T15:52:15.963Z</time></trkpt><trkpt lat="45.8062391" lon="10.0491633"><ele>324.0</ele><time>2026-05-03T15:52:16.963Z</time></trkpt><trkpt lat="45.8062576" lon="10.0492894"><ele>324.0</ele><time>2026-05-03T15:52:17.962Z</time></trkpt><trkpt lat="45.8062834" lon="10.0494136"><ele>324.0</ele><time>2026-05-03T15:52:18.962Z</time></trkpt><trkpt lat="45.8063196" lon="10.0495331"><ele>322.0</ele><time>2026-05-03T15:52:19.963Z</time></trkpt><trkpt lat="45.8063661" lon="10.0496421"><ele>320.0</ele><time>2026-05-03T15:52:20.963Z</time></trkpt><trkpt lat="45.8064174" lon="10.0497372"><ele>318.0</ele><time>2026-05-03T15:52:21.962Z</time></trkpt><trkpt lat="45.806469" lon="10.0498179"><ele>316.0</ele><time>2026-05-03T15:52:22.963Z</time></trkpt><trkpt lat="45.8065231" lon="10.0498896"><ele>314.0</ele><time>2026-05-03T15:52:23.963Z</time></trkpt><trkpt lat="45.8065796" lon="10.0499448"><ele>312.0</ele><time>2026-05-03T15:52:24.963Z</time></trkpt><trkpt lat="45.8066358" lon="10.0499936"><ele>311.4</ele><time>2026-05-03T15:52:25.961Z</time></trkpt><trkpt lat="45.8067547" lon="10.0500552"><ele>310.79999999999995</ele><time>2026-05-03T15:52:27.963Z</time></trkpt><trkpt lat="45.8068395" lon="10.0501604"><ele>310.2</ele><time>2026-05-03T15:52:29.962Z</time></trkpt><trkpt lat="45.8068437" lon="10.0503431"><ele>309.59999999999997</ele><time>2026-05-03T15:52:31.963Z</time></trkpt><trkpt lat="45.8068275" lon="10.0504426"><ele>309.0</ele><time>2026-05-03T15:52:32.963Z</time></trkpt><trkpt lat="45.8067985" lon="10.0505242"><ele>306.8571428571429</ele><time>2026-05-03T15:52:33.962Z</time></trkpt><trkpt lat="45.8067686" lon="10.0506052"><ele>304.7142857142857</ele><time>2026-05-03T15:52:34.963Z</time></trkpt><trkpt lat="45.8067262" lon="10.0506827"><ele>302.57142857142856</ele><time>2026-05-03T15:52:35.962Z</time></trkpt><trkpt lat="45.8066703" lon="10.0507463"><ele>300.42857142857144</ele><time>2026-05-03T15:52:36.961Z</time></trkpt><trkpt lat="45.8066106" lon="10.0507995"><ele>298.2857142857143</ele><time>2026-05-03T15:52:37.962Z</time></trkpt><trkpt lat="45.8065494" lon="10.050848"><ele>296.14285714285717</ele><time>2026-05-03T15:52:38.962Z</time></trkpt><trkpt lat="45.8064891" lon="10.0508916"><ele>294.0</ele><time>2026-05-03T15:52:39.962Z</time></trkpt><trkpt lat="45.8064299" lon="10.0509339"><ele>294.0</ele><time>2026-05-03T15:52:40.963Z</time></trkpt><trkpt lat="45.8063572" lon="10.0509729"><ele>294.0</ele><time>2026-05-03T15:52:41.963Z</time></trkpt><trkpt lat="45.8062967" lon="10.0510103"><ele>294.0</ele><time>2026-05-03T15:52:42.961Z</time></trkpt><trkpt lat="45.806237" lon="10.0510703"><ele>294.0</ele><time>2026-05-03T15:52:43.961Z</time></trkpt><trkpt lat="45.8061768" lon="10.051131"><ele>294.0</ele><time>2026-05-03T15:52:44.961Z</time></trkpt><trkpt lat="45.8061231" lon="10.0512074"><ele>294.0</ele><time>2026-05-03T15:52:45.963Z</time></trkpt><trkpt lat="45.8060752" lon="10.0512803"><ele>294.0</ele><time>2026-05-03T15:52:46.962Z</time></trkpt><trkpt lat="45.8060202" lon="10.0513462"><ele>293.8333333333333</ele><time>2026-05-03T15:52:47.962Z</time></trkpt><trkpt lat="45.8059624" lon="10.0514016"><ele>293.6666666666667</ele><time>2026-05-03T15:52:48.963Z</time></trkpt><trkpt lat="45.8059084" lon="10.0514675"><ele>293.5</ele><time>2026-05-03T15:52:49.963Z</time></trkpt><trkpt lat="45.8058507" lon="10.0515301"><ele>293.33333333333337</ele><time>2026-05-03T15:52:50.963Z</time></trkpt><trkpt lat="45.8057851" lon="10.0515756"><ele>293.1666666666667</ele><time>2026-05-03T15:52:51.962Z</time></trkpt><trkpt lat="45.8056815" lon="10.0516112"><ele>293.0</ele><time>2026-05-03T15:52:53.963Z</time></trkpt><trkpt lat="45.8056224" lon="10.0515672"><ele>293.0</ele><time>2026-05-03T15:52:54.962Z</time></trkpt><trkpt lat="45.8055581" lon="10.0515345"><ele>293.0</ele><time>2026-05-03T15:52:55.962Z</time></trkpt><trkpt lat="45.805494" lon="10.0515948"><ele>293.0</ele><time>2026-05-03T15:52:56.963Z</time></trkpt><trkpt lat="45.8054409" lon="10.0516602"><ele>293.0</ele><time>2026-05-03T15:52:57.962Z</time></trkpt><trkpt lat="45.8053897" lon="10.0517233"><ele>293.0</ele><time>2026-05-03T15:52:58.962Z</time></trkpt><trkpt lat="45.8053313" lon="10.0517692"><ele>293.0</ele><time>2026-05-03T15:52:59.962Z</time></trkpt><trkpt lat="45.8052136" lon="10.051815"><ele>295.4285714285714</ele><time>2026-05-03T15:53:01.962Z</time></trkpt><trkpt lat="45.8051619" lon="10.0518771"><ele>297.85714285714283</ele><time>2026-05-03T15:53:02.961Z</time></trkpt><trkpt lat="45.8051164" lon="10.0519663"><ele>300.2857142857143</ele><time>2026-05-03T15:53:03.962Z</time></trkpt><trkpt lat="45.8051" lon="10.052069"><ele>302.71428571428567</ele><time>2026-05-03T15:53:04.962Z</time></trkpt><trkpt lat="45.8050933" lon="10.052169"><ele>305.1428571428571</ele><time>2026-05-03T15:53:05.961Z</time></trkpt><trkpt lat="45.8050998" lon="10.0522681"><ele>307.57142857142856</ele><time>2026-05-03T15:53:06.962Z</time></trkpt><trkpt lat="45.8051052" lon="10.0523656"><ele>310.0</ele><time>2026-05-03T15:53:07.962Z</time></trkpt><trkpt lat="45.8051158" lon="10.0525425"><ele>312.2</ele><time>2026-05-03T15:53:09.963Z</time></trkpt><trkpt lat="45.8051034" lon="10.0526469"><ele>314.4</ele><time>2026-05-03T15:53:11.963Z</time></trkpt><trkpt lat="45.805053" lon="10.0527483"><ele>316.6</ele><time>2026-05-03T15:53:37.963Z</time></trkpt><trkpt lat="45.8049636" lon="10.0528863"><ele>318.8</ele><time>2026-05-03T15:53:39.963Z</time></trkpt><trkpt lat="45.8048982" lon="10.0529649"><ele>321.0</ele><time>2026-05-03T15:53:40.962Z</time></trkpt><trkpt lat="45.8048353" lon="10.0530449"><ele>321.0</ele><time>2026-05-03T15:53:41.962Z</time></trkpt><trkpt lat="45.8047651" lon="10.0531124"><ele>321.0</ele><time>2026-05-03T15:53:42.962Z</time></trkpt><trkpt lat="45.8047057" lon="10.0531598"><ele>321.0</ele><time>2026-05-03T15:53:43.962Z</time></trkpt><trkpt lat="45.8046498" lon="10.0532058"><ele>321.0</ele><time>2026-05-03T15:53:44.963Z</time></trkpt><trkpt lat="45.8045472" lon="10.0532062"><ele>321.0</ele><time>2026-05-03T15:53:46.961Z</time></trkpt><trkpt lat="45.8044903" lon="10.0531478"><ele>321.0</ele><time>2026-05-03T15:53:47.962Z</time></trkpt><trkpt lat="45.8044351" lon="10.0530602"><ele>321.0</ele><time>2026-05-03T15:53:48.96Z</time></trkpt><trkpt lat="45.8043889" lon="10.0529733"><ele>321.0</ele><time>2026-05-03T15:53:49.961Z</time></trkpt><trkpt lat="45.8042994" lon="10.0528776"><ele>321.0</ele><time>2026-05-03T15:53:51.963Z</time></trkpt><trkpt lat="45.8042292" lon="10.0528895"><ele>321.0</ele><time>2026-05-03T15:53:53.962Z</time></trkpt><trkpt lat="45.8041785" lon="10.0529463"><ele>321.0</ele><time>2026-05-03T15:53:54.961Z</time></trkpt><trkpt lat="45.8041366" lon="10.0530699"><ele>321.0</ele><time>2026-05-03T15:53:56.961Z</time></trkpt><trkpt lat="45.8041108" lon="10.0532376"><ele>323.8</ele><time>2026-05-03T15:53:58.961Z</time></trkpt><trkpt lat="45.8041361" lon="10.0534018"><ele>326.6</ele><time>2026-05-03T15:54:00.962Z</time></trkpt><trkpt lat="45.8041973" lon="10.0535562"><ele>329.4</ele><time>2026-05-03T15:54:02.962Z</time></trkpt><trkpt lat="45.8042964" lon="10.0536955"><ele>332.2</ele><time>2026-05-03T15:54:04.962Z</time></trkpt><trkpt lat="45.8043449" lon="10.0537597"><ele>335.0</ele><time>2026-05-03T15:54:05.962Z</time></trkpt><trkpt lat="45.8044027" lon="10.0538049"><ele>335.0</ele><time>2026-05-03T15:54:06.963Z</time></trkpt><trkpt lat="45.8045184" lon="10.0538744"><ele>335.0</ele><time>2026-05-03T15:54:08.961Z</time></trkpt><trkpt lat="45.8045741" lon="10.0538242"><ele>335.0</ele><time>2026-05-03T15:54:09.962Z</time></trkpt><trkpt lat="45.8046605" lon="10.0538298"><ele>335.0</ele><time>2026-05-03T15:54:11.962Z</time></trkpt><trkpt lat="45.8047843" lon="10.0538465"><ele>335.0</ele><time>2026-05-03T15:54:13.962Z</time></trkpt><trkpt lat="45.8048514" lon="10.0538401"><ele>335.0</ele><time>2026-05-03T15:54:14.962Z</time></trkpt><trkpt lat="45.8049292" lon="10.0538577"><ele>335.0</ele><time>2026-05-03T15:54:15.961Z</time></trkpt><trkpt lat="45.804994" lon="10.0538824"><ele>335.0</ele><time>2026-05-03T15:54:16.962Z</time></trkpt><trkpt lat="45.8050685" lon="10.0539047"><ele>335.0</ele><time>2026-05-03T15:54:17.962Z</time></trkpt><trkpt lat="45.8051446" lon="10.0539186"><ele>335.0</ele><time>2026-05-03T15:54:18.961Z</time></trkpt><trkpt lat="45.8052222" lon="10.0539374"><ele>335.0</ele><time>2026-05-03T15:54:19.961Z</time></trkpt><trkpt lat="45.8052943" lon="10.0539504"><ele>336.83333333333337</ele><time>2026-05-03T15:54:20.963Z</time></trkpt><trkpt lat="45.8053596" lon="10.0539533"><ele>338.6666666666667</ele><time>2026-05-03T15:54:21.963Z</time></trkpt><trkpt lat="45.8054361" lon="10.0539348"><ele>340.5</ele><time>2026-05-03T15:54:22.962Z</time></trkpt><trkpt lat="45.8055147" lon="10.0539148"><ele>342.3333333333333</ele><time>2026-05-03T15:54:23.963Z</time></trkpt><trkpt lat="45.8055904" lon="10.0538954"><ele>344.16666666666663</ele><time>2026-05-03T15:54:24.963Z</time></trkpt><trkpt lat="45.8057122" lon="10.05395"><ele>346.0</ele><time>2026-05-03T15:54:26.962Z</time></trkpt><trkpt lat="45.8057747" lon="10.0540604"><ele>348.4</ele><time>2026-05-03T15:54:28.961Z</time></trkpt><trkpt lat="45.8057695" lon="10.054243"><ele>350.8</ele><time>2026-05-03T15:54:30.963Z</time></trkpt><trkpt lat="45.8057345" lon="10.0543514"><ele>353.2</ele><time>2026-05-03T15:54:31.963Z</time></trkpt><trkpt lat="45.8056936" lon="10.0544365"><ele>355.59999999999997</ele><time>2026-05-03T15:54:32.962Z</time></trkpt><trkpt lat="45.8056612" lon="10.0545159"><ele>358.0</ele><time>2026-05-03T15:54:33.962Z</time></trkpt><trkpt lat="45.8056298" lon="10.0546704"><ele>358.0</ele><time>2026-05-03T15:54:35.962Z</time></trkpt><trkpt lat="45.8056166" lon="10.0547615"><ele>358.0</ele><time>2026-05-03T15:54:36.96Z</time></trkpt><trkpt lat="45.8055992" lon="10.0548872"><ele>358.0</ele><time>2026-05-03T15:54:37.961Z</time></trkpt><trkpt lat="45.8055793" lon="10.0549906"><ele>358.0</ele><time>2026-05-03T15:54:38.962Z</time></trkpt><trkpt lat="45.8055469" lon="10.0550885"><ele>358.0</ele><time>2026-05-03T15:54:39.962Z</time></trkpt><trkpt lat="45.8055068" lon="10.0552622"><ele>358.0</ele><time>2026-05-03T15:54:41.963Z</time></trkpt><trkpt lat="45.805483" lon="10.0553494"><ele>358.0</ele><time>2026-05-03T15:54:42.963Z</time></trkpt><trkpt lat="45.8054477" lon="10.0554407"><ele>358.0</ele><time>2026-05-03T15:54:43.963Z</time></trkpt><trkpt lat="45.8054345" lon="10.0555331"><ele>358.0</ele><time>2026-05-03T15:54:44.962Z</time></trkpt><trkpt lat="45.8054216" lon="10.0556248"><ele>358.0</ele><time>2026-05-03T15:54:45.962Z</time></trkpt><trkpt lat="45.8053774" lon="10.055771"><ele>358.0</ele><time>2026-05-03T15:54:47.962Z</time></trkpt><trkpt lat="45.8053553" lon="10.0558653"><ele>358.0</ele><time>2026-05-03T15:54:49.962Z</time></trkpt><trkpt lat="45.8052951" lon="10.0559143"><ele>358.0</ele><time>2026-05-03T15:54:52.962Z</time></trkpt><trkpt lat="45.8052216" lon="10.0559187"><ele>358.0</ele><time>2026-05-03T15:54:54.962Z</time></trkpt><trkpt lat="45.8051544" lon="10.0559282"><ele>358.0</ele><time>2026-05-03T15:54:56.962Z</time></trkpt><trkpt lat="45.8050385" lon="10.0559024"><ele>358.0</ele><time>2026-05-03T15:54:58.963Z</time></trkpt><trkpt lat="45.8049696" lon="10.0558612"><ele>358.0</ele><time>2026-05-03T15:55:00.963Z</time></trkpt><trkpt lat="45.8048958" lon="10.0558431"><ele>358.0</ele><time>2026-05-03T15:55:02.961Z</time></trkpt><trkpt lat="45.804813" lon="10.0557853"><ele>359.4</ele><time>2026-05-03T15:55:04.963Z</time></trkpt><trkpt lat="45.8047513" lon="10.0556981"><ele>360.79999999999995</ele><time>2026-05-03T15:55:06.961Z</time></trkpt><trkpt lat="45.8046802" lon="10.0556096"><ele>362.2</ele><time>2026-05-03T15:55:08.963Z</time></trkpt><trkpt lat="45.8045906" lon="10.0554871"><ele>363.6</ele><time>2026-05-03T15:55:10.963Z</time></trkpt><trkpt lat="45.8045255" lon="10.0554129"><ele>365.0</ele><time>2026-05-03T15:55:12.962Z</time></trkpt><trkpt lat="45.8044686" lon="10.0553482"><ele>365.0</ele><time>2026-05-03T15:55:14.961Z</time></trkpt><trkpt lat="45.8044175" lon="10.055251"><ele>365.0</ele><time>2026-05-03T15:55:20.962Z</time></trkpt><trkpt lat="45.8043691" lon="10.0551782"><ele>365.0</ele><time>2026-05-03T15:55:22.962Z</time></trkpt><trkpt lat="45.80432" lon="10.0550947"><ele>365.0</ele><time>2026-05-03T15:55:24.963Z</time></trkpt><trkpt lat="45.804246" lon="10.0549989"><ele>365.0</ele><time>2026-05-03T15:55:27.962Z</time></trkpt><trkpt lat="45.8041571" lon="10.0549893"><ele>365.0</ele><time>2026-05-03T15:55:29.963Z</time></trkpt><trkpt lat="45.8040725" lon="10.0549671"><ele>364.2</ele><time>2026-05-03T15:55:31.962Z</time></trkpt><trkpt lat="45.8039752" lon="10.0548828"><ele>363.4</ele><time>2026-05-03T15:55:33.962Z</time></trkpt><trkpt lat="45.803899" lon="10.0547733"><ele>362.6</ele><time>2026-05-03T15:55:35.961Z</time></trkpt><trkpt lat="45.8038138" lon="10.0546971"><ele>361.8</ele><time>2026-05-03T15:55:37.963Z</time></trkpt><trkpt lat="45.8037098" lon="10.0546034"><ele>361.0</ele><time>2026-05-03T15:55:39.962Z</time></trkpt><trkpt lat="45.8036528" lon="10.0545641"><ele>361.0</ele><time>2026-05-03T15:55:40.962Z</time></trkpt><trkpt lat="45.8035641" lon="10.0544835"><ele>361.0</ele><time>2026-05-03T15:55:42.962Z</time></trkpt><trkpt lat="45.8034785" lon="10.0543919"><ele>361.0</ele><time>2026-05-03T15:55:44.962Z</time></trkpt><trkpt lat="45.8034136" lon="10.054353"><ele>361.0</ele><time>2026-05-03T15:55:45.962Z</time></trkpt><trkpt lat="45.8033693" lon="10.0542613"><ele>361.0</ele><time>2026-05-03T15:55:47.963Z</time></trkpt><trkpt lat="45.8033395" lon="10.054171"><ele>361.0</ele><time>2026-05-03T15:55:49.961Z</time></trkpt><trkpt lat="45.8032896" lon="10.0540534"><ele>363.66666666666663</ele><time>2026-05-03T15:55:51.962Z</time></trkpt><trkpt lat="45.8032315" lon="10.0539488"><ele>366.3333333333333</ele><time>2026-05-03T15:55:53.963Z</time></trkpt><trkpt lat="45.8031926" lon="10.0538522"><ele>369.0</ele><time>2026-05-03T15:55:55.961Z</time></trkpt><trkpt lat="45.8031351" lon="10.0537547"><ele>371.6666666666667</ele><time>2026-05-03T15:55:57.963Z</time></trkpt><trkpt lat="45.8031069" lon="10.0536493"><ele>374.33333333333337</ele><time>2026-05-03T15:55:59.962Z</time></trkpt><trkpt lat="45.8030934" lon="10.0535458"><ele>377.0</ele><time>2026-05-03T15:56:01.963Z</time></trkpt><trkpt lat="45.8031292" lon="10.0533854"><ele>377.20000000000005</ele><time>2026-05-03T15:56:03.961Z</time></trkpt><trkpt lat="45.8031436" lon="10.0532419"><ele>377.4</ele><time>2026-05-03T15:56:05.962Z</time></trkpt><trkpt lat="45.8031317" lon="10.0531047"><ele>377.6</ele><time>2026-05-03T15:56:07.961Z</time></trkpt><trkpt lat="45.8031183" lon="10.0529585"><ele>377.79999999999995</ele><time>2026-05-03T15:56:09.963Z</time></trkpt><trkpt lat="45.8031008" lon="10.0528015"><ele>378.0</ele><time>2026-05-03T15:56:11.961Z</time></trkpt><trkpt lat="45.8030773" lon="10.0526623"><ele>378.0</ele><time>2026-05-03T15:56:13.962Z</time></trkpt><trkpt lat="45.8030504" lon="10.0525279"><ele>378.0</ele><time>2026-05-03T15:56:15.962Z</time></trkpt><trkpt lat="45.8030323" lon="10.0524187"><ele>378.0</ele><time>2026-05-03T15:56:17.963Z</time></trkpt><trkpt lat="45.8030097" lon="10.0523112"><ele>378.0</ele><time>2026-05-03T15:56:19.962Z</time></trkpt><trkpt lat="45.8029815" lon="10.0521766"><ele>378.0</ele><time>2026-05-03T15:56:21.962Z</time></trkpt><trkpt lat="45.8029281" lon="10.0520461"><ele>377.2</ele><time>2026-05-03T15:56:23.961Z</time></trkpt><trkpt lat="45.8028918" lon="10.0519078"><ele>376.4</ele><time>2026-05-03T15:56:25.963Z</time></trkpt><trkpt lat="45.8028442" lon="10.0517892"><ele>375.59999999999997</ele><time>2026-05-03T15:56:27.96Z</time></trkpt><trkpt lat="45.8028043" lon="10.0516925"><ele>374.79999999999995</ele><time>2026-05-03T15:56:29.961Z</time></trkpt><trkpt lat="45.8027101" lon="10.0516128"><ele>374.0</ele><time>2026-05-03T15:56:32.963Z</time></trkpt><trkpt lat="45.8026017" lon="10.0515493"><ele>378.0</ele><time>2026-05-03T15:56:34.962Z</time></trkpt><trkpt lat="45.8025349" lon="10.0515334"><ele>382.0</ele><time>2026-05-03T15:56:35.963Z</time></trkpt><trkpt lat="45.802432" lon="10.0515014"><ele>386.0</ele><time>2026-05-03T15:56:37.961Z</time></trkpt><trkpt lat="45.8023378" lon="10.0515161"><ele>390.0</ele><time>2026-05-03T15:56:39.962Z</time></trkpt><trkpt lat="45.8022556" lon="10.0515317"><ele>393.99999999999994</ele><time>2026-05-03T15:56:41.962Z</time></trkpt><trkpt lat="45.8021819" lon="10.0515565"><ele>398.0</ele><time>2026-05-03T15:56:43.962Z</time></trkpt><trkpt lat="45.8020726" lon="10.0515629"><ele>398.0</ele><time>2026-05-03T15:56:45.962Z</time></trkpt><trkpt lat="45.8019751" lon="10.0515581"><ele>398.0</ele><time>2026-05-03T15:56:47.962Z</time></trkpt><trkpt lat="45.8018829" lon="10.0515986"><ele>398.0</ele><time>2026-05-03T15:56:49.963Z</time></trkpt><trkpt lat="45.801792" lon="10.0516454"><ele>398.0</ele><time>2026-05-03T15:56:51.963Z</time></trkpt><trkpt lat="45.8017107" lon="10.0517335"><ele>398.0</ele><time>2026-05-03T15:56:53.961Z</time></trkpt><trkpt lat="45.8016253" lon="10.0518192"><ele>401.3333333333333</ele><time>2026-05-03T15:56:55.962Z</time></trkpt><trkpt lat="45.8015609" lon="10.0519236"><ele>404.66666666666663</ele><time>2026-05-03T15:56:57.962Z</time></trkpt><trkpt lat="45.8015127" lon="10.0520357"><ele>408.0</ele><time>2026-05-03T15:56:59.962Z</time></trkpt><trkpt lat="45.8014687" lon="10.052103"><ele>411.33333333333337</ele><time>2026-05-03T15:57:01.962Z</time></trkpt><trkpt lat="45.8014218" lon="10.0521726"><ele>414.6666666666667</ele><time>2026-05-03T15:57:03.961Z</time></trkpt><trkpt lat="45.8013664" lon="10.0522757"><ele>418.0</ele><time>2026-05-03T15:57:06.962Z</time></trkpt><trkpt lat="45.8013104" lon="10.0523792"><ele>418.6666666666667</ele><time>2026-05-03T15:57:08.962Z</time></trkpt><trkpt lat="45.8012535" lon="10.0524722"><ele>419.33333333333337</ele><time>2026-05-03T15:57:10.963Z</time></trkpt><trkpt lat="45.8011738" lon="10.05253"><ele>420.0</ele><time>2026-05-03T15:57:12.963Z</time></trkpt><trkpt lat="45.8010889" lon="10.0525988"><ele>420.66666666666663</ele><time>2026-05-03T15:57:14.961Z</time></trkpt><trkpt lat="45.8010351" lon="10.0526518"><ele>421.3333333333333</ele><time>2026-05-03T15:57:16.963Z</time></trkpt><trkpt lat="45.8009781" lon="10.0525978"><ele>422.0</ele><time>2026-05-03T15:57:18.963Z</time></trkpt><trkpt lat="45.8009022" lon="10.0525543"><ele>422.8</ele><time>2026-05-03T15:57:20.961Z</time></trkpt><trkpt lat="45.8008563" lon="10.052482"><ele>423.6</ele><time>2026-05-03T15:57:22.962Z</time></trkpt><trkpt lat="45.8008557" lon="10.0523234"><ele>424.40000000000003</ele><time>2026-05-03T15:57:24.962Z</time></trkpt><trkpt lat="45.8008508" lon="10.0521788"><ele>425.20000000000005</ele><time>2026-05-03T15:57:26.962Z</time></trkpt><trkpt lat="45.8008394" lon="10.0520292"><ele>426.0</ele><time>2026-05-03T15:57:28.963Z</time></trkpt><trkpt lat="45.8008033" lon="10.0519089"><ele>427.4</ele><time>2026-05-03T15:57:30.962Z</time></trkpt><trkpt lat="45.800791" lon="10.0517802"><ele>428.8</ele><time>2026-05-03T15:57:32.963Z</time></trkpt><trkpt lat="45.800785" lon="10.0516206"><ele>430.19999999999993</ele><time>2026-05-03T15:57:34.961Z</time></trkpt><trkpt lat="45.8007889" lon="10.0515289"><ele>431.59999999999997</ele><time>2026-05-03T15:57:35.962Z</time></trkpt><trkpt lat="45.8007768" lon="10.0514067"><ele>433.0</ele><time>2026-05-03T15:57:37.962Z</time></trkpt><trkpt lat="45.8007592" lon="10.0512557"><ele>434.1666666666667</ele><time>2026-05-03T15:57:39.963Z</time></trkpt><trkpt lat="45.800708" lon="10.0511336"><ele>435.33333333333337</ele><time>2026-05-03T15:57:41.961Z</time></trkpt><trkpt lat="45.8006593" lon="10.0510292"><ele>436.5</ele><time>2026-05-03T15:57:43.962Z</time></trkpt><trkpt lat="45.8006014" lon="10.0509267"><ele>437.66666666666663</ele><time>2026-05-03T15:57:45.961Z</time></trkpt><trkpt lat="45.8005209" lon="10.0509146"><ele>438.8333333333333</ele><time>2026-05-03T15:57:48.962Z</time></trkpt><trkpt lat="45.8004497" lon="10.0509477"><ele>440.0</ele><time>2026-05-03T15:57:50.962Z</time></trkpt><trkpt lat="45.8003733" lon="10.0509301"><ele>439.99999999999994</ele><time>2026-05-03T15:57:52.961Z</time></trkpt><trkpt lat="45.8003125" lon="10.0509784"><ele>440.0</ele><time>2026-05-03T15:57:53.963Z</time></trkpt><trkpt lat="45.8002525" lon="10.0510674"><ele>440.0</ele><time>2026-05-03T15:57:55.963Z</time></trkpt><trkpt lat="45.8001819" lon="10.051132"><ele>440.0</ele><time>2026-05-03T15:57:57.962Z</time></trkpt><trkpt lat="45.8001218" lon="10.0511844"><ele>439.99999999999994</ele><time>2026-05-03T15:57:59.961Z</time></trkpt><trkpt lat="45.8000614" lon="10.051153"><ele>440.0</ele><time>2026-05-03T15:58:14.962Z</time></trkpt><trkpt lat="45.8000738" lon="10.0510415"><ele>443.8333333333333</ele><time>2026-05-03T15:58:18.961Z</time></trkpt><trkpt lat="45.8000944" lon="10.050882"><ele>447.66666666666663</ele><time>2026-05-03T15:58:23.96Z</time></trkpt><trkpt lat="45.8000835" lon="10.0507896"><ele>451.5</ele><time>2026-05-03T15:58:27.003Z</time></trkpt><trkpt lat="45.8000449" lon="10.0506792"><ele>455.33333333333337</ele><time>2026-05-03T15:58:29.962Z</time></trkpt><trkpt lat="45.8000072" lon="10.0505721"><ele>459.1666666666667</ele><time>2026-05-03T15:58:34.051Z</time></trkpt><trkpt lat="45.8000165" lon="10.0504641"><ele>463.0</ele><time>2026-05-03T15:58:37.962Z</time></trkpt><trkpt lat="45.8000406" lon="10.0503603"><ele>464.1666666666667</ele><time>2026-05-03T15:58:40.961Z</time></trkpt><trkpt lat="45.8000727" lon="10.0502603"><ele>465.33333333333337</ele><time>2026-05-03T15:58:44.049Z</time></trkpt><trkpt lat="45.8000811" lon="10.0501327"><ele>466.5</ele><time>2026-05-03T15:58:49.962Z</time></trkpt><trkpt lat="45.8000267" lon="10.0500415"><ele>467.66666666666663</ele><time>2026-05-03T15:58:52.962Z</time></trkpt><trkpt lat="45.7999851" lon="10.0499454"><ele>468.8333333333333</ele><time>2026-05-03T15:58:55.961Z</time></trkpt><trkpt lat="45.7999623" lon="10.0498342"><ele>470.0</ele><time>2026-05-03T15:58:57.962Z</time></trkpt><trkpt lat="45.7999348" lon="10.049731"><ele>470.3333333333333</ele><time>2026-05-03T15:58:59.962Z</time></trkpt><trkpt lat="45.7999787" lon="10.0496412"><ele>470.66666666666663</ele><time>2026-05-03T15:59:02.926Z</time></trkpt><trkpt lat="45.7999374" lon="10.0495427"><ele>471.0</ele><time>2026-05-03T15:59:04.945Z</time></trkpt><trkpt lat="45.7998937" lon="10.0494398"><ele>471.33333333333337</ele><time>2026-05-03T15:59:06.962Z</time></trkpt><trkpt lat="45.7998521" lon="10.0493622"><ele>471.6666666666667</ele><time>2026-05-03T15:59:08.684Z</time></trkpt><trkpt lat="45.7998241" lon="10.0492727"><ele>472.0</ele><time>2026-05-03T15:59:10.879Z</time></trkpt><trkpt lat="45.79978" lon="10.0491541"><ele>474.00000000000006</ele><time>2026-05-03T15:59:13.963Z</time></trkpt><trkpt lat="45.7997421" lon="10.0490527"><ele>476.0</ele><time>2026-05-03T15:59:16.962Z</time></trkpt><trkpt lat="45.7997432" lon="10.0489182"><ele>478.0</ele><time>2026-05-03T15:59:20.962Z</time></trkpt><trkpt lat="45.7997539" lon="10.0487964"><ele>480.0</ele><time>2026-05-03T15:59:23.962Z</time></trkpt><trkpt lat="45.7997585" lon="10.0486937"><ele>482.00000000000006</ele><time>2026-05-03T15:59:25.962Z</time></trkpt><trkpt lat="45.7997638" lon="10.0485931"><ele>484.0</ele><time>2026-05-03T15:59:40.923Z</time></trkpt><trkpt lat="45.7997668" lon="10.0484965"><ele>484.00000000000006</ele><time>2026-05-03T16:00:15.962Z</time></trkpt><trkpt lat="45.7998094" lon="10.0484195"><ele>484.0</ele><time>2026-05-03T16:00:27.962Z</time></trkpt><trkpt lat="45.799843" lon="10.0483321"><ele>484.0</ele><time>2026-05-03T16:00:31.963Z</time></trkpt><trkpt lat="45.7998512" lon="10.0482317"><ele>484.0</ele><time>2026-05-03T16:00:33.961Z</time></trkpt><trkpt lat="45.7998619" lon="10.0481014"><ele>484.00000000000006</ele><time>2026-05-03T16:00:36.963Z</time></trkpt><trkpt lat="45.7998855" lon="10.0479825"><ele>484.0</ele><time>2026-05-03T16:00:39.963Z</time></trkpt><trkpt lat="45.7998978" lon="10.0478805"><ele>485.6666666666667</ele><time>2026-05-03T16:00:42.962Z</time></trkpt><trkpt lat="45.7999172" lon="10.0477542"><ele>487.33333333333337</ele><time>2026-05-03T16:00:45.882Z</time></trkpt><trkpt lat="45.7999001" lon="10.04764"><ele>489.0</ele><time>2026-05-03T16:00:47.924Z</time></trkpt><trkpt lat="45.799897" lon="10.0475411"><ele>490.66666666666663</ele><time>2026-05-03T16:00:49.961Z</time></trkpt><trkpt lat="45.7998718" lon="10.0474435"><ele>492.3333333333333</ele><time>2026-05-03T16:00:51.962Z</time></trkpt><trkpt lat="45.7998216" lon="10.0473401"><ele>494.0</ele><time>2026-05-03T16:00:54.962Z</time></trkpt><trkpt lat="45.7997928" lon="10.0471976"><ele>495.99999999999994</ele><time>2026-05-03T16:00:57.963Z</time></trkpt><trkpt lat="45.7997989" lon="10.0470787"><ele>498.0</ele><time>2026-05-03T16:00:59.962Z</time></trkpt><trkpt lat="45.7998291" lon="10.0469735"><ele>500.0</ele><time>2026-05-03T16:01:01.904Z</time></trkpt><trkpt lat="45.7998556" lon="10.0468563"><ele>502.0</ele><time>2026-05-03T16:01:03.903Z</time></trkpt><trkpt lat="45.7998761" lon="10.0467544"><ele>503.99999999999994</ele><time>2026-05-03T16:01:05.962Z</time></trkpt><trkpt lat="45.7999203" lon="10.0466818"><ele>506.0</ele><time>2026-05-03T16:01:07.881Z</time></trkpt><trkpt lat="45.7999665" lon="10.0465212"><ele>507.3333333333333</ele><time>2026-05-03T16:01:09.962Z</time></trkpt><trkpt lat="45.7999931" lon="10.0464247"><ele>508.66666666666663</ele><time>2026-05-03T16:01:11.963Z</time></trkpt><trkpt lat="45.8000206" lon="10.0463394"><ele>510.0</ele><time>2026-05-03T16:01:14.961Z</time></trkpt><trkpt lat="45.8000378" lon="10.046238"><ele>511.33333333333337</ele><time>2026-05-03T16:01:16.963Z</time></trkpt><trkpt lat="45.8000252" lon="10.0461252"><ele>512.6666666666667</ele><time>2026-05-03T16:01:20.961Z</time></trkpt><trkpt lat="45.7999966" lon="10.0460238"><ele>514.0</ele><time>2026-05-03T16:01:23.963Z</time></trkpt><trkpt lat="45.7999643" lon="10.0458903"><ele>515.5</ele><time>2026-05-03T16:01:26.962Z</time></trkpt><trkpt lat="45.799944" lon="10.0457936"><ele>517.0</ele><time>2026-05-03T16:01:29.963Z</time></trkpt><trkpt lat="45.7999772" lon="10.0456657"><ele>518.5</ele><time>2026-05-03T16:01:31.963Z</time></trkpt><trkpt lat="45.8000033" lon="10.0455583"><ele>520.0</ele><time>2026-05-03T16:01:33.962Z</time></trkpt><trkpt lat="45.8000132" lon="10.0454385"><ele>521.5</ele><time>2026-05-03T16:01:36.962Z</time></trkpt><trkpt lat="45.8000027" lon="10.0453299"><ele>523.0</ele><time>2026-05-03T16:01:38.945Z</time></trkpt><trkpt lat="45.8000153" lon="10.045209"><ele>523.0</ele><time>2026-05-03T16:01:41.963Z</time></trkpt><trkpt lat="45.799951" lon="10.0451287"><ele>523.0</ele><time>2026-05-03T16:01:45.961Z</time></trkpt><trkpt lat="45.7999572" lon="10.0449364"><ele>523.0</ele><time>2026-05-03T16:02:01.962Z</time></trkpt><trkpt lat="45.7998935" lon="10.0449304"><ele>523.0</ele><time>2026-05-03T16:02:52.961Z</time></trkpt><trkpt lat="45.7998147" lon="10.0449755"><ele>523.0</ele><time>2026-05-03T16:02:54.962Z</time></trkpt><trkpt lat="45.7997491" lon="10.0450038"><ele>523.0</ele><time>2026-05-03T16:03:00.962Z</time></trkpt><trkpt lat="45.7996858" lon="10.0450494"><ele>524.8333333333334</ele><time>2026-05-03T16:03:04.962Z</time></trkpt><trkpt lat="45.7996628" lon="10.0449215"><ele>526.6666666666667</ele><time>2026-05-03T16:03:09.962Z</time></trkpt><trkpt lat="45.7996744" lon="10.0448107"><ele>528.5</ele><time>2026-05-03T16:03:11.962Z</time></trkpt><trkpt lat="45.7996538" lon="10.0447221"><ele>530.3333333333334</ele><time>2026-05-03T16:03:13.899Z</time></trkpt><trkpt lat="45.7995823" lon="10.0447016"><ele>532.1666666666666</ele><time>2026-05-03T16:03:15.863Z</time></trkpt><trkpt lat="45.7994895" lon="10.0447688"><ele>534.0</ele><time>2026-05-03T16:03:17.963Z</time></trkpt><trkpt lat="45.7994266" lon="10.0447147"><ele>534.0</ele><time>2026-05-03T16:03:20.962Z</time></trkpt><trkpt lat="45.7993838" lon="10.0446081"><ele>534.0</ele><time>2026-05-03T16:03:22.961Z</time></trkpt><trkpt lat="45.7992876" lon="10.0446465"><ele>534.0</ele><time>2026-05-03T16:03:24.962Z</time></trkpt><trkpt lat="45.7991791" lon="10.0447085"><ele>534.0</ele><time>2026-05-03T16:03:26.961Z</time></trkpt><trkpt lat="45.7991094" lon="10.0447446"><ele>534.0</ele><time>2026-05-03T16:03:28.962Z</time></trkpt><trkpt lat="45.7990514" lon="10.044791"><ele>534.0</ele><time>2026-05-03T16:03:30.962Z</time></trkpt><trkpt lat="45.7989844" lon="10.0448539"><ele>539.0</ele><time>2026-05-03T16:03:32.962Z</time></trkpt><trkpt lat="45.7989158" lon="10.0448037"><ele>544.0</ele><time>2026-05-03T16:03:35.962Z</time></trkpt><trkpt lat="45.798935" lon="10.0446724"><ele>549.0</ele><time>2026-05-03T16:03:37.961Z</time></trkpt><trkpt lat="45.7989591" lon="10.0445681"><ele>554.0</ele><time>2026-05-03T16:03:38.961Z</time></trkpt><trkpt lat="45.7989639" lon="10.0444604"><ele>559.0</ele><time>2026-05-03T16:03:39.961Z</time></trkpt><trkpt lat="45.7989714" lon="10.0443044"><ele>564.0</ele><time>2026-05-03T16:03:41.962Z</time></trkpt><trkpt lat="45.7989484" lon="10.0441982"><ele>564.0</ele><time>2026-05-03T16:03:43.961Z</time></trkpt><trkpt lat="45.7988509" lon="10.0442579"><ele>564.0</ele><time>2026-05-03T16:03:45.963Z</time></trkpt><trkpt lat="45.7987281" lon="10.0443221"><ele>564.0</ele><time>2026-05-03T16:03:47.961Z</time></trkpt><trkpt lat="45.7986674" lon="10.0443549"><ele>564.0</ele><time>2026-05-03T16:03:48.962Z</time></trkpt><trkpt lat="45.7985672" lon="10.0444283"><ele>564.0</ele><time>2026-05-03T16:03:50.962Z</time></trkpt><trkpt lat="45.7984997" lon="10.0444645"><ele>566.8333333333334</ele><time>2026-05-03T16:03:51.963Z</time></trkpt><trkpt lat="45.7984389" lon="10.0445015"><ele>569.6666666666666</ele><time>2026-05-03T16:03:52.962Z</time></trkpt><trkpt lat="45.7983808" lon="10.0445722"><ele>572.5</ele><time>2026-05-03T16:03:53.963Z</time></trkpt><trkpt lat="45.798327" lon="10.0446358"><ele>575.3333333333333</ele><time>2026-05-03T16:03:54.962Z</time></trkpt><trkpt lat="45.798235" lon="10.0447696"><ele>578.1666666666666</ele><time>2026-05-03T16:03:56.961Z</time></trkpt><trkpt lat="45.7981868" lon="10.0448408"><ele>581.0</ele><time>2026-05-03T16:03:57.962Z</time></trkpt><trkpt lat="45.7980999" lon="10.0449494"><ele>581.0</ele><time>2026-05-03T16:03:59.962Z</time></trkpt><trkpt lat="45.7980366" lon="10.0449856"><ele>581.0</ele><time>2026-05-03T16:04:00.96Z</time></trkpt><trkpt lat="45.7979295" lon="10.0450081"><ele>581.0</ele><time>2026-05-03T16:04:02.961Z</time></trkpt><trkpt lat="45.7978298" lon="10.0449299"><ele>581.0</ele><time>2026-05-03T16:04:04.961Z</time></trkpt><trkpt lat="45.7977818" lon="10.0448576"><ele>581.0</ele><time>2026-05-03T16:04:05.961Z</time></trkpt><trkpt lat="45.7977276" lon="10.0447865"><ele>581.0</ele><time>2026-05-03T16:04:06.962Z</time></trkpt><trkpt lat="45.7976645" lon="10.044733"><ele>581.5</ele><time>2026-05-03T16:04:07.962Z</time></trkpt><trkpt lat="45.7975951" lon="10.0446786"><ele>582.0</ele><time>2026-05-03T16:04:08.962Z</time></trkpt><trkpt lat="45.7975239" lon="10.0446253"><ele>582.5</ele><time>2026-05-03T16:04:09.961Z</time></trkpt><trkpt lat="45.7974445" lon="10.0445709"><ele>583.0</ele><time>2026-05-03T16:04:10.962Z</time></trkpt><trkpt lat="45.7973636" lon="10.0445325"><ele>583.5</ele><time>2026-05-03T16:04:11.962Z</time></trkpt><trkpt lat="45.7972826" lon="10.0445129"><ele>584.0</ele><time>2026-05-03T16:04:12.962Z</time></trkpt><trkpt lat="45.7972008" lon="10.0445144"><ele>584.0</ele><time>2026-05-03T16:04:13.963Z</time></trkpt><trkpt lat="45.7971211" lon="10.0445325"><ele>584.0</ele><time>2026-05-03T16:04:14.962Z</time></trkpt><trkpt lat="45.7970418" lon="10.0445477"><ele>584.0</ele><time>2026-05-03T16:04:15.961Z</time></trkpt><trkpt lat="45.7969627" lon="10.0445427"><ele>584.0</ele><time>2026-05-03T16:04:16.961Z</time></trkpt><trkpt lat="45.7968955" lon="10.0445066"><ele>584.0</ele><time>2026-05-03T16:04:17.961Z</time></trkpt><trkpt lat="45.7968371" lon="10.044447"><ele>584.0</ele><time>2026-05-03T16:04:18.961Z</time></trkpt><trkpt lat="45.7967846" lon="10.0443578"><ele>583.8</ele><time>2026-05-03T16:04:19.961Z</time></trkpt><trkpt lat="45.7967338" lon="10.0442601"><ele>583.5999999999999</ele><time>2026-05-03T16:04:20.961Z</time></trkpt><trkpt lat="45.7966803" lon="10.0441511"><ele>583.4</ele><time>2026-05-03T16:04:21.961Z</time></trkpt><trkpt lat="45.7966194" lon="10.0440349"><ele>583.1999999999999</ele><time>2026-05-03T16:04:22.961Z</time></trkpt><trkpt lat="45.7965584" lon="10.0439252"><ele>583.0</ele><time>2026-05-03T16:04:23.961Z</time></trkpt><trkpt lat="45.7964992" lon="10.0438098"><ele>584.5</ele><time>2026-05-03T16:04:24.961Z</time></trkpt><trkpt lat="45.7964425" lon="10.0436905"><ele>586.0</ele><time>2026-05-03T16:04:25.961Z</time></trkpt><trkpt lat="45.7963893" lon="10.0435727"><ele>587.5</ele><time>2026-05-03T16:04:26.962Z</time></trkpt><trkpt lat="45.7963493" lon="10.0434652"><ele>589.0</ele><time>2026-05-03T16:04:27.962Z</time></trkpt><trkpt lat="45.7963128" lon="10.0433704"><ele>590.5</ele><time>2026-05-03T16:04:28.961Z</time></trkpt><trkpt lat="45.7962764" lon="10.0432799"><ele>592.0</ele><time>2026-05-03T16:04:29.961Z</time></trkpt><trkpt lat="45.7962361" lon="10.0431834"><ele>593.6666666666667</ele><time>2026-05-03T16:04:30.962Z</time></trkpt><trkpt lat="45.7961942" lon="10.0430837"><ele>595.3333333333334</ele><time>2026-05-03T16:04:31.963Z</time></trkpt><trkpt lat="45.796152" lon="10.0429787"><ele>597.0</ele><time>2026-05-03T16:04:32.962Z</time></trkpt><trkpt lat="45.7961367" lon="10.0428737"><ele>598.6666666666666</ele><time>2026-05-03T16:04:33.962Z</time></trkpt><trkpt lat="45.7961332" lon="10.0427619"><ele>600.3333333333333</ele><time>2026-05-03T16:04:34.962Z</time></trkpt><trkpt lat="45.7961066" lon="10.0426298"><ele>602.0</ele><time>2026-05-03T16:04:35.961Z</time></trkpt><trkpt lat="45.7960742" lon="10.0424964"><ele>601.6666666666666</ele><time>2026-05-03T16:04:36.962Z</time></trkpt><trkpt lat="45.7960325" lon="10.0423902"><ele>601.3333333333333</ele><time>2026-05-03T16:04:37.963Z</time></trkpt><trkpt lat="45.7959751" lon="10.0423112"><ele>601.0</ele><time>2026-05-03T16:04:38.962Z</time></trkpt><trkpt lat="45.7959163" lon="10.0422649"><ele>600.6666666666666</ele><time>2026-05-03T16:04:39.962Z</time></trkpt><trkpt lat="45.7958297" lon="10.0422336"><ele>600.3333333333334</ele><time>2026-05-03T16:04:41.963Z</time></trkpt><trkpt lat="45.795734" lon="10.0422299"><ele>600.0</ele><time>2026-05-03T16:04:43.961Z</time></trkpt><trkpt lat="45.7956787" lon="10.0421666"><ele>600.0</ele><time>2026-05-03T16:04:44.962Z</time></trkpt><trkpt lat="45.7956255" lon="10.0420813"><ele>600.0</ele><time>2026-05-03T16:04:45.963Z</time></trkpt><trkpt lat="45.7955735" lon="10.0419875"><ele>600.0</ele><time>2026-05-03T16:04:46.962Z</time></trkpt><trkpt lat="45.7955079" lon="10.0418733"><ele>600.0</ele><time>2026-05-03T16:04:47.961Z</time></trkpt><trkpt lat="45.7954365" lon="10.041769"><ele>600.0</ele><time>2026-05-03T16:04:48.961Z</time></trkpt><trkpt lat="45.7953546" lon="10.0416497"><ele>599.5</ele><time>2026-05-03T16:04:49.962Z</time></trkpt><trkpt lat="45.7952727" lon="10.041534"><ele>599.0</ele><time>2026-05-03T16:04:50.963Z</time></trkpt><trkpt lat="45.7951888" lon="10.0414033"><ele>598.5</ele><time>2026-05-03T16:04:51.962Z</time></trkpt><trkpt lat="45.7951057" lon="10.041263"><ele>598.0</ele><time>2026-05-03T16:04:52.961Z</time></trkpt><trkpt lat="45.7950263" lon="10.0411154"><ele>598.0</ele><time>2026-05-03T16:04:53.962Z</time></trkpt><trkpt lat="45.7949475" lon="10.0409613"><ele>598.0</ele><time>2026-05-03T16:04:54.963Z</time></trkpt><trkpt lat="45.7948699" lon="10.0408082"><ele>598.0</ele><time>2026-05-03T16:04:55.961Z</time></trkpt><trkpt lat="45.7947929" lon="10.0406491"><ele>598.0</ele><time>2026-05-03T16:04:56.962Z</time></trkpt><trkpt lat="45.7947233" lon="10.0404862"><ele>600.0</ele><time>2026-05-03T16:04:57.962Z</time></trkpt><trkpt lat="45.7946685" lon="10.0403165"><ele>602.0</ele><time>2026-05-03T16:04:58.961Z</time></trkpt><trkpt lat="45.7946205" lon="10.0401573"><ele>604.0</ele><time>2026-05-03T16:04:59.961Z</time></trkpt><trkpt lat="45.7945756" lon="10.0399813"><ele>606.0</ele><time>2026-05-03T16:05:00.962Z</time></trkpt><trkpt lat="45.7945289" lon="10.0398183"><ele>605.25</ele><time>2026-05-03T16:05:01.962Z</time></trkpt><trkpt lat="45.7944844" lon="10.0396495"><ele>604.5</ele><time>2026-05-03T16:05:02.961Z</time></trkpt><trkpt lat="45.7944486" lon="10.0395021"><ele>603.75</ele><time>2026-05-03T16:05:03.961Z</time></trkpt><trkpt lat="45.794394" lon="10.0393341"><ele>603.0</ele><time>2026-05-03T16:05:04.963Z</time></trkpt><trkpt lat="45.7943262" lon="10.0391806"><ele>604.5</ele><time>2026-05-03T16:05:05.962Z</time></trkpt><trkpt lat="45.7942565" lon="10.0390239"><ele>606.0</ele><time>2026-05-03T16:05:06.962Z</time></trkpt><trkpt lat="45.7941779" lon="10.0388845"><ele>607.5</ele><time>2026-05-03T16:05:07.961Z</time></trkpt><trkpt lat="45.7941155" lon="10.0387258"><ele>609.0</ele><time>2026-05-03T16:05:08.961Z</time></trkpt><trkpt lat="45.794061" lon="10.0385675"><ele>609.0</ele><time>2026-05-03T16:05:09.961Z</time></trkpt><trkpt lat="45.7940108" lon="10.0384078"><ele>609.0</ele><time>2026-05-03T16:05:10.962Z</time></trkpt><trkpt lat="45.793959" lon="10.0382533"><ele>609.0</ele><time>2026-05-03T16:05:11.961Z</time></trkpt><trkpt lat="45.7939036" lon="10.0381058"><ele>609.0</ele><time>2026-05-03T16:05:12.962Z</time></trkpt><trkpt lat="45.7938486" lon="10.0379585"><ele>609.75</ele><time>2026-05-03T16:05:13.963Z</time></trkpt><trkpt lat="45.7937918" lon="10.0378108"><ele>610.5</ele><time>2026-05-03T16:05:14.961Z</time></trkpt><trkpt lat="45.7937348" lon="10.037659"><ele>611.25</ele><time>2026-05-03T16:05:15.961Z</time></trkpt><trkpt lat="45.7936701" lon="10.0375025"><ele>612.0</ele><time>2026-05-03T16:05:16.962Z</time></trkpt><trkpt lat="45.7935935" lon="10.037342"><ele>611.25</ele><time>2026-05-03T16:05:17.963Z</time></trkpt><trkpt lat="45.7935054" lon="10.0371839"><ele>610.5</ele><time>2026-05-03T16:05:18.963Z</time></trkpt><trkpt lat="45.7934115" lon="10.0370284"><ele>609.75</ele><time>2026-05-03T16:05:19.963Z</time></trkpt><trkpt lat="45.7933241" lon="10.0368745"><ele>609.0</ele><time>2026-05-03T16:05:20.961Z</time></trkpt><trkpt lat="45.793245" lon="10.036709"><ele>609.5</ele><time>2026-05-03T16:05:21.963Z</time></trkpt><trkpt lat="45.7931733" lon="10.036524"><ele>610.0</ele><time>2026-05-03T16:05:22.962Z</time></trkpt><trkpt lat="45.7931225" lon="10.0363378"><ele>610.5</ele><time>2026-05-03T16:05:23.962Z</time></trkpt><trkpt lat="45.7930988" lon="10.036144"><ele>611.0</ele><time>2026-05-03T16:05:24.962Z</time></trkpt><trkpt lat="45.7931017" lon="10.0359549"><ele>611.8</ele><time>2026-05-03T16:05:25.961Z</time></trkpt><trkpt lat="45.7931138" lon="10.0357828"><ele>612.6</ele><time>2026-05-03T16:05:26.962Z</time></trkpt><trkpt lat="45.7930895" lon="10.0356595"><ele>613.4</ele><time>2026-05-03T16:05:27.963Z</time></trkpt><trkpt lat="45.7930415" lon="10.035537"><ele>614.2</ele><time>2026-05-03T16:05:28.962Z</time></trkpt><trkpt lat="45.7929878" lon="10.0354365"><ele>615.0</ele><time>2026-05-03T16:05:29.962Z</time></trkpt><trkpt lat="45.7929172" lon="10.0353563"><ele>615.0</ele><time>2026-05-03T16:05:30.963Z</time></trkpt><trkpt lat="45.7928629" lon="10.0352554"><ele>615.0</ele><time>2026-05-03T16:05:31.962Z</time></trkpt><trkpt lat="45.7928249" lon="10.0351427"><ele>615.0</ele><time>2026-05-03T16:05:32.961Z</time></trkpt><trkpt lat="45.7928074" lon="10.0350183"><ele>615.0</ele><time>2026-05-03T16:05:33.962Z</time></trkpt><trkpt lat="45.7927901" lon="10.034891"><ele>615.0</ele><time>2026-05-03T16:05:34.961Z</time></trkpt><trkpt lat="45.7927645" lon="10.0347674"><ele>615.0</ele><time>2026-05-03T16:05:35.961Z</time></trkpt><trkpt lat="45.7927418" lon="10.0346462"><ele>615.3333333333334</ele><time>2026-05-03T16:05:36.961Z</time></trkpt><trkpt lat="45.7927212" lon="10.0345306"><ele>615.6666666666666</ele><time>2026-05-03T16:05:37.961Z</time></trkpt><trkpt lat="45.7926877" lon="10.0344308"><ele>616.0</ele><time>2026-05-03T16:05:38.961Z</time></trkpt><trkpt lat="45.7926395" lon="10.0343487"><ele>616.3333333333333</ele><time>2026-05-03T16:05:39.96Z</time></trkpt><trkpt lat="45.7925586" lon="10.0342457"><ele>616.6666666666666</ele><time>2026-05-03T16:05:41.962Z</time></trkpt><trkpt lat="45.7924982" lon="10.0341967"><ele>617.0</ele><time>2026-05-03T16:05:45.961Z</time></trkpt><trkpt lat="45.7924525" lon="10.0342661"><ele>615.8000000000001</ele><time>2026-05-03T16:05:48.962Z</time></trkpt><trkpt lat="45.7924061" lon="10.03435"><ele>614.6</ele><time>2026-05-03T16:05:50.962Z</time></trkpt><trkpt lat="45.7923834" lon="10.034443"><ele>613.4000000000001</ele><time>2026-05-03T16:05:52.963Z</time></trkpt><trkpt lat="45.7923508" lon="10.0346375"><ele>612.2</ele><time>2026-05-03T16:05:55.962Z</time></trkpt><trkpt lat="45.792298" lon="10.034747"><ele>611.0</ele><time>2026-05-03T16:05:57.961Z</time></trkpt><trkpt lat="45.7922234" lon="10.0347748"><ele>611.0</ele><time>2026-05-03T16:06:00.961Z</time></trkpt><trkpt lat="45.7921592" lon="10.0347732"><ele>611.0</ele><time>2026-05-03T16:06:02.961Z</time></trkpt><trkpt lat="45.7920387" lon="10.0347741"><ele>611.0</ele><time>2026-05-03T16:06:04.962Z</time></trkpt><trkpt lat="45.7919709" lon="10.0347765"><ele>611.0</ele><time>2026-05-03T16:06:05.962Z</time></trkpt><trkpt lat="45.7918981" lon="10.0347543"><ele>611.0</ele><time>2026-05-03T16:06:07.961Z</time></trkpt><trkpt lat="45.7917953" lon="10.0347125"><ele>611.0</ele><time>2026-05-03T16:06:09.961Z</time></trkpt><trkpt lat="45.7917259" lon="10.0347024"><ele>611.8333333333333</ele><time>2026-05-03T16:11:43.962Z</time></trkpt><trkpt lat="45.7916477" lon="10.0347267"><ele>612.6666666666666</ele><time>2026-05-03T16:11:45.963Z</time></trkpt><trkpt lat="45.7915602" lon="10.0347124"><ele>613.5</ele><time>2026-05-03T16:11:47.961Z</time></trkpt><trkpt lat="45.7915392" lon="10.0346109"><ele>614.3333333333334</ele><time>2026-05-03T16:11:50.963Z</time></trkpt><trkpt lat="45.7916163" lon="10.0346119"><ele>615.1666666666667</ele><time>2026-05-03T16:12:22.962Z</time></trkpt><trkpt lat="45.7917021" lon="10.0346781"><ele>616.0</ele><time>2026-05-03T16:12:24.961Z</time></trkpt><trkpt lat="45.7917703" lon="10.0347207"><ele>615.1666666666667</ele><time>2026-05-03T16:12:26.961Z</time></trkpt><trkpt lat="45.791848" lon="10.0347582"><ele>614.3333333333334</ele><time>2026-05-03T16:12:28.961Z</time></trkpt><trkpt lat="45.7919186" lon="10.0347973"><ele>613.5</ele><time>2026-05-03T16:12:30.963Z</time></trkpt><trkpt lat="45.792" lon="10.0348261"><ele>612.6666666666666</ele><time>2026-05-03T16:12:32.963Z</time></trkpt><trkpt lat="45.7920757" lon="10.0348206"><ele>611.8333333333333</ele><time>2026-05-03T16:12:34.961Z</time></trkpt><trkpt lat="45.7921459" lon="10.034818"><ele>611.0</ele><time>2026-05-03T16:12:36.961Z</time></trkpt><trkpt lat="45.792213" lon="10.0348126"><ele>611.0000000000001</ele><time>2026-05-03T16:12:38.962Z</time></trkpt><trkpt lat="45.7922879" lon="10.0348272"><ele>611.0</ele><time>2026-05-03T16:12:41.961Z</time></trkpt><trkpt lat="45.7923511" lon="10.0347714"><ele>611.0</ele><time>2026-05-03T16:12:43.962Z</time></trkpt><trkpt lat="45.7923804" lon="10.0346885"><ele>611.0</ele><time>2026-05-03T16:12:45.962Z</time></trkpt><trkpt lat="45.7923804" lon="10.0345737"><ele>611.0</ele><time>2026-05-03T16:12:47.961Z</time></trkpt><trkpt lat="45.7923898" lon="10.0344829"><ele>611.0000000000001</ele><time>2026-05-03T16:12:49.962Z</time></trkpt><trkpt lat="45.7924161" lon="10.0343956"><ele>611.0</ele><time>2026-05-03T16:12:52.962Z</time></trkpt><trkpt lat="45.7924601" lon="10.0343069"><ele>611.0</ele><time>2026-05-03T16:12:55.962Z</time></trkpt><trkpt lat="45.792495" lon="10.0342167"><ele>611.0</ele><time>2026-05-03T16:12:58.962Z</time></trkpt><trkpt lat="45.7925669" lon="10.0341799"><ele>611.0</ele><time>2026-05-03T16:13:00.963Z</time></trkpt><trkpt lat="45.7926725" lon="10.0341676"><ele>611.0</ele><time>2026-05-03T16:13:02.962Z</time></trkpt><trkpt lat="45.7927772" lon="10.0341582"><ele>611.0</ele><time>2026-05-03T16:13:04.962Z</time></trkpt><trkpt lat="45.7928706" lon="10.0341719"><ele>612.2</ele><time>2026-05-03T16:13:06.961Z</time></trkpt><trkpt lat="45.7929727" lon="10.0341846"><ele>613.4000000000001</ele><time>2026-05-03T16:13:08.962Z</time></trkpt><trkpt lat="45.7930635" lon="10.0342096"><ele>614.6</ele><time>2026-05-03T16:13:10.962Z</time></trkpt><trkpt lat="45.7931609" lon="10.0342746"><ele>615.8000000000001</ele><time>2026-05-03T16:13:12.962Z</time></trkpt><trkpt lat="45.7932505" lon="10.034354"><ele>617.0</ele><time>2026-05-03T16:13:14.963Z</time></trkpt><trkpt lat="45.7933314" lon="10.03444"><ele>617.0</ele><time>2026-05-03T16:13:16.962Z</time></trkpt><trkpt lat="45.7933834" lon="10.0345353"><ele>617.0</ele><time>2026-05-03T16:13:18.962Z</time></trkpt><trkpt lat="45.7934336" lon="10.0346345"><ele>617.0</ele><time>2026-05-03T16:13:20.963Z</time></trkpt><trkpt lat="45.7934908" lon="10.034722"><ele>617.0</ele><time>2026-05-03T16:13:22.961Z</time></trkpt><trkpt lat="45.7935442" lon="10.0347963"><ele>617.0</ele><time>2026-05-03T16:13:24.962Z</time></trkpt><trkpt lat="45.7936155" lon="10.0348613"><ele>617.0</ele><time>2026-05-03T16:13:26.963Z</time></trkpt><trkpt lat="45.7936997" lon="10.0349466"><ele>618.6</ele><time>2026-05-03T16:13:28.961Z</time></trkpt><trkpt lat="45.7937524" lon="10.0350394"><ele>620.2</ele><time>2026-05-03T16:13:30.962Z</time></trkpt><trkpt lat="45.7938174" lon="10.035144"><ele>621.8</ele><time>2026-05-03T16:13:32.962Z</time></trkpt><trkpt lat="45.7938816" lon="10.0352477"><ele>623.4</ele><time>2026-05-03T16:13:34.961Z</time></trkpt><trkpt lat="45.793935" lon="10.0353541"><ele>625.0</ele><time>2026-05-03T16:13:36.963Z</time></trkpt><trkpt lat="45.7939985" lon="10.0354393"><ele>625.0</ele><time>2026-05-03T16:13:38.961Z</time></trkpt><trkpt lat="45.7940586" lon="10.0355267"><ele>625.0</ele><time>2026-05-03T16:13:40.963Z</time></trkpt><trkpt lat="45.7941144" lon="10.035598"><ele>625.0</ele><time>2026-05-03T16:13:42.961Z</time></trkpt><trkpt lat="45.7941723" lon="10.0356881"><ele>625.0</ele><time>2026-05-03T16:13:44.962Z</time></trkpt><trkpt lat="45.7942416" lon="10.0357798"><ele>625.0</ele><time>2026-05-03T16:13:46.961Z</time></trkpt><trkpt lat="45.7942849" lon="10.0358699"><ele>625.0</ele><time>2026-05-03T16:13:48.962Z</time></trkpt><trkpt lat="45.7943166" lon="10.0359607"><ele>628.0</ele><time>2026-05-03T16:13:50.962Z</time></trkpt><trkpt lat="45.7943611" lon="10.0360637"><ele>631.0</ele><time>2026-05-03T16:13:52.962Z</time></trkpt><trkpt lat="45.7944138" lon="10.036165"><ele>634.0</ele><time>2026-05-03T16:13:54.962Z</time></trkpt><trkpt lat="45.7944828" lon="10.036269"><ele>637.0</ele><time>2026-05-03T16:13:56.961Z</time></trkpt><trkpt lat="45.7945353" lon="10.0363497"><ele>640.0</ele><time>2026-05-03T16:13:58.961Z</time></trkpt><trkpt lat="45.7946045" lon="10.0363853"><ele>643.0</ele><time>2026-05-03T16:14:00.962Z</time></trkpt><trkpt lat="45.7946985" lon="10.036439"><ele>643.0</ele><time>2026-05-03T16:14:03.962Z</time></trkpt><trkpt lat="45.7947743" lon="10.0365061"><ele>643.0</ele><time>2026-05-03T16:14:05.961Z</time></trkpt><trkpt lat="45.7948363" lon="10.0365674"><ele>643.0</ele><time>2026-05-03T16:14:07.961Z</time></trkpt><trkpt lat="45.7949025" lon="10.0366271"><ele>643.0</ele><time>2026-05-03T16:14:09.961Z</time></trkpt><trkpt lat="45.7949651" lon="10.0366971"><ele>643.0</ele><time>2026-05-03T16:14:11.961Z</time></trkpt><trkpt lat="45.7950164" lon="10.0367872"><ele>643.0</ele><time>2026-05-03T16:14:13.961Z</time></trkpt><trkpt lat="45.7950597" lon="10.0368813"><ele>641.2857142857142</ele><time>2026-05-03T16:14:15.962Z</time></trkpt><trkpt lat="45.7950797" lon="10.0370015"><ele>639.5714285714287</ele><time>2026-05-03T16:14:18.962Z</time></trkpt><trkpt lat="45.7950271" lon="10.0370575"><ele>637.8571428571429</ele><time>2026-05-03T16:14:20.962Z</time></trkpt><trkpt lat="45.7949651" lon="10.0370849"><ele>636.1428571428571</ele><time>2026-05-03T16:14:22.963Z</time></trkpt><trkpt lat="45.7949123" lon="10.0371531"><ele>634.4285714285713</ele><time>2026-05-03T16:14:25.962Z</time></trkpt><trkpt lat="45.7948748" lon="10.0372681"><ele>632.7142857142858</ele><time>2026-05-03T16:14:28.962Z</time></trkpt><trkpt lat="45.7949227" lon="10.0373472"><ele>631.0</ele><time>2026-05-03T16:14:30.961Z</time></trkpt><trkpt lat="45.7950061" lon="10.0373864"><ele>631.0</ele><time>2026-05-03T16:14:32.961Z</time></trkpt><trkpt lat="45.7951103" lon="10.0374137"><ele>631.0</ele><time>2026-05-03T16:14:34.962Z</time></trkpt><trkpt lat="45.795198" lon="10.0374509"><ele>631.0</ele><time>2026-05-03T16:14:36.961Z</time></trkpt><trkpt lat="45.7952751" lon="10.0374541"><ele>631.0</ele><time>2026-05-03T16:14:38.962Z</time></trkpt><trkpt lat="45.7953549" lon="10.0374775"><ele>631.0</ele><time>2026-05-03T16:14:41.962Z</time></trkpt><trkpt lat="45.7954183" lon="10.0375099"><ele>631.0</ele><time>2026-05-03T16:14:43.962Z</time></trkpt><trkpt lat="45.7954733" lon="10.0376038"><ele>635.0</ele><time>2026-05-03T16:14:46.961Z</time></trkpt><trkpt lat="45.7955107" lon="10.0376832"><ele>639.0</ele><time>2026-05-03T16:14:48.961Z</time></trkpt><trkpt lat="45.7955776" lon="10.0377455"><ele>643.0</ele><time>2026-05-03T16:14:50.962Z</time></trkpt><trkpt lat="45.7956623" lon="10.0378553"><ele>647.0</ele><time>2026-05-03T16:14:52.962Z</time></trkpt><trkpt lat="45.795707" lon="10.03793"><ele>651.0</ele><time>2026-05-03T16:14:53.961Z</time></trkpt><trkpt lat="45.7957681" lon="10.038063"><ele>655.0</ele><time>2026-05-03T16:14:55.963Z</time></trkpt><trkpt lat="45.7958393" lon="10.038177"><ele>655.0</ele><time>2026-05-03T16:14:57.962Z</time></trkpt><trkpt lat="45.7958765" lon="10.0382578"><ele>655.0</ele><time>2026-05-03T16:14:58.961Z</time></trkpt><trkpt lat="45.7959466" lon="10.0383909"><ele>655.0</ele><time>2026-05-03T16:15:00.962Z</time></trkpt><trkpt lat="45.7960127" lon="10.0384569"><ele>655.0</ele><time>2026-05-03T16:15:02.961Z</time></trkpt><trkpt lat="45.7960952" lon="10.0385163"><ele>655.0</ele><time>2026-05-03T16:15:04.962Z</time></trkpt><trkpt lat="45.7961455" lon="10.0385941"><ele>655.0</ele><time>2026-05-03T16:15:05.963Z</time></trkpt><trkpt lat="45.7962302" lon="10.0387154"><ele>655.5</ele><time>2026-05-03T16:15:07.961Z</time></trkpt><trkpt lat="45.7963131" lon="10.0388179"><ele>656.0</ele><time>2026-05-03T16:15:09.961Z</time></trkpt><trkpt lat="45.7964082" lon="10.0388988"><ele>656.5</ele><time>2026-05-03T16:15:11.962Z</time></trkpt><trkpt lat="45.7965004" lon="10.0389816"><ele>657.0</ele><time>2026-05-03T16:15:13.96Z</time></trkpt><trkpt lat="45.7965541" lon="10.0391393"><ele>657.0</ele><time>2026-05-03T16:15:15.962Z</time></trkpt><trkpt lat="45.7965985" lon="10.0392136"><ele>657.0</ele><time>2026-05-03T16:15:16.961Z</time></trkpt><trkpt lat="45.7966755" lon="10.0393125"><ele>657.0</ele><time>2026-05-03T16:15:18.961Z</time></trkpt><trkpt lat="45.7967189" lon="10.0394414"><ele>657.0</ele><time>2026-05-03T16:15:20.962Z</time></trkpt><trkpt lat="45.7967578" lon="10.0395771"><ele>657.0</ele><time>2026-05-03T16:15:22.963Z</time></trkpt><trkpt lat="45.7968232" lon="10.0397139"><ele>659.4000000000001</ele><time>2026-05-03T16:15:24.962Z</time></trkpt><trkpt lat="45.796939" lon="10.039818"><ele>661.8000000000001</ele><time>2026-05-03T16:15:26.963Z</time></trkpt><trkpt lat="45.7969891" lon="10.0398757"><ele>664.2</ele><time>2026-05-03T16:15:27.963Z</time></trkpt><trkpt lat="45.797067" lon="10.040005"><ele>666.6</ele><time>2026-05-03T16:15:29.962Z</time></trkpt><trkpt lat="45.7971591" lon="10.0400973"><ele>669.0</ele><time>2026-05-03T16:15:31.961Z</time></trkpt><trkpt lat="45.7972219" lon="10.0401273"><ele>669.0</ele><time>2026-05-03T16:15:32.962Z</time></trkpt><trkpt lat="45.7973504" lon="10.0401311"><ele>669.0</ele><time>2026-05-03T16:15:34.962Z</time></trkpt><trkpt lat="45.7974556" lon="10.040182"><ele>669.0</ele><time>2026-05-03T16:15:36.961Z</time></trkpt><trkpt lat="45.7975304" lon="10.040233"><ele>669.0</ele><time>2026-05-03T16:15:37.961Z</time></trkpt><trkpt lat="45.7975911" lon="10.0402746"><ele>669.0</ele><time>2026-05-03T16:15:38.962Z</time></trkpt><trkpt lat="45.7976625" lon="10.0403084"><ele>670.0</ele><time>2026-05-03T16:15:39.962Z</time></trkpt><trkpt lat="45.7977248" lon="10.0403353"><ele>671.0</ele><time>2026-05-03T16:15:40.962Z</time></trkpt><trkpt lat="45.7977958" lon="10.0403652"><ele>672.0</ele><time>2026-05-03T16:15:41.96Z</time></trkpt><trkpt lat="45.7979295" lon="10.0403684"><ele>673.0</ele><time>2026-05-03T16:15:43.962Z</time></trkpt><trkpt lat="45.7979929" lon="10.0403284"><ele>674.0</ele><time>2026-05-03T16:15:44.962Z</time></trkpt><trkpt lat="45.7980513" lon="10.0402865"><ele>675.0</ele><time>2026-05-03T16:15:45.962Z</time></trkpt><trkpt lat="45.7981001" lon="10.0402192"><ele>675.0</ele><time>2026-05-03T16:15:46.962Z</time></trkpt><trkpt lat="45.7981439" lon="10.0401341"><ele>675.0</ele><time>2026-05-03T16:15:47.961Z</time></trkpt><trkpt lat="45.7982243" lon="10.0400379"><ele>675.0</ele><time>2026-05-03T16:15:49.96Z</time></trkpt><trkpt lat="45.7982671" lon="10.0399468"><ele>675.0</ele><time>2026-05-03T16:15:50.962Z</time></trkpt><trkpt lat="45.798313" lon="10.0398693"><ele>675.0</ele><time>2026-05-03T16:15:51.962Z</time></trkpt><trkpt lat="45.798368" lon="10.0397483"><ele>675.0</ele><time>2026-05-03T16:15:52.961Z</time></trkpt><trkpt lat="45.7984259" lon="10.0396341"><ele>677.6</ele><time>2026-05-03T16:15:53.962Z</time></trkpt><trkpt lat="45.7984734" lon="10.0395029"><ele>680.2</ele><time>2026-05-03T16:15:54.962Z</time></trkpt><trkpt lat="45.7985246" lon="10.0393868"><ele>682.8</ele><time>2026-05-03T16:15:55.962Z</time></trkpt><trkpt lat="45.7985868" lon="10.0392897"><ele>685.4</ele><time>2026-05-03T16:15:56.961Z</time></trkpt><trkpt lat="45.7986667" lon="10.0392092"><ele>688.0</ele><time>2026-05-03T16:15:57.961Z</time></trkpt><trkpt lat="45.7987528" lon="10.0391516"><ele>691.0</ele><time>2026-05-03T16:15:58.962Z</time></trkpt><trkpt lat="45.7988433" lon="10.0391089"><ele>694.0</ele><time>2026-05-03T16:15:59.963Z</time></trkpt><trkpt lat="45.7989251" lon="10.0390932"><ele>697.0</ele><time>2026-05-03T16:16:00.962Z</time></trkpt><trkpt lat="45.799021" lon="10.0390133"><ele>700.0</ele><time>2026-05-03T16:16:02.962Z</time></trkpt><trkpt lat="45.7990619" lon="10.0389343"><ele>703.0</ele><time>2026-05-03T16:16:03.961Z</time></trkpt><trkpt lat="45.7991147" lon="10.0388373"><ele>706.0</ele><time>2026-05-03T16:16:04.962Z</time></trkpt><trkpt lat="45.7991705" lon="10.0387338"><ele>706.0</ele><time>2026-05-03T16:16:05.962Z</time></trkpt><trkpt lat="45.7992294" lon="10.0386481"><ele>706.0</ele><time>2026-05-03T16:16:06.962Z</time></trkpt><trkpt lat="45.7992777" lon="10.0385665"><ele>706.0</ele><time>2026-05-03T16:16:07.962Z</time></trkpt><trkpt lat="45.7993036" lon="10.0384836"><ele>706.0</ele><time>2026-05-03T16:16:08.961Z</time></trkpt><trkpt lat="45.799299" lon="10.0383811"><ele>706.0</ele><time>2026-05-03T16:16:09.961Z</time></trkpt><trkpt lat="45.7992813" lon="10.0382819"><ele>706.0</ele><time>2026-05-03T16:16:10.96Z</time></trkpt><trkpt lat="45.7992528" lon="10.0381007"><ele>708.3333333333334</ele><time>2026-05-03T16:16:12.962Z</time></trkpt><trkpt lat="45.7992453" lon="10.0379825"><ele>710.6666666666667</ele><time>2026-05-03T16:16:13.962Z</time></trkpt><trkpt lat="45.7992482" lon="10.0378821"><ele>713.0</ele><time>2026-05-03T16:16:14.962Z</time></trkpt><trkpt lat="45.7992526" lon="10.0377505"><ele>715.3333333333334</ele><time>2026-05-03T16:16:15.96Z</time></trkpt><trkpt lat="45.7991913" lon="10.0377127"><ele>717.6666666666666</ele><time>2026-05-03T16:16:17.962Z</time></trkpt><trkpt lat="45.7991233" lon="10.037829"><ele>720.0</ele><time>2026-05-03T16:16:19.962Z</time></trkpt><trkpt lat="45.7990899" lon="10.0379181"><ele>720.0</ele><time>2026-05-03T16:16:20.962Z</time></trkpt><trkpt lat="45.7990426" lon="10.0380079"><ele>720.0</ele><time>2026-05-03T16:16:21.961Z</time></trkpt><trkpt lat="45.798999" lon="10.0381035"><ele>720.0</ele><time>2026-05-03T16:16:22.961Z</time></trkpt><trkpt lat="45.7989502" lon="10.0381692"><ele>720.0</ele><time>2026-05-03T16:16:23.962Z</time></trkpt><trkpt lat="45.7988459" lon="10.0382271"><ele>720.0</ele><time>2026-05-03T16:16:25.962Z</time></trkpt><trkpt lat="45.7987624" lon="10.0382702"><ele>720.0</ele><time>2026-05-03T16:16:26.961Z</time></trkpt><trkpt lat="45.7986781" lon="10.0382966"><ele>720.0</ele><time>2026-05-03T16:16:27.961Z</time></trkpt><trkpt lat="45.7986142" lon="10.0382925"><ele>720.0</ele><time>2026-05-03T16:16:28.961Z</time></trkpt><trkpt lat="45.7985294" lon="10.0382472"><ele>720.0</ele><time>2026-05-03T16:16:29.961Z</time></trkpt><trkpt lat="45.7984414" lon="10.0382401"><ele>720.0</ele><time>2026-05-03T16:16:30.962Z</time></trkpt><trkpt lat="45.7983484" lon="10.038222"><ele>720.0</ele><time>2026-05-03T16:16:31.961Z</time></trkpt><trkpt lat="45.7982528" lon="10.038204"><ele>720.0</ele><time>2026-05-03T16:16:32.962Z</time></trkpt><trkpt lat="45.7981651" lon="10.0381901"><ele>723.0</ele><time>2026-05-03T16:16:33.962Z</time></trkpt><trkpt lat="45.7980948" lon="10.0381858"><ele>726.0</ele><time>2026-05-03T16:16:34.962Z</time></trkpt><trkpt lat="45.7980278" lon="10.0381459"><ele>729.0</ele><time>2026-05-03T16:16:35.962Z</time></trkpt><trkpt lat="45.7979573" lon="10.0381141"><ele>732.0</ele><time>2026-05-03T16:16:36.961Z</time></trkpt><trkpt lat="45.7978796" lon="10.0379589"><ele>735.0</ele><time>2026-05-03T16:16:38.961Z</time></trkpt><trkpt lat="45.7978321" lon="10.0378754"><ele>738.0</ele><time>2026-05-03T16:16:39.962Z</time></trkpt><trkpt lat="45.797734" lon="10.0377618"><ele>736.0</ele><time>2026-05-03T16:16:41.963Z</time></trkpt><trkpt lat="45.7976529" lon="10.0376229"><ele>734.0</ele><time>2026-05-03T16:16:42.962Z</time></trkpt><trkpt lat="45.7974762" lon="10.0375258"><ele>732.0</ele><time>2026-05-03T16:16:44.962Z</time></trkpt><trkpt lat="45.7974013" lon="10.0375016"><ele>730.0</ele><time>2026-05-03T16:16:45.961Z</time></trkpt><trkpt lat="45.797325" lon="10.0374768"><ele>732.8333333333334</ele><time>2026-05-03T16:16:46.962Z</time></trkpt><trkpt lat="45.7972816" lon="10.0373518"><ele>735.6666666666667</ele><time>2026-05-03T16:16:48.961Z</time></trkpt><trkpt lat="45.7972642" lon="10.0372438"><ele>738.5</ele><time>2026-05-03T16:16:49.961Z</time></trkpt><trkpt lat="45.7972411" lon="10.0371522"><ele>741.3333333333334</ele><time>2026-05-03T16:16:50.961Z</time></trkpt><trkpt lat="45.797221" lon="10.0370401"><ele>744.1666666666666</ele><time>2026-05-03T16:16:51.962Z</time></trkpt><trkpt lat="45.7971903" lon="10.0369318"><ele>747.0</ele><time>2026-05-03T16:16:52.962Z</time></trkpt><trkpt lat="45.7971755" lon="10.0368367"><ele>747.0</ele><time>2026-05-03T16:16:53.962Z</time></trkpt><trkpt lat="45.7971607" lon="10.0367262"><ele>747.0</ele><time>2026-05-03T16:16:55.962Z</time></trkpt><trkpt lat="45.7971229" lon="10.0365996"><ele>747.0</ele><time>2026-05-03T16:16:57.962Z</time></trkpt><trkpt lat="45.7970144" lon="10.0365447"><ele>747.0</ele><time>2026-05-03T16:16:59.962Z</time></trkpt><trkpt lat="45.7969195" lon="10.0364664"><ele>747.0</ele><time>2026-05-03T16:17:01.962Z</time></trkpt><trkpt lat="45.7968262" lon="10.0363859"><ele>740.8</ele><time>2026-05-03T16:17:03.962Z</time></trkpt><trkpt lat="45.7967714" lon="10.0362967"><ele>734.6</ele><time>2026-05-03T16:17:05.961Z</time></trkpt><trkpt lat="45.7967404" lon="10.0361593"><ele>728.4</ele><time>2026-05-03T16:17:07.962Z</time></trkpt><trkpt lat="45.7967162" lon="10.0360561"><ele>722.1999999999999</ele><time>2026-05-03T16:17:09.961Z</time></trkpt><trkpt lat="45.7967085" lon="10.0359585"><ele>716.0</ele><time>2026-05-03T16:17:10.962Z</time></trkpt><trkpt lat="45.7967102" lon="10.0357821"><ele>715.1999999999999</ele><time>2026-05-03T16:17:12.961Z</time></trkpt><trkpt lat="45.7967302" lon="10.0355996"><ele>714.4</ele><time>2026-05-03T16:17:14.961Z</time></trkpt><trkpt lat="45.7967115" lon="10.0355073"><ele>713.6</ele><time>2026-05-03T16:17:15.962Z</time></trkpt><trkpt lat="45.7966992" lon="10.0353784"><ele>712.8</ele><time>2026-05-03T16:17:16.961Z</time></trkpt><trkpt lat="45.7966823" lon="10.0352657"><ele>712.0</ele><time>2026-05-03T16:17:17.962Z</time></trkpt><trkpt lat="45.7966967" lon="10.0350989"><ele>712.0</ele><time>2026-05-03T16:17:19.961Z</time></trkpt><trkpt lat="45.7967168" lon="10.0350006"><ele>712.0</ele><time>2026-05-03T16:17:20.961Z</time></trkpt><trkpt lat="45.7967665" lon="10.0348476"><ele>712.0</ele><time>2026-05-03T16:17:22.962Z</time></trkpt><trkpt lat="45.796819" lon="10.0347049"><ele>712.0</ele><time>2026-05-03T16:17:24.962Z</time></trkpt><trkpt lat="45.7968781" lon="10.0345454"><ele>712.0</ele><time>2026-05-03T16:17:26.961Z</time></trkpt><trkpt lat="45.7969077" lon="10.0344529"><ele>712.8333333333334</ele><time>2026-05-03T16:17:27.961Z</time></trkpt><trkpt lat="45.7969501" lon="10.0343381"><ele>713.6666666666667</ele><time>2026-05-03T16:17:28.961Z</time></trkpt><trkpt lat="45.7969889" lon="10.0342405"><ele>714.5</ele><time>2026-05-03T16:17:29.961Z</time></trkpt><trkpt lat="45.7970434" lon="10.0341434"><ele>715.3333333333334</ele><time>2026-05-03T16:17:30.961Z</time></trkpt><trkpt lat="45.7970845" lon="10.0340399"><ele>716.1666666666666</ele><time>2026-05-03T16:17:31.961Z</time></trkpt><trkpt lat="45.7971474" lon="10.0339573"><ele>717.0</ele><time>2026-05-03T16:17:32.961Z</time></trkpt><trkpt lat="45.7972042" lon="10.0338761"><ele>717.0</ele><time>2026-05-03T16:17:33.961Z</time></trkpt><trkpt lat="45.7972518" lon="10.0337489"><ele>717.0</ele><time>2026-05-03T16:17:35.961Z</time></trkpt><trkpt lat="45.7972662" lon="10.0335968"><ele>717.0</ele><time>2026-05-03T16:17:37.962Z</time></trkpt><trkpt lat="45.7972504" lon="10.0334225"><ele>717.0</ele><time>2026-05-03T16:17:39.962Z</time></trkpt><trkpt lat="45.7972402" lon="10.0332877"><ele>717.0</ele><time>2026-05-03T16:17:40.962Z</time></trkpt><trkpt lat="45.7972554" lon="10.0331686"><ele>714.2</ele><time>2026-05-03T16:17:41.962Z</time></trkpt><trkpt lat="45.7972936" lon="10.033072"><ele>711.4000000000001</ele><time>2026-05-03T16:17:42.962Z</time></trkpt><trkpt lat="45.7972984" lon="10.0329661"><ele>708.5999999999999</ele><time>2026-05-03T16:17:43.961Z</time></trkpt><trkpt lat="45.7973243" lon="10.0328795"><ele>705.8</ele><time>2026-05-03T16:17:44.962Z</time></trkpt><trkpt lat="45.7973729" lon="10.0327136"><ele>703.0</ele><time>2026-05-03T16:17:46.962Z</time></trkpt><trkpt lat="45.7974282" lon="10.0325784"><ele>702.1666666666667</ele><time>2026-05-03T16:17:47.961Z</time></trkpt><trkpt lat="45.7974921" lon="10.0324598"><ele>701.3333333333334</ele><time>2026-05-03T16:17:48.963Z</time></trkpt><trkpt lat="45.797541" lon="10.0323417"><ele>700.5</ele><time>2026-05-03T16:17:49.962Z</time></trkpt><trkpt lat="45.7975924" lon="10.0322764"><ele>699.6666666666666</ele><time>2026-05-03T16:17:50.961Z</time></trkpt><trkpt lat="45.7976314" lon="10.0322026"><ele>698.8333333333333</ele><time>2026-05-03T16:17:51.962Z</time></trkpt><trkpt lat="45.7976774" lon="10.032078"><ele>698.0</ele><time>2026-05-03T16:17:53.962Z</time></trkpt><trkpt lat="45.7977057" lon="10.0319382"><ele>698.0</ele><time>2026-05-03T16:17:55.962Z</time></trkpt><trkpt lat="45.797742" lon="10.0317746"><ele>698.0</ele><time>2026-05-03T16:17:57.961Z</time></trkpt><trkpt lat="45.797774" lon="10.0316965"><ele>698.0</ele><time>2026-05-03T16:17:58.961Z</time></trkpt><trkpt lat="45.7978082" lon="10.0315828"><ele>698.0</ele><time>2026-05-03T16:18:00.961Z</time></trkpt><trkpt lat="45.7978289" lon="10.0314444"><ele>698.0</ele><time>2026-05-03T16:18:02.961Z</time></trkpt><trkpt lat="45.7977035" lon="10.0313658"><ele>694.1666666666666</ele><time>2026-05-03T16:18:04.961Z</time></trkpt><trkpt lat="45.7976322" lon="10.0313315"><ele>690.3333333333333</ele><time>2026-05-03T16:18:05.961Z</time></trkpt><trkpt lat="45.7975634" lon="10.031291"><ele>686.5</ele><time>2026-05-03T16:18:06.962Z</time></trkpt><trkpt lat="45.7974976" lon="10.0312605"><ele>682.6666666666666</ele><time>2026-05-03T16:18:07.962Z</time></trkpt><trkpt lat="45.7974346" lon="10.0312277"><ele>678.8333333333334</ele><time>2026-05-03T16:18:08.962Z</time></trkpt><trkpt lat="45.7973595" lon="10.0311367"><ele>675.0</ele><time>2026-05-03T16:18:10.961Z</time></trkpt><trkpt lat="45.7973266" lon="10.0310153"><ele>675.0</ele><time>2026-05-03T16:18:12.961Z</time></trkpt><trkpt lat="45.7972798" lon="10.0309514"><ele>675.0</ele><time>2026-05-03T16:18:14.961Z</time></trkpt><trkpt lat="45.7972026" lon="10.0309466"><ele>675.0</ele><time>2026-05-03T16:18:16.961Z</time></trkpt><trkpt lat="45.7971483" lon="10.0310659"><ele>675.0</ele><time>2026-05-03T16:18:18.962Z</time></trkpt><trkpt lat="45.7970476" lon="10.0311403"><ele>675.0</ele><time>2026-05-03T16:18:20.963Z</time></trkpt><trkpt lat="45.7969871" lon="10.0311815"><ele>675.0</ele><time>2026-05-03T16:18:21.963Z</time></trkpt><trkpt lat="45.7969277" lon="10.0312278"><ele>673.8</ele><time>2026-05-03T16:18:22.962Z</time></trkpt><trkpt lat="45.7968149" lon="10.0312997"><ele>672.6</ele><time>2026-05-03T16:18:24.962Z</time></trkpt><trkpt lat="45.7967502" lon="10.0313508"><ele>671.4000000000001</ele><time>2026-05-03T16:18:25.961Z</time></trkpt><trkpt lat="45.7966873" lon="10.0314"><ele>670.2</ele><time>2026-05-03T16:18:26.962Z</time></trkpt><trkpt lat="45.7965594" lon="10.0315065"><ele>669.0</ele><time>2026-05-03T16:18:28.962Z</time></trkpt><trkpt lat="45.7965033" lon="10.0315602"><ele>669.0</ele><time>2026-05-03T16:18:29.962Z</time></trkpt><trkpt lat="45.7964126" lon="10.031638"><ele>669.0</ele><time>2026-05-03T16:18:31.962Z</time></trkpt><trkpt lat="45.7963274" lon="10.0316791"><ele>669.0</ele><time>2026-05-03T16:18:33.961Z</time></trkpt><trkpt lat="45.796209" lon="10.0316759"><ele>669.0</ele><time>2026-05-03T16:18:35.962Z</time></trkpt><trkpt lat="45.7960965" lon="10.0316665"><ele>669.0</ele><time>2026-05-03T16:18:37.96Z</time></trkpt><trkpt lat="45.795983" lon="10.0316465"><ele>667.3333333333334</ele><time>2026-05-03T16:18:39.962Z</time></trkpt><trkpt lat="45.7959178" lon="10.0316675"><ele>665.6666666666666</ele><time>2026-05-03T16:18:40.962Z</time></trkpt><trkpt lat="45.7958355" lon="10.031737"><ele>664.0</ele><time>2026-05-03T16:18:41.962Z</time></trkpt><trkpt lat="45.7957586" lon="10.0318115"><ele>662.3333333333333</ele><time>2026-05-03T16:18:42.961Z</time></trkpt><trkpt lat="45.7957031" lon="10.0318817"><ele>660.6666666666666</ele><time>2026-05-03T16:18:43.962Z</time></trkpt><trkpt lat="45.7956552" lon="10.0319534"><ele>659.0</ele><time>2026-05-03T16:18:44.962Z</time></trkpt><trkpt lat="45.795601" lon="10.0320568"><ele>659.0</ele><time>2026-05-03T16:18:46.962Z</time></trkpt><trkpt lat="45.7956008" lon="10.0319567"><ele>659.0</ele><time>2026-05-03T16:18:52.961Z</time></trkpt><trkpt lat="45.7956237" lon="10.031847"><ele>659.0</ele><time>2026-05-03T16:18:54.962Z</time></trkpt><trkpt lat="45.7956146" lon="10.0317493"><ele>659.0</ele><time>2026-05-03T16:18:55.961Z</time></trkpt><trkpt lat="45.7955784" lon="10.0316312"><ele>659.0</ele><time>2026-05-03T16:18:57.961Z</time></trkpt><trkpt lat="45.7955453" lon="10.0315067"><ele>659.0</ele><time>2026-05-03T16:18:59.961Z</time></trkpt><trkpt lat="45.7955949" lon="10.0313907"><ele>659.3333333333333</ele><time>2026-05-03T16:19:00.961Z</time></trkpt><trkpt lat="45.7956208" lon="10.0312833"><ele>659.6666666666666</ele><time>2026-05-03T16:19:01.962Z</time></trkpt><trkpt lat="45.7956599" lon="10.0311502"><ele>660.0</ele><time>2026-05-03T16:19:02.96Z</time></trkpt><trkpt lat="45.7956949" lon="10.0310659"><ele>660.3333333333334</ele><time>2026-05-03T16:19:03.961Z</time></trkpt><trkpt lat="45.7957241" lon="10.0309648"><ele>660.6666666666667</ele><time>2026-05-03T16:19:04.962Z</time></trkpt><trkpt lat="45.7957435" lon="10.0308638"><ele>661.0</ele><time>2026-05-03T16:19:05.961Z</time></trkpt><trkpt lat="45.7957483" lon="10.0307641"><ele>661.0</ele><time>2026-05-03T16:19:06.961Z</time></trkpt><trkpt lat="45.79573" lon="10.0306486"><ele>661.0</ele><time>2026-05-03T16:19:07.962Z</time></trkpt><trkpt lat="45.7956926" lon="10.0304956"><ele>661.0</ele><time>2026-05-03T16:19:08.96Z</time></trkpt><trkpt lat="45.7956517" lon="10.0303681"><ele>661.0</ele><time>2026-05-03T16:19:09.962Z</time></trkpt><trkpt lat="45.795596" lon="10.0302195"><ele>661.0</ele><time>2026-05-03T16:19:10.961Z</time></trkpt><trkpt lat="45.7955526" lon="10.0300731"><ele>661.0</ele><time>2026-05-03T16:19:11.962Z</time></trkpt><trkpt lat="45.7955068" lon="10.0299923"><ele>661.0</ele><time>2026-05-03T16:19:12.962Z</time></trkpt><trkpt lat="45.7954762" lon="10.0299124"><ele>661.0</ele><time>2026-05-03T16:19:13.961Z</time></trkpt><trkpt lat="45.7954389" lon="10.0298385"><ele>661.0</ele><time>2026-05-03T16:19:14.962Z</time></trkpt><trkpt lat="45.7953507" lon="10.029784"><ele>661.0</ele><time>2026-05-03T16:19:16.96Z</time></trkpt><trkpt lat="45.7952785" lon="10.0297603"><ele>661.0</ele><time>2026-05-03T16:19:17.961Z</time></trkpt><trkpt lat="45.7952173" lon="10.0297348"><ele>661.0</ele><time>2026-05-03T16:19:18.962Z</time></trkpt><trkpt lat="45.7951733" lon="10.0296439"><ele>662.1999999999999</ele><time>2026-05-03T16:19:19.962Z</time></trkpt><trkpt lat="45.7950868" lon="10.0295249"><ele>663.4</ele><time>2026-05-03T16:19:21.961Z</time></trkpt><trkpt lat="45.7950452" lon="10.0294356"><ele>664.6</ele><time>2026-05-03T16:19:22.961Z</time></trkpt><trkpt lat="45.7950048" lon="10.0292336"><ele>665.8</ele><time>2026-05-03T16:19:24.961Z</time></trkpt><trkpt lat="45.7949765" lon="10.0291181"><ele>667.0</ele><time>2026-05-03T16:19:26.96Z</time></trkpt><trkpt lat="45.7948976" lon="10.0290341"><ele>667.0</ele><time>2026-05-03T16:19:28.962Z</time></trkpt><trkpt lat="45.7948559" lon="10.0289615"><ele>667.0</ele><time>2026-05-03T16:19:29.962Z</time></trkpt><trkpt lat="45.7948004" lon="10.0289022"><ele>667.0</ele><time>2026-05-03T16:19:30.961Z</time></trkpt><trkpt lat="45.7947542" lon="10.0288132"><ele>667.0</ele><time>2026-05-03T16:19:31.962Z</time></trkpt><trkpt lat="45.794705" lon="10.0287408"><ele>667.0</ele><time>2026-05-03T16:19:32.962Z</time></trkpt><trkpt lat="45.7946366" lon="10.0286792"><ele>667.0</ele><time>2026-05-03T16:19:33.962Z</time></trkpt><trkpt lat="45.794568" lon="10.0285827"><ele>667.0</ele><time>2026-05-03T16:19:34.962Z</time></trkpt><trkpt lat="45.7945171" lon="10.0284463"><ele>667.0</ele><time>2026-05-03T16:19:35.96Z</time></trkpt><trkpt lat="45.7944577" lon="10.0283616"><ele>667.0</ele><time>2026-05-03T16:19:36.962Z</time></trkpt><trkpt lat="45.7943978" lon="10.0282922"><ele>667.0</ele><time>2026-05-03T16:19:37.961Z</time></trkpt><trkpt lat="45.794342" lon="10.028227"><ele>667.0</ele><time>2026-05-03T16:19:38.962Z</time></trkpt><trkpt lat="45.7942904" lon="10.0281489"><ele>667.0</ele><time>2026-05-03T16:19:39.961Z</time></trkpt><trkpt lat="45.7942348" lon="10.0280961"><ele>663.2</ele><time>2026-05-03T16:19:40.961Z</time></trkpt><trkpt lat="45.7941861" lon="10.0280387"><ele>659.4000000000001</ele><time>2026-05-03T16:19:41.962Z</time></trkpt><trkpt lat="45.7940705" lon="10.0279361"><ele>655.5999999999999</ele><time>2026-05-03T16:19:43.962Z</time></trkpt><trkpt lat="45.7940067" lon="10.027889"><ele>651.8</ele><time>2026-05-03T16:19:44.962Z</time></trkpt><trkpt lat="45.7939002" lon="10.0278072"><ele>648.0</ele><time>2026-05-03T16:19:46.962Z</time></trkpt><trkpt lat="45.7937783" lon="10.0278355"><ele>648.0</ele><time>2026-05-03T16:19:48.963Z</time></trkpt><trkpt lat="45.7936758" lon="10.0278461"><ele>648.0</ele><time>2026-05-03T16:19:50.961Z</time></trkpt><trkpt lat="45.7935916" lon="10.0278487"><ele>648.0</ele><time>2026-05-03T16:19:51.961Z</time></trkpt><trkpt lat="45.7934887" lon="10.0278499"><ele>648.0</ele><time>2026-05-03T16:19:53.962Z</time></trkpt><trkpt lat="45.7934268" lon="10.0278933"><ele>648.0</ele><time>2026-05-03T16:19:54.962Z</time></trkpt><trkpt lat="45.7933676" lon="10.0279369"><ele>648.0</ele><time>2026-05-03T16:21:01.961Z</time></trkpt><trkpt lat="45.7933065" lon="10.0279803"><ele>644.1999999999999</ele><time>2026-05-03T16:21:03.962Z</time></trkpt><trkpt lat="45.7932244" lon="10.0280424"><ele>640.4</ele><time>2026-05-03T16:21:05.961Z</time></trkpt><trkpt lat="45.7931579" lon="10.0280752"><ele>636.5999999999999</ele><time>2026-05-03T16:21:06.961Z</time></trkpt><trkpt lat="45.7930796" lon="10.0282107"><ele>632.8</ele><time>2026-05-03T16:21:08.962Z</time></trkpt><trkpt lat="45.7930535" lon="10.0283014"><ele>629.0</ele><time>2026-05-03T16:21:09.962Z</time></trkpt><trkpt lat="45.7929927" lon="10.028454"><ele>627.0</ele><time>2026-05-03T16:21:11.961Z</time></trkpt><trkpt lat="45.7929255" lon="10.0285416"><ele>625.0</ele><time>2026-05-03T16:21:13.961Z</time></trkpt><trkpt lat="45.7928827" lon="10.0286367"><ele>623.0</ele><time>2026-05-03T16:21:14.961Z</time></trkpt><trkpt lat="45.7928547" lon="10.0287431"><ele>621.0</ele><time>2026-05-03T16:21:15.961Z</time></trkpt><trkpt lat="45.7927907" lon="10.028906"><ele>619.0</ele><time>2026-05-03T16:21:17.962Z</time></trkpt><trkpt lat="45.7927364" lon="10.0289897"><ele>619.0</ele><time>2026-05-03T16:21:18.962Z</time></trkpt><trkpt lat="45.7926835" lon="10.029075"><ele>619.0</ele><time>2026-05-03T16:21:19.961Z</time></trkpt><trkpt lat="45.7926333" lon="10.029163"><ele>619.0</ele><time>2026-05-03T16:21:20.961Z</time></trkpt><trkpt lat="45.7925459" lon="10.0292322"><ele>619.0</ele><time>2026-05-03T16:21:21.962Z</time></trkpt><trkpt lat="45.7924691" lon="10.0292899"><ele>619.0</ele><time>2026-05-03T16:21:22.962Z</time></trkpt><trkpt lat="45.7923809" lon="10.0293502"><ele>619.0</ele><time>2026-05-03T16:21:23.962Z</time></trkpt><trkpt lat="45.7922955" lon="10.0294181"><ele>617.0</ele><time>2026-05-03T16:21:24.962Z</time></trkpt><trkpt lat="45.7922045" lon="10.0294487"><ele>615.0</ele><time>2026-05-03T16:21:25.962Z</time></trkpt><trkpt lat="45.7921233" lon="10.0294895"><ele>613.0</ele><time>2026-05-03T16:21:26.961Z</time></trkpt><trkpt lat="45.7920369" lon="10.0295261"><ele>611.0</ele><time>2026-05-03T16:21:27.961Z</time></trkpt><trkpt lat="45.791953" lon="10.0295589"><ele>609.0</ele><time>2026-05-03T16:21:28.962Z</time></trkpt><trkpt lat="45.7918663" lon="10.0295835"><ele>607.0</ele><time>2026-05-03T16:21:29.962Z</time></trkpt><trkpt lat="45.7917813" lon="10.0295935"><ele>606.5</ele><time>2026-05-03T16:21:30.961Z</time></trkpt><trkpt lat="45.7916949" lon="10.0295748"><ele>606.0</ele><time>2026-05-03T16:21:31.961Z</time></trkpt><trkpt lat="45.7916143" lon="10.0295459"><ele>605.5</ele><time>2026-05-03T16:21:32.962Z</time></trkpt><trkpt lat="45.7915401" lon="10.0295071"><ele>605.0</ele><time>2026-05-03T16:21:33.962Z</time></trkpt><trkpt lat="45.7914729" lon="10.0294619"><ele>604.5</ele><time>2026-05-03T16:21:34.961Z</time></trkpt><trkpt lat="45.7914156" lon="10.0294051"><ele>604.0</ele><time>2026-05-03T16:21:35.961Z</time></trkpt><trkpt lat="45.7913618" lon="10.0293376"><ele>604.0</ele><time>2026-05-03T16:21:36.962Z</time></trkpt><trkpt lat="45.791308" lon="10.0292627"><ele>604.0</ele><time>2026-05-03T16:21:37.961Z</time></trkpt><trkpt lat="45.7912383" lon="10.0291987"><ele>604.0</ele><time>2026-05-03T16:21:38.961Z</time></trkpt><trkpt lat="45.7911144" lon="10.0291638"><ele>604.0</ele><time>2026-05-03T16:21:40.961Z</time></trkpt><trkpt lat="45.791038" lon="10.029161"><ele>604.0</ele><time>2026-05-03T16:21:42.962Z</time></trkpt><trkpt lat="45.7909456" lon="10.0290324"><ele>602.5</ele><time>2026-05-03T16:21:44.961Z</time></trkpt><trkpt lat="45.7909005" lon="10.0289459"><ele>601.0</ele><time>2026-05-03T16:21:45.961Z</time></trkpt><trkpt lat="45.7908482" lon="10.0288606"><ele>599.5</ele><time>2026-05-03T16:21:46.961Z</time></trkpt><trkpt lat="45.7907971" lon="10.028771"><ele>598.0</ele><time>2026-05-03T16:21:47.961Z</time></trkpt><trkpt lat="45.7907421" lon="10.0286755"><ele>596.5</ele><time>2026-05-03T16:21:48.96Z</time></trkpt><trkpt lat="45.7906845" lon="10.0285791"><ele>595.0</ele><time>2026-05-03T16:21:49.962Z</time></trkpt><trkpt lat="45.7905996" lon="10.0285202"><ele>595.0</ele><time>2026-05-03T16:21:50.962Z</time></trkpt><trkpt lat="45.7905163" lon="10.0284743"><ele>595.0</ele><time>2026-05-03T16:21:51.962Z</time></trkpt><trkpt lat="45.7904357" lon="10.0284378"><ele>595.0</ele><time>2026-05-03T16:21:52.962Z</time></trkpt><trkpt lat="45.7903571" lon="10.0283681"><ele>595.0</ele><time>2026-05-03T16:21:53.961Z</time></trkpt><trkpt lat="45.7902913" lon="10.0282928"><ele>595.0</ele><time>2026-05-03T16:21:54.962Z</time></trkpt><trkpt lat="45.7902393" lon="10.0281955"><ele>595.0</ele><time>2026-05-03T16:21:55.961Z</time></trkpt><trkpt lat="45.7902018" lon="10.0280814"><ele>595.5</ele><time>2026-05-03T16:21:56.961Z</time></trkpt><trkpt lat="45.7901793" lon="10.0279643"><ele>596.0</ele><time>2026-05-03T16:21:57.962Z</time></trkpt><trkpt lat="45.7901623" lon="10.0278409"><ele>596.5</ele><time>2026-05-03T16:21:58.961Z</time></trkpt><trkpt lat="45.7901506" lon="10.0277094"><ele>597.0</ele><time>2026-05-03T16:21:59.962Z</time></trkpt><trkpt lat="45.7901377" lon="10.027592"><ele>597.5</ele><time>2026-05-03T16:22:00.961Z</time></trkpt><trkpt lat="45.7901291" lon="10.0274798"><ele>598.0</ele><time>2026-05-03T16:22:01.963Z</time></trkpt><trkpt lat="45.7901355" lon="10.027346"><ele>595.3333333333334</ele><time>2026-05-03T16:22:02.961Z</time></trkpt><trkpt lat="45.7901283" lon="10.0272169"><ele>592.6666666666667</ele><time>2026-05-03T16:22:03.962Z</time></trkpt><trkpt lat="45.7901237" lon="10.0270966"><ele>590.0</ele><time>2026-05-03T16:22:04.962Z</time></trkpt><trkpt lat="45.7901095" lon="10.026984"><ele>587.3333333333334</ele><time>2026-05-03T16:22:05.961Z</time></trkpt><trkpt lat="45.7900792" lon="10.0268724"><ele>584.6666666666666</ele><time>2026-05-03T16:22:06.962Z</time></trkpt><trkpt lat="45.7900466" lon="10.0267673"><ele>582.0</ele><time>2026-05-03T16:22:07.962Z</time></trkpt><trkpt lat="45.7900117" lon="10.0266553"><ele>582.1666666666666</ele><time>2026-05-03T16:22:08.962Z</time></trkpt><trkpt lat="45.7899813" lon="10.0265427"><ele>582.3333333333334</ele><time>2026-05-03T16:22:09.962Z</time></trkpt><trkpt lat="45.7899455" lon="10.0264328"><ele>582.5</ele><time>2026-05-03T16:22:10.962Z</time></trkpt><trkpt lat="45.7898977" lon="10.0263457"><ele>582.6666666666667</ele><time>2026-05-03T16:22:11.962Z</time></trkpt><trkpt lat="45.7898375" lon="10.0262763"><ele>582.8333333333334</ele><time>2026-05-03T16:22:12.961Z</time></trkpt><trkpt lat="45.7897835" lon="10.0262051"><ele>583.0</ele><time>2026-05-03T16:22:13.962Z</time></trkpt><trkpt lat="45.7897346" lon="10.0261209"><ele>583.0</ele><time>2026-05-03T16:22:14.962Z</time></trkpt><trkpt lat="45.7896304" lon="10.0259976"><ele>583.0</ele><time>2026-05-03T16:22:16.962Z</time></trkpt><trkpt lat="45.7895779" lon="10.0259298"><ele>583.0</ele><time>2026-05-03T16:22:17.962Z</time></trkpt><trkpt lat="45.7894927" lon="10.02579"><ele>583.0</ele><time>2026-05-03T16:22:19.961Z</time></trkpt><trkpt lat="45.7894664" lon="10.0256828"><ele>583.0</ele><time>2026-05-03T16:22:20.962Z</time></trkpt><trkpt lat="45.7894466" lon="10.0255866"><ele>582.5</ele><time>2026-05-03T16:22:21.962Z</time></trkpt><trkpt lat="45.7894378" lon="10.0254878"><ele>582.0</ele><time>2026-05-03T16:22:22.961Z</time></trkpt><trkpt lat="45.7894098" lon="10.0253536"><ele>581.5</ele><time>2026-05-03T16:22:24.962Z</time></trkpt><trkpt lat="45.7893185" lon="10.0253229"><ele>581.0</ele><time>2026-05-03T16:22:26.962Z</time></trkpt><trkpt lat="45.7892378" lon="10.0253885"><ele>580.5</ele><time>2026-05-03T16:22:28.961Z</time></trkpt><trkpt lat="45.7891658" lon="10.025453"><ele>580.0</ele><time>2026-05-03T16:22:30.961Z</time></trkpt><trkpt lat="45.7890458" lon="10.0255382"><ele>579.3333333333334</ele><time>2026-05-03T16:22:32.961Z</time></trkpt><trkpt lat="45.7889938" lon="10.0255952"><ele>578.6666666666667</ele><time>2026-05-03T16:22:33.96Z</time></trkpt><trkpt lat="45.7889353" lon="10.0256589"><ele>578.0</ele><time>2026-05-03T16:22:34.962Z</time></trkpt><trkpt lat="45.7888787" lon="10.0257737"><ele>577.3333333333334</ele><time>2026-05-03T16:22:35.961Z</time></trkpt><trkpt lat="45.7888296" lon="10.0258913"><ele>576.6666666666666</ele><time>2026-05-03T16:22:36.963Z</time></trkpt><trkpt lat="45.7887894" lon="10.0260054"><ele>576.0</ele><time>2026-05-03T16:22:37.961Z</time></trkpt><trkpt lat="45.7887633" lon="10.0261403"><ele>576.0</ele><time>2026-05-03T16:22:38.961Z</time></trkpt><trkpt lat="45.7887453" lon="10.0262674"><ele>576.0</ele><time>2026-05-03T16:22:39.961Z</time></trkpt><trkpt lat="45.7887447" lon="10.0264109"><ele>576.0</ele><time>2026-05-03T16:22:40.962Z</time></trkpt><trkpt lat="45.7887367" lon="10.0265572"><ele>576.0</ele><time>2026-05-03T16:22:41.961Z</time></trkpt><trkpt lat="45.7887263" lon="10.0267028"><ele>576.0</ele><time>2026-05-03T16:22:42.962Z</time></trkpt><trkpt lat="45.7887151" lon="10.0268574"><ele>574.5</ele><time>2026-05-03T16:22:43.962Z</time></trkpt><trkpt lat="45.7886961" lon="10.0270131"><ele>573.0</ele><time>2026-05-03T16:22:44.962Z</time></trkpt><trkpt lat="45.7886713" lon="10.027175"><ele>571.5</ele><time>2026-05-03T16:22:45.963Z</time></trkpt><trkpt lat="45.7886283" lon="10.0273273"><ele>570.0</ele><time>2026-05-03T16:22:46.962Z</time></trkpt><trkpt lat="45.7885816" lon="10.0274913"><ele>568.5</ele><time>2026-05-03T16:22:47.963Z</time></trkpt><trkpt lat="45.7885354" lon="10.0276607"><ele>567.0</ele><time>2026-05-03T16:22:48.961Z</time></trkpt><trkpt lat="45.7884843" lon="10.0278209"><ele>565.5</ele><time>2026-05-03T16:22:49.962Z</time></trkpt><trkpt lat="45.7884324" lon="10.0279808"><ele>564.0</ele><time>2026-05-03T16:22:50.961Z</time></trkpt><trkpt lat="45.7883847" lon="10.0281363"><ele>560.5</ele><time>2026-05-03T16:22:51.962Z</time></trkpt><trkpt lat="45.788333" lon="10.0282979"><ele>557.0</ele><time>2026-05-03T16:22:52.961Z</time></trkpt><trkpt lat="45.7882864" lon="10.0284613"><ele>553.5</ele><time>2026-05-03T16:22:53.962Z</time></trkpt><trkpt lat="45.7882434" lon="10.0286091"><ele>550.0</ele><time>2026-05-03T16:22:54.962Z</time></trkpt><trkpt lat="45.7881971" lon="10.0287363"><ele>549.6666666666667</ele><time>2026-05-03T16:22:55.96Z</time></trkpt><trkpt lat="45.7881419" lon="10.028827"><ele>549.3333333333334</ele><time>2026-05-03T16:22:56.962Z</time></trkpt><trkpt lat="45.7880757" lon="10.028879"><ele>549.0</ele><time>2026-05-03T16:22:57.961Z</time></trkpt><trkpt lat="45.788005" lon="10.0288719"><ele>548.6666666666666</ele><time>2026-05-03T16:22:58.961Z</time></trkpt><trkpt lat="45.7879458" lon="10.0288004"><ele>548.3333333333333</ele><time>2026-05-03T16:22:59.962Z</time></trkpt><trkpt lat="45.7878983" lon="10.0287082"><ele>548.0</ele><time>2026-05-03T16:23:00.961Z</time></trkpt><trkpt lat="45.7878515" lon="10.0286067"><ele>548.0</ele><time>2026-05-03T16:23:01.961Z</time></trkpt><trkpt lat="45.7877923" lon="10.0285144"><ele>548.0</ele><time>2026-05-03T16:23:02.961Z</time></trkpt><trkpt lat="45.7877327" lon="10.0284168"><ele>548.0</ele><time>2026-05-03T16:23:03.962Z</time></trkpt><trkpt lat="45.7876668" lon="10.0283166"><ele>548.0</ele><time>2026-05-03T16:23:04.962Z</time></trkpt><trkpt lat="45.7875984" lon="10.0282139"><ele>548.0</ele><time>2026-05-03T16:23:05.961Z</time></trkpt><trkpt lat="45.787522" lon="10.0281168"><ele>546.8</ele><time>2026-05-03T16:23:06.962Z</time></trkpt><trkpt lat="45.7874456" lon="10.0280189"><ele>545.5999999999999</ele><time>2026-05-03T16:23:07.963Z</time></trkpt><trkpt lat="45.7873609" lon="10.0279174"><ele>544.4000000000001</ele><time>2026-05-03T16:23:08.961Z</time></trkpt><trkpt lat="45.7872803" lon="10.0278203"><ele>543.2</ele><time>2026-05-03T16:23:09.961Z</time></trkpt><trkpt lat="45.7871941" lon="10.0277223"><ele>542.0</ele><time>2026-05-03T16:23:10.962Z</time></trkpt><trkpt lat="45.7871007" lon="10.0276229"><ele>542.0</ele><time>2026-05-03T16:23:11.961Z</time></trkpt><trkpt lat="45.7870056" lon="10.0275226"><ele>542.0</ele><time>2026-05-03T16:23:12.962Z</time></trkpt><trkpt lat="45.7869074" lon="10.0274208"><ele>542.0</ele><time>2026-05-03T16:23:13.962Z</time></trkpt><trkpt lat="45.7868102" lon="10.0273205"><ele>542.0</ele><time>2026-05-03T16:23:14.963Z</time></trkpt><trkpt lat="45.7867045" lon="10.027222"><ele>539.25</ele><time>2026-05-03T16:23:15.962Z</time></trkpt><trkpt lat="45.7865961" lon="10.0271277"><ele>536.5</ele><time>2026-05-03T16:23:16.962Z</time></trkpt><trkpt lat="45.7864745" lon="10.0270515"><ele>533.75</ele><time>2026-05-03T16:23:17.962Z</time></trkpt><trkpt lat="45.7863486" lon="10.0269903"><ele>531.0</ele><time>2026-05-03T16:23:18.962Z</time></trkpt><trkpt lat="45.7862223" lon="10.026938"><ele>531.0</ele><time>2026-05-03T16:23:19.962Z</time></trkpt><trkpt lat="45.7860836" lon="10.0269359"><ele>531.0</ele><time>2026-05-03T16:23:20.962Z</time></trkpt><trkpt lat="45.7859451" lon="10.0269219"><ele>531.0</ele><time>2026-05-03T16:23:21.962Z</time></trkpt><trkpt lat="45.7858054" lon="10.0269098"><ele>531.0</ele><time>2026-05-03T16:23:22.961Z</time></trkpt><trkpt lat="45.7856684" lon="10.0268878"><ele>527.25</ele><time>2026-05-03T16:23:23.96Z</time></trkpt><trkpt lat="45.7855403" lon="10.0268296"><ele>523.5</ele><time>2026-05-03T16:23:24.962Z</time></trkpt><trkpt lat="45.7854182" lon="10.0267509"><ele>519.75</ele><time>2026-05-03T16:23:25.962Z</time></trkpt><trkpt lat="45.7853085" lon="10.0266319"><ele>516.0</ele><time>2026-05-03T16:23:26.961Z</time></trkpt><trkpt lat="45.7852068" lon="10.0265046"><ele>514.5</ele><time>2026-05-03T16:23:27.96Z</time></trkpt><trkpt lat="45.7851046" lon="10.0263699"><ele>513.0</ele><time>2026-05-03T16:23:28.961Z</time></trkpt><trkpt lat="45.7850074" lon="10.0262388"><ele>511.5</ele><time>2026-05-03T16:23:29.962Z</time></trkpt><trkpt lat="45.7849097" lon="10.0261082"><ele>510.0</ele><time>2026-05-03T16:23:30.962Z</time></trkpt><trkpt lat="45.7848128" lon="10.0259712"><ele>510.0</ele><time>2026-05-03T16:23:31.961Z</time></trkpt><trkpt lat="45.7847148" lon="10.0258254"><ele>510.0</ele><time>2026-05-03T16:23:32.961Z</time></trkpt><trkpt lat="45.7846197" lon="10.0256835"><ele>510.0</ele><time>2026-05-03T16:23:33.961Z</time></trkpt><trkpt lat="45.7845237" lon="10.0255396"><ele>510.0</ele><time>2026-05-03T16:23:34.962Z</time></trkpt><trkpt lat="45.7844262" lon="10.0253877"><ele>508.75</ele><time>2026-05-03T16:23:35.963Z</time></trkpt><trkpt lat="45.7843333" lon="10.0252391"><ele>507.5</ele><time>2026-05-03T16:23:36.962Z</time></trkpt><trkpt lat="45.7842498" lon="10.0250717"><ele>506.25</ele><time>2026-05-03T16:23:37.962Z</time></trkpt><trkpt lat="45.7841776" lon="10.0248976"><ele>505.0</ele><time>2026-05-03T16:23:38.961Z</time></trkpt><trkpt lat="45.7841147" lon="10.0247136"><ele>505.0</ele><time>2026-05-03T16:23:39.961Z</time></trkpt><trkpt lat="45.7840502" lon="10.0245289"><ele>505.0</ele><time>2026-05-03T16:23:40.961Z</time></trkpt><trkpt lat="45.7839827" lon="10.0243461"><ele>505.0</ele><time>2026-05-03T16:23:41.961Z</time></trkpt><trkpt lat="45.7839161" lon="10.0241619"><ele>505.0</ele><time>2026-05-03T16:23:42.961Z</time></trkpt><trkpt lat="45.7838521" lon="10.0239794"><ele>505.75</ele><time>2026-05-03T16:23:43.961Z</time></trkpt><trkpt lat="45.7837969" lon="10.0237871"><ele>506.5</ele><time>2026-05-03T16:23:44.962Z</time></trkpt><trkpt lat="45.7837509" lon="10.023599"><ele>507.25</ele><time>2026-05-03T16:23:45.961Z</time></trkpt><trkpt lat="45.783706" lon="10.0234139"><ele>508.0</ele><time>2026-05-03T16:23:46.961Z</time></trkpt><trkpt lat="45.7836627" lon="10.0232314"><ele>508.75</ele><time>2026-05-03T16:23:47.962Z</time></trkpt><trkpt lat="45.7836247" lon="10.0230525"><ele>509.5</ele><time>2026-05-03T16:23:48.962Z</time></trkpt><trkpt lat="45.7835869" lon="10.022883"><ele>510.25</ele><time>2026-05-03T16:23:49.962Z</time></trkpt><trkpt lat="45.7835529" lon="10.0227148"><ele>511.0</ele><time>2026-05-03T16:23:50.961Z</time></trkpt><trkpt lat="45.7835192" lon="10.0225514"><ele>505.8</ele><time>2026-05-03T16:23:51.961Z</time></trkpt><trkpt lat="45.7834911" lon="10.0223868"><ele>500.6</ele><time>2026-05-03T16:23:52.961Z</time></trkpt><trkpt lat="45.7834789" lon="10.0222248"><ele>495.4</ele><time>2026-05-03T16:23:53.961Z</time></trkpt><trkpt lat="45.7834708" lon="10.022065"><ele>490.2</ele><time>2026-05-03T16:23:54.962Z</time></trkpt><trkpt lat="45.783466" lon="10.0219148"><ele>485.0</ele><time>2026-05-03T16:23:55.962Z</time></trkpt><trkpt lat="45.7834648" lon="10.0217647"><ele>484.0</ele><time>2026-05-03T16:23:56.961Z</time></trkpt><trkpt lat="45.7834764" lon="10.0216153"><ele>483.0</ele><time>2026-05-03T16:23:57.961Z</time></trkpt><trkpt lat="45.7834907" lon="10.0214637"><ele>482.0</ele><time>2026-05-03T16:23:58.96Z</time></trkpt><trkpt lat="45.783495" lon="10.0213175"><ele>481.0</ele><time>2026-05-03T16:23:59.962Z</time></trkpt><trkpt lat="45.783486" lon="10.0211721"><ele>480.0</ele><time>2026-05-03T16:24:00.963Z</time></trkpt><trkpt lat="45.7834738" lon="10.0210234"><ele>480.0</ele><time>2026-05-03T16:24:01.96Z</time></trkpt><trkpt lat="45.7834588" lon="10.0208713"><ele>480.0</ele><time>2026-05-03T16:24:02.961Z</time></trkpt><trkpt lat="45.7834368" lon="10.0207196"><ele>480.0</ele><time>2026-05-03T16:24:03.961Z</time></trkpt><trkpt lat="45.783408" lon="10.0205631"><ele>480.0</ele><time>2026-05-03T16:24:04.961Z</time></trkpt><trkpt lat="45.7833815" lon="10.0204072"><ele>480.0</ele><time>2026-05-03T16:24:05.961Z</time></trkpt><trkpt lat="45.7833587" lon="10.020249"><ele>480.0</ele><time>2026-05-03T16:24:06.961Z</time></trkpt><trkpt lat="45.7833443" lon="10.0201012"><ele>480.0</ele><time>2026-05-03T16:24:07.961Z</time></trkpt><trkpt lat="45.7833402" lon="10.019966"><ele>480.0</ele><time>2026-05-03T16:24:08.962Z</time></trkpt><trkpt lat="45.7833351" lon="10.0198423"><ele>480.0</ele><time>2026-05-03T16:24:09.962Z</time></trkpt><trkpt lat="45.7833241" lon="10.0197323"><ele>480.0</ele><time>2026-05-03T16:24:10.962Z</time></trkpt><trkpt lat="45.7832187" lon="10.0196783"><ele>480.0</ele><time>2026-05-03T16:24:12.962Z</time></trkpt><trkpt lat="45.7831598" lon="10.0197947"><ele>480.0</ele><time>2026-05-03T16:24:14.962Z</time></trkpt><trkpt lat="45.7831524" lon="10.0199788"><ele>480.0</ele><time>2026-05-03T16:24:16.962Z</time></trkpt><trkpt lat="45.7831475" lon="10.0200769"><ele>480.0</ele><time>2026-05-03T16:24:17.962Z</time></trkpt><trkpt lat="45.783142" lon="10.0201746"><ele>480.0</ele><time>2026-05-03T16:24:18.962Z</time></trkpt><trkpt lat="45.783126" lon="10.0202744"><ele>480.0</ele><time>2026-05-03T16:24:19.962Z</time></trkpt><trkpt lat="45.7831021" lon="10.0203787"><ele>480.0</ele><time>2026-05-03T16:24:20.962Z</time></trkpt><trkpt lat="45.7830565" lon="10.0204767"><ele>480.0</ele><time>2026-05-03T16:24:21.961Z</time></trkpt><trkpt lat="45.782996" lon="10.0205595"><ele>480.0</ele><time>2026-05-03T16:24:22.961Z</time></trkpt><trkpt lat="45.7829289" lon="10.0206391"><ele>480.0</ele><time>2026-05-03T16:24:23.961Z</time></trkpt><trkpt lat="45.7828602" lon="10.0207188"><ele>480.0</ele><time>2026-05-03T16:24:24.961Z</time></trkpt><trkpt lat="45.7827903" lon="10.0208109"><ele>480.0</ele><time>2026-05-03T16:24:25.961Z</time></trkpt><trkpt lat="45.782726" lon="10.0208957"><ele>475.4</ele><time>2026-05-03T16:24:26.961Z</time></trkpt><trkpt lat="45.7826669" lon="10.0209839"><ele>470.8</ele><time>2026-05-03T16:24:27.96Z</time></trkpt><trkpt lat="45.7826265" lon="10.0210644"><ele>466.20000000000005</ele><time>2026-05-03T16:24:28.963Z</time></trkpt><trkpt lat="45.7825856" lon="10.0212095"><ele>461.6</ele><time>2026-05-03T16:24:30.961Z</time></trkpt><trkpt lat="45.7825031" lon="10.0212143"><ele>457.0</ele><time>2026-05-03T16:24:33.962Z</time></trkpt><trkpt lat="45.7824504" lon="10.0210303"><ele>457.00000000000006</ele><time>2026-05-03T16:24:35.961Z</time></trkpt><trkpt lat="45.7824187" lon="10.0209169"><ele>457.0</ele><time>2026-05-03T16:24:36.962Z</time></trkpt><trkpt lat="45.7823797" lon="10.0208095"><ele>457.0</ele><time>2026-05-03T16:24:37.962Z</time></trkpt><trkpt lat="45.7823361" lon="10.0206975"><ele>457.0</ele><time>2026-05-03T16:24:38.962Z</time></trkpt><trkpt lat="45.7822859" lon="10.0206058"><ele>457.00000000000006</ele><time>2026-05-03T16:24:39.962Z</time></trkpt><trkpt lat="45.7822387" lon="10.0205156"><ele>457.0</ele><time>2026-05-03T16:24:40.962Z</time></trkpt><trkpt lat="45.782199" lon="10.0204397"><ele>456.33333333333337</ele><time>2026-05-03T16:24:41.962Z</time></trkpt><trkpt lat="45.7821552" lon="10.0203729"><ele>455.6666666666667</ele><time>2026-05-03T16:24:42.962Z</time></trkpt><trkpt lat="45.7821054" lon="10.0203117"><ele>455.0</ele><time>2026-05-03T16:24:43.962Z</time></trkpt><trkpt lat="45.7820117" lon="10.020217"><ele>454.33333333333337</ele><time>2026-05-03T16:24:45.962Z</time></trkpt><trkpt lat="45.7819472" lon="10.0201595"><ele>453.6666666666667</ele><time>2026-05-03T16:24:47.961Z</time></trkpt><trkpt lat="45.7818802" lon="10.0201937"><ele>453.0</ele><time>2026-05-03T16:24:49.962Z</time></trkpt><trkpt lat="45.7819135" lon="10.0203219"><ele>452.99999999999994</ele><time>2026-05-03T16:24:51.963Z</time></trkpt><trkpt lat="45.7819561" lon="10.0204348"><ele>453.0</ele><time>2026-05-03T16:24:53.961Z</time></trkpt><trkpt lat="45.7819953" lon="10.0205086"><ele>452.99999999999994</ele><time>2026-05-03T16:24:55.962Z</time></trkpt><trkpt lat="45.7819613" lon="10.0204326"><ele>452.99999999999994</ele><time>2026-05-03T16:25:26.962Z</time></trkpt><trkpt lat="45.7819732" lon="10.020331"><ele>453.0</ele><time>2026-05-03T16:26:16.961Z</time></trkpt><trkpt lat="45.7819529" lon="10.0204204"><ele>452.99999999999994</ele><time>2026-05-03T16:26:26.952Z</time></trkpt><trkpt lat="45.781894" lon="10.0203846"><ele>452.99999999999994</ele><time>2026-05-03T16:27:14.962Z</time></trkpt><trkpt lat="45.781843" lon="10.0203277"><ele>452.99999999999994</ele><time>2026-05-03T16:30:37.961Z</time></trkpt><trkpt lat="45.7818901" lon="10.0202638"><ele>453.0</ele><time>2026-05-03T16:31:34.96Z</time></trkpt><trkpt lat="45.7818286" lon="10.0202202"><ele>452.99999999999994</ele><time>2026-05-03T16:31:43.961Z</time></trkpt><trkpt lat="45.7818861" lon="10.0201617"><ele>452.99999999999994</ele><time>2026-05-03T16:31:56.961Z</time></trkpt><trkpt lat="45.7819092" lon="10.0200599"><ele>453.0</ele><time>2026-05-03T16:32:00.962Z</time></trkpt><trkpt lat="45.7818467" lon="10.0199846"><ele>452.99999999999994</ele><time>2026-05-03T16:32:03.962Z</time></trkpt><trkpt lat="45.7817724" lon="10.0199414"><ele>452.99999999999994</ele><time>2026-05-03T16:32:05.962Z</time></trkpt><trkpt lat="45.7817045" lon="10.0198987"><ele>451.0</ele><time>2026-05-03T16:32:07.962Z</time></trkpt><trkpt lat="45.7816886" lon="10.0197407"><ele>449.0</ele><time>2026-05-03T16:32:09.961Z</time></trkpt><trkpt lat="45.7817075" lon="10.0196481"><ele>447.0</ele><time>2026-05-03T16:32:10.961Z</time></trkpt><trkpt lat="45.7817309" lon="10.0195401"><ele>445.0</ele><time>2026-05-03T16:32:11.962Z</time></trkpt><trkpt lat="45.7817643" lon="10.0194206"><ele>443.0</ele><time>2026-05-03T16:32:12.961Z</time></trkpt><trkpt lat="45.781803" lon="10.0192863"><ele>441.0</ele><time>2026-05-03T16:32:13.962Z</time></trkpt><trkpt lat="45.781854" lon="10.0191364"><ele>441.0</ele><time>2026-05-03T16:32:14.962Z</time></trkpt><trkpt lat="45.7819144" lon="10.0189749"><ele>441.0</ele><time>2026-05-03T16:32:15.961Z</time></trkpt><trkpt lat="45.7819821" lon="10.0188016"><ele>441.0</ele><time>2026-05-03T16:32:16.962Z</time></trkpt><trkpt lat="45.7820547" lon="10.0186256"><ele>441.0</ele><time>2026-05-03T16:32:17.961Z</time></trkpt><trkpt lat="45.7821255" lon="10.0184601"><ele>438.75</ele><time>2026-05-03T16:32:18.962Z</time></trkpt><trkpt lat="45.7821979" lon="10.0182992"><ele>436.5</ele><time>2026-05-03T16:32:19.961Z</time></trkpt><trkpt lat="45.7822757" lon="10.0181382"><ele>434.25</ele><time>2026-05-03T16:32:20.962Z</time></trkpt><trkpt lat="45.7823537" lon="10.0179817"><ele>432.0</ele><time>2026-05-03T16:32:21.962Z</time></trkpt><trkpt lat="45.782442" lon="10.0178282"><ele>432.0</ele><time>2026-05-03T16:32:22.961Z</time></trkpt><trkpt lat="45.7825288" lon="10.017684"><ele>432.0</ele><time>2026-05-03T16:32:23.962Z</time></trkpt><trkpt lat="45.7826227" lon="10.017544"><ele>432.0</ele><time>2026-05-03T16:32:24.961Z</time></trkpt><trkpt lat="45.7827138" lon="10.0174081"><ele>432.0</ele><time>2026-05-03T16:32:25.962Z</time></trkpt><trkpt lat="45.7828011" lon="10.0172692"><ele>433.0</ele><time>2026-05-03T16:32:26.962Z</time></trkpt><trkpt lat="45.7828962" lon="10.0171156"><ele>434.0</ele><time>2026-05-03T16:32:27.961Z</time></trkpt><trkpt lat="45.7829917" lon="10.01695"><ele>435.0</ele><time>2026-05-03T16:32:28.961Z</time></trkpt><trkpt lat="45.783082" lon="10.0167782"><ele>436.0</ele><time>2026-05-03T16:32:29.962Z</time></trkpt><trkpt lat="45.783171" lon="10.0165831"><ele>432.6666666666667</ele><time>2026-05-03T16:32:30.961Z</time></trkpt><trkpt lat="45.7832679" lon="10.0163692"><ele>429.33333333333337</ele><time>2026-05-03T16:32:31.962Z</time></trkpt><trkpt lat="45.7833587" lon="10.0161556"><ele>426.0</ele><time>2026-05-03T16:32:32.962Z</time></trkpt><trkpt lat="45.78344" lon="10.0159307"><ele>426.0</ele><time>2026-05-03T16:32:33.962Z</time></trkpt><trkpt lat="45.7835031" lon="10.0156982"><ele>426.0</ele><time>2026-05-03T16:32:34.962Z</time></trkpt><trkpt lat="45.7835581" lon="10.0154772"><ele>426.0</ele><time>2026-05-03T16:32:35.961Z</time></trkpt><trkpt lat="45.7836075" lon="10.0152756"><ele>426.0</ele><time>2026-05-03T16:32:36.961Z</time></trkpt><trkpt lat="45.7836632" lon="10.0150822"><ele>426.0</ele><time>2026-05-03T16:32:37.961Z</time></trkpt><trkpt lat="45.7837155" lon="10.0149036"><ele>426.0</ele><time>2026-05-03T16:32:38.962Z</time></trkpt><trkpt lat="45.7837724" lon="10.014747"><ele>426.0</ele><time>2026-05-03T16:32:39.962Z</time></trkpt><trkpt lat="45.7838377" lon="10.0146171"><ele>423.8</ele><time>2026-05-03T16:32:40.961Z</time></trkpt><trkpt lat="45.7839163" lon="10.0145223"><ele>421.6</ele><time>2026-05-03T16:32:41.961Z</time></trkpt><trkpt lat="45.7840166" lon="10.0144766"><ele>419.4</ele><time>2026-05-03T16:32:42.961Z</time></trkpt><trkpt lat="45.7841214" lon="10.0144779"><ele>417.2</ele><time>2026-05-03T16:32:43.961Z</time></trkpt><trkpt lat="45.7842336" lon="10.0144836"><ele>415.0</ele><time>2026-05-03T16:32:44.962Z</time></trkpt><trkpt lat="45.7843425" lon="10.0144519"><ele>415.0</ele><time>2026-05-03T16:32:45.961Z</time></trkpt><trkpt lat="45.7844436" lon="10.0143685"><ele>415.0</ele><time>2026-05-03T16:32:46.962Z</time></trkpt><trkpt lat="45.7845184" lon="10.014235"><ele>415.0</ele><time>2026-05-03T16:32:47.962Z</time></trkpt><trkpt lat="45.7845735" lon="10.0140692"><ele>415.0</ele><time>2026-05-03T16:32:48.962Z</time></trkpt><trkpt lat="45.7846179" lon="10.0138793"><ele>415.0</ele><time>2026-05-03T16:32:49.962Z</time></trkpt><trkpt lat="45.7846646" lon="10.0136674"><ele>415.0</ele><time>2026-05-03T16:32:50.962Z</time></trkpt><trkpt lat="45.7847156" lon="10.0134429"><ele>415.0</ele><time>2026-05-03T16:32:51.962Z</time></trkpt><trkpt lat="45.7847636" lon="10.0132275"><ele>411.0</ele><time>2026-05-03T16:32:52.961Z</time></trkpt><trkpt lat="45.7848326" lon="10.0130278"><ele>407.0</ele><time>2026-05-03T16:32:53.962Z</time></trkpt><trkpt lat="45.7849217" lon="10.0128544"><ele>403.0</ele><time>2026-05-03T16:32:54.961Z</time></trkpt><trkpt lat="45.7850281" lon="10.0127057"><ele>403.0</ele><time>2026-05-03T16:32:55.962Z</time></trkpt><trkpt lat="45.7851413" lon="10.0125651"><ele>403.0</ele><time>2026-05-03T16:32:56.961Z</time></trkpt><trkpt lat="45.7852482" lon="10.0124167"><ele>403.0</ele><time>2026-05-03T16:32:57.962Z</time></trkpt><trkpt lat="45.7853489" lon="10.0122487"><ele>402.0</ele><time>2026-05-03T16:32:58.962Z</time></trkpt><trkpt lat="45.7854467" lon="10.0120704"><ele>401.0</ele><time>2026-05-03T16:32:59.961Z</time></trkpt><trkpt lat="45.7855396" lon="10.0118837"><ele>400.0</ele><time>2026-05-03T16:33:00.961Z</time></trkpt><trkpt lat="45.785611" lon="10.0116946"><ele>397.0</ele><time>2026-05-03T16:33:01.962Z</time></trkpt><trkpt lat="45.7856814" lon="10.011504"><ele>394.0</ele><time>2026-05-03T16:33:02.961Z</time></trkpt><trkpt lat="45.7857537" lon="10.0113301"><ele>391.0</ele><time>2026-05-03T16:33:03.96Z</time></trkpt><trkpt lat="45.7858483" lon="10.0111701"><ele>388.0</ele><time>2026-05-03T16:33:04.961Z</time></trkpt><trkpt lat="45.785935" lon="10.0110194"><ele>388.0</ele><time>2026-05-03T16:33:05.962Z</time></trkpt><trkpt lat="45.7860204" lon="10.0108712"><ele>388.0</ele><time>2026-05-03T16:33:06.961Z</time></trkpt><trkpt lat="45.7861135" lon="10.0107387"><ele>388.0</ele><time>2026-05-03T16:33:07.961Z</time></trkpt><trkpt lat="45.7862312" lon="10.0106441"><ele>388.0</ele><time>2026-05-03T16:33:08.961Z</time></trkpt><trkpt lat="45.786355" lon="10.0105881"><ele>385.0</ele><time>2026-05-03T16:33:09.962Z</time></trkpt><trkpt lat="45.7864889" lon="10.0105634"><ele>382.0</ele><time>2026-05-03T16:33:10.962Z</time></trkpt><trkpt lat="45.7866195" lon="10.0105921"><ele>379.0</ele><time>2026-05-03T16:33:11.962Z</time></trkpt><trkpt lat="45.7867447" lon="10.010669"><ele>376.0</ele><time>2026-05-03T16:33:12.961Z</time></trkpt><trkpt lat="45.7868521" lon="10.0107866"><ele>374.25</ele><time>2026-05-03T16:33:13.961Z</time></trkpt><trkpt lat="45.786965" lon="10.0109042"><ele>372.5</ele><time>2026-05-03T16:33:14.962Z</time></trkpt><trkpt lat="45.7870802" lon="10.0110195"><ele>370.75</ele><time>2026-05-03T16:33:15.962Z</time></trkpt><trkpt lat="45.7872041" lon="10.0111236"><ele>369.0</ele><time>2026-05-03T16:33:16.961Z</time></trkpt><trkpt lat="45.7873261" lon="10.0112164"><ele>369.0</ele><time>2026-05-03T16:33:17.962Z</time></trkpt><trkpt lat="45.7874503" lon="10.0112807"><ele>369.0</ele><time>2026-05-03T16:33:18.962Z</time></trkpt><trkpt lat="45.7875825" lon="10.0113558"><ele>369.0</ele><time>2026-05-03T16:33:19.961Z</time></trkpt><trkpt lat="45.7877106" lon="10.0114105"><ele>369.0</ele><time>2026-05-03T16:33:20.961Z</time></trkpt><trkpt lat="45.7878453" lon="10.0114836"><ele>369.25</ele><time>2026-05-03T16:33:21.961Z</time></trkpt><trkpt lat="45.787968" lon="10.0115559"><ele>369.5</ele><time>2026-05-03T16:33:22.961Z</time></trkpt><trkpt lat="45.7880889" lon="10.0116373"><ele>369.75</ele><time>2026-05-03T16:33:23.961Z</time></trkpt><trkpt lat="45.7882008" lon="10.0117187"><ele>370.0</ele><time>2026-05-03T16:33:24.962Z</time></trkpt><trkpt lat="45.788305" lon="10.0117752"><ele>370.0</ele><time>2026-05-03T16:33:25.962Z</time></trkpt><trkpt lat="45.7884046" lon="10.0117683"><ele>370.0</ele><time>2026-05-03T16:33:26.962Z</time></trkpt><trkpt lat="45.7884883" lon="10.0117041"><ele>370.0</ele><time>2026-05-03T16:33:27.962Z</time></trkpt><trkpt lat="45.7885418" lon="10.0115943"><ele>370.0</ele><time>2026-05-03T16:33:28.962Z</time></trkpt><trkpt lat="45.7885367" lon="10.0114679"><ele>370.0</ele><time>2026-05-03T16:33:29.962Z</time></trkpt><trkpt lat="45.7884867" lon="10.0113508"><ele>368.0</ele><time>2026-05-03T16:33:30.962Z</time></trkpt><trkpt lat="45.7884065" lon="10.0112589"><ele>366.0</ele><time>2026-05-03T16:33:31.961Z</time></trkpt><trkpt lat="45.7883152" lon="10.0111579"><ele>364.0</ele><time>2026-05-03T16:33:32.961Z</time></trkpt><trkpt lat="45.7882243" lon="10.0110228"><ele>362.0</ele><time>2026-05-03T16:33:33.961Z</time></trkpt><trkpt lat="45.7881464" lon="10.0108525"><ele>359.0</ele><time>2026-05-03T16:33:34.962Z</time></trkpt><trkpt lat="45.7880764" lon="10.0106536"><ele>356.0</ele><time>2026-05-03T16:33:35.962Z</time></trkpt><trkpt lat="45.788012" lon="10.0104489"><ele>353.0</ele><time>2026-05-03T16:33:36.961Z</time></trkpt><trkpt lat="45.7879485" lon="10.010238"><ele>353.0</ele><time>2026-05-03T16:33:37.962Z</time></trkpt><trkpt lat="45.7878966" lon="10.0100194"><ele>353.0</ele><time>2026-05-03T16:33:38.962Z</time></trkpt><trkpt lat="45.7878336" lon="10.0097897"><ele>353.0</ele><time>2026-05-03T16:33:39.962Z</time></trkpt><trkpt lat="45.7877721" lon="10.0095649"><ele>352.33333333333337</ele><time>2026-05-03T16:33:40.961Z</time></trkpt><trkpt lat="45.7877094" lon="10.0093424"><ele>351.6666666666667</ele><time>2026-05-03T16:33:41.962Z</time></trkpt><trkpt lat="45.7876452" lon="10.0091201"><ele>351.0</ele><time>2026-05-03T16:33:42.962Z</time></trkpt><trkpt lat="45.78758" lon="10.008897"><ele>351.0</ele><time>2026-05-03T16:33:43.961Z</time></trkpt><trkpt lat="45.7875203" lon="10.008677"><ele>351.0</ele><time>2026-05-03T16:33:44.962Z</time></trkpt><trkpt lat="45.7874565" lon="10.0084579"><ele>351.0</ele><time>2026-05-03T16:33:45.962Z</time></trkpt><trkpt lat="45.7873976" lon="10.0082421"><ele>350.3333333333333</ele><time>2026-05-03T16:33:46.96Z</time></trkpt><trkpt lat="45.7873377" lon="10.0080221"><ele>349.66666666666663</ele><time>2026-05-03T16:33:47.961Z</time></trkpt><trkpt lat="45.7872778" lon="10.0078044"><ele>349.0</ele><time>2026-05-03T16:33:48.962Z</time></trkpt><trkpt lat="45.7872156" lon="10.0075854"><ele>348.0</ele><time>2026-05-03T16:33:49.962Z</time></trkpt><trkpt lat="45.787154" lon="10.0073687"><ele>347.0</ele><time>2026-05-03T16:33:50.961Z</time></trkpt><trkpt lat="45.7870927" lon="10.0071486"><ele>346.0</ele><time>2026-05-03T16:33:51.962Z</time></trkpt><trkpt lat="45.7870301" lon="10.0069291"><ele>346.0</ele><time>2026-05-03T16:33:52.962Z</time></trkpt><trkpt lat="45.7869696" lon="10.0067102"><ele>346.0</ele><time>2026-05-03T16:33:53.961Z</time></trkpt><trkpt lat="45.7869178" lon="10.0064942"><ele>346.0</ele><time>2026-05-03T16:33:54.96Z</time></trkpt><trkpt lat="45.7868691" lon="10.0062734"><ele>348.66666666666663</ele><time>2026-05-03T16:33:55.962Z</time></trkpt><trkpt lat="45.7868328" lon="10.0060547"><ele>351.3333333333333</ele><time>2026-05-03T16:33:56.961Z</time></trkpt><trkpt lat="45.7868075" lon="10.0058239"><ele>354.0</ele><time>2026-05-03T16:33:57.961Z</time></trkpt><trkpt lat="45.786794" lon="10.0055949"><ele>354.0</ele><time>2026-05-03T16:33:58.961Z</time></trkpt><trkpt lat="45.7867892" lon="10.0053661"><ele>354.0</ele><time>2026-05-03T16:33:59.961Z</time></trkpt><trkpt lat="45.7867895" lon="10.0051374"><ele>354.0</ele><time>2026-05-03T16:34:00.961Z</time></trkpt><trkpt lat="45.7868016" lon="10.0049148"><ele>353.0</ele><time>2026-05-03T16:34:01.961Z</time></trkpt><trkpt lat="45.7868108" lon="10.0047035"><ele>352.0</ele><time>2026-05-03T16:34:02.962Z</time></trkpt><trkpt lat="45.7868191" lon="10.0045095"><ele>351.0</ele><time>2026-05-03T16:34:03.962Z</time></trkpt><trkpt lat="45.7868312" lon="10.0043273"><ele>350.0</ele><time>2026-05-03T16:34:04.962Z</time></trkpt><trkpt lat="45.7868396" lon="10.0041556"><ele>348.8</ele><time>2026-05-03T16:34:05.961Z</time></trkpt><trkpt lat="45.7868489" lon="10.0039951"><ele>347.6</ele><time>2026-05-03T16:34:06.962Z</time></trkpt><trkpt lat="45.7868566" lon="10.0038587"><ele>346.4</ele><time>2026-05-03T16:34:07.962Z</time></trkpt><trkpt lat="45.7868652" lon="10.0037272"><ele>345.2</ele><time>2026-05-03T16:34:08.962Z</time></trkpt><trkpt lat="45.7868724" lon="10.0036186"><ele>344.0</ele><time>2026-05-03T16:34:09.961Z</time></trkpt><trkpt lat="45.7868681" lon="10.0034964"><ele>344.0</ele><time>2026-05-03T16:34:10.962Z</time></trkpt><trkpt lat="45.7868538" lon="10.0033665"><ele>344.0</ele><time>2026-05-03T16:34:11.962Z</time></trkpt><trkpt lat="45.7868379" lon="10.0032619"><ele>344.0</ele><time>2026-05-03T16:34:12.961Z</time></trkpt><trkpt lat="45.7868157" lon="10.003148"><ele>344.0</ele><time>2026-05-03T16:34:13.961Z</time></trkpt><trkpt lat="45.7867883" lon="10.0030536"><ele>344.0</ele><time>2026-05-03T16:34:14.962Z</time></trkpt><trkpt lat="45.7867675" lon="10.0029579"><ele>344.0</ele><time>2026-05-03T16:34:18.962Z</time></trkpt><trkpt lat="45.7867561" lon="10.0028595"><ele>344.1666666666667</ele><time>2026-05-03T16:34:22.96Z</time></trkpt><trkpt lat="45.7867543" lon="10.0027531"><ele>344.33333333333337</ele><time>2026-05-03T16:34:28.961Z</time></trkpt><trkpt lat="45.7867537" lon="10.0026379"><ele>344.5</ele><time>2026-05-03T16:34:31.962Z</time></trkpt><trkpt lat="45.7867565" lon="10.0025329"><ele>344.6666666666667</ele><time>2026-05-03T16:34:33.962Z</time></trkpt><trkpt lat="45.786756" lon="10.0024209"><ele>344.8333333333333</ele><time>2026-05-03T16:34:35.961Z</time></trkpt><trkpt lat="45.7867726" lon="10.002271"><ele>345.0</ele><time>2026-05-03T16:34:37.96Z</time></trkpt><trkpt lat="45.7868" lon="10.0021252"><ele>345.1666666666667</ele><time>2026-05-03T16:34:39.962Z</time></trkpt><trkpt lat="45.7868131" lon="10.0020351"><ele>345.3333333333333</ele><time>2026-05-03T16:34:40.962Z</time></trkpt><trkpt lat="45.786821" lon="10.0019346"><ele>345.5</ele><time>2026-05-03T16:34:41.961Z</time></trkpt><trkpt lat="45.7868327" lon="10.0018278"><ele>345.66666666666663</ele><time>2026-05-03T16:34:42.961Z</time></trkpt><trkpt lat="45.7868469" lon="10.0017126"><ele>345.8333333333333</ele><time>2026-05-03T16:34:43.961Z</time></trkpt><trkpt lat="45.7868624" lon="10.0015779"><ele>346.0</ele><time>2026-05-03T16:34:44.961Z</time></trkpt><trkpt lat="45.7868775" lon="10.0014526"><ele>346.20000000000005</ele><time>2026-05-03T16:34:45.961Z</time></trkpt><trkpt lat="45.7868901" lon="10.0013251"><ele>346.40000000000003</ele><time>2026-05-03T16:34:46.962Z</time></trkpt><trkpt lat="45.7869043" lon="10.0011881"><ele>346.6</ele><time>2026-05-03T16:34:47.962Z</time></trkpt><trkpt lat="45.7869194" lon="10.001058"><ele>346.8</ele><time>2026-05-03T16:34:48.961Z</time></trkpt><trkpt lat="45.7869405" lon="10.0009302"><ele>347.0</ele><time>2026-05-03T16:34:49.962Z</time></trkpt><trkpt lat="45.7869631" lon="10.0007889"><ele>347.0</ele><time>2026-05-03T16:34:50.962Z</time></trkpt><trkpt lat="45.7869944" lon="10.0006655"><ele>347.0</ele><time>2026-05-03T16:34:51.962Z</time></trkpt><trkpt lat="45.787028" lon="10.0005569"><ele>347.0</ele><time>2026-05-03T16:34:52.962Z</time></trkpt><trkpt lat="45.7870594" lon="10.0004574"><ele>347.0</ele><time>2026-05-03T16:34:53.961Z</time></trkpt><trkpt lat="45.7870889" lon="10.0003626"><ele>347.0</ele><time>2026-05-03T16:34:54.962Z</time></trkpt><trkpt lat="45.7871106" lon="10.0002734"><ele>347.0</ele><time>2026-05-03T16:34:55.961Z</time></trkpt><trkpt lat="45.7870778" lon="10.0001576"><ele>347.0</ele><time>2026-05-03T16:34:57.961Z</time></trkpt><trkpt lat="45.7870167" lon="10.0001221"><ele>347.0</ele><time>2026-05-03T16:34:58.962Z</time></trkpt><trkpt lat="45.7869465" lon="10.000089"><ele>347.0</ele><time>2026-05-03T16:34:59.962Z</time></trkpt><trkpt lat="45.7868902" lon="10.0000291"><ele>347.0</ele><time>2026-05-03T16:35:00.961Z</time></trkpt><trkpt lat="45.7868601" lon="9.9998785"><ele>347.0</ele><time>2026-05-03T16:35:01.961Z</time></trkpt><trkpt lat="45.7868381" lon="9.9997457"><ele>347.0</ele><time>2026-05-03T16:35:02.961Z</time></trkpt><trkpt lat="45.7868152" lon="9.9995849"><ele>347.0</ele><time>2026-05-03T16:35:03.962Z</time></trkpt><trkpt lat="45.7867937" lon="9.9994295"><ele>347.0</ele><time>2026-05-03T16:35:04.96Z</time></trkpt><trkpt lat="45.7867706" lon="9.9992765"><ele>347.0</ele><time>2026-05-03T16:35:05.961Z</time></trkpt><trkpt lat="45.7867453" lon="9.9991275"><ele>347.0</ele><time>2026-05-03T16:35:06.961Z</time></trkpt><trkpt lat="45.7867246" lon="9.9989641"><ele>347.0</ele><time>2026-05-03T16:35:07.962Z</time></trkpt><trkpt lat="45.7866992" lon="9.9988081"><ele>347.0</ele><time>2026-05-03T16:35:08.961Z</time></trkpt><trkpt lat="45.7866786" lon="9.9986506"><ele>347.0</ele><time>2026-05-03T16:35:09.961Z</time></trkpt><trkpt lat="45.7866507" lon="9.9984965"><ele>347.0</ele><time>2026-05-03T16:35:10.961Z</time></trkpt><trkpt lat="45.7866215" lon="9.9983476"><ele>347.0</ele><time>2026-05-03T16:35:11.961Z</time></trkpt><trkpt lat="45.7865963" lon="9.9981945"><ele>347.0</ele><time>2026-05-03T16:35:12.96Z</time></trkpt><trkpt lat="45.7865731" lon="9.9980384"><ele>346.75</ele><time>2026-05-03T16:35:13.962Z</time></trkpt><trkpt lat="45.7865432" lon="9.9978775"><ele>346.5</ele><time>2026-05-03T16:35:14.962Z</time></trkpt><trkpt lat="45.7865187" lon="9.9977144"><ele>346.25</ele><time>2026-05-03T16:35:15.962Z</time></trkpt><trkpt lat="45.7865001" lon="9.9975475"><ele>346.0</ele><time>2026-05-03T16:35:16.962Z</time></trkpt><trkpt lat="45.786496" lon="9.9973723"><ele>346.0</ele><time>2026-05-03T16:35:17.961Z</time></trkpt><trkpt lat="45.7864998" lon="9.9971964"><ele>346.0</ele><time>2026-05-03T16:35:18.962Z</time></trkpt><trkpt lat="45.7865058" lon="9.9970198"><ele>346.0</ele><time>2026-05-03T16:35:19.96Z</time></trkpt><trkpt lat="45.7865104" lon="9.9968461"><ele>346.0</ele><time>2026-05-03T16:35:20.961Z</time></trkpt><trkpt lat="45.7865154" lon="9.9966648"><ele>346.25</ele><time>2026-05-03T16:35:21.961Z</time></trkpt><trkpt lat="45.786515" lon="9.9964949"><ele>346.5</ele><time>2026-05-03T16:35:22.961Z</time></trkpt><trkpt lat="45.7865147" lon="9.9963208"><ele>346.75</ele><time>2026-05-03T16:35:23.962Z</time></trkpt><trkpt lat="45.7865111" lon="9.9961423"><ele>347.0</ele><time>2026-05-03T16:35:24.962Z</time></trkpt><trkpt lat="45.7865093" lon="9.9959698"><ele>347.0</ele><time>2026-05-03T16:35:25.962Z</time></trkpt><trkpt lat="45.7865063" lon="9.9958088"><ele>347.0</ele><time>2026-05-03T16:35:26.962Z</time></trkpt><trkpt lat="45.7865036" lon="9.9956595"><ele>347.0</ele><time>2026-05-03T16:35:27.962Z</time></trkpt><trkpt lat="45.7865059" lon="9.9955369"><ele>347.0</ele><time>2026-05-03T16:35:28.962Z</time></trkpt><trkpt lat="45.7865073" lon="9.9954361"><ele>347.0</ele><time>2026-05-03T16:35:29.96Z</time></trkpt><trkpt lat="45.7865461" lon="9.995322"><ele>347.0</ele><time>2026-05-03T16:35:31.961Z</time></trkpt><trkpt lat="45.7866165" lon="9.9953401"><ele>347.0</ele><time>2026-05-03T16:35:33.962Z</time></trkpt><trkpt lat="45.7866866" lon="9.9954467"><ele>347.0</ele><time>2026-05-03T16:35:35.962Z</time></trkpt><trkpt lat="45.7867301" lon="9.9955216"><ele>347.0</ele><time>2026-05-03T16:35:36.962Z</time></trkpt><trkpt lat="45.7867771" lon="9.9955972"><ele>347.0</ele><time>2026-05-03T16:35:37.961Z</time></trkpt><trkpt lat="45.7868368" lon="9.9956855"><ele>347.0</ele><time>2026-05-03T16:35:38.962Z</time></trkpt><trkpt lat="45.786919" lon="9.9957721"><ele>346.75</ele><time>2026-05-03T16:35:39.961Z</time></trkpt><trkpt lat="45.7870049" lon="9.9958944"><ele>346.5</ele><time>2026-05-03T16:35:40.961Z</time></trkpt><trkpt lat="45.787096" lon="9.9960096"><ele>346.25</ele><time>2026-05-03T16:35:41.962Z</time></trkpt><trkpt lat="45.7871996" lon="9.9961281"><ele>346.0</ele><time>2026-05-03T16:35:42.961Z</time></trkpt><trkpt lat="45.7872997" lon="9.9962392"><ele>346.0</ele><time>2026-05-03T16:35:43.962Z</time></trkpt><trkpt lat="45.787397" lon="9.9963474"><ele>346.0</ele><time>2026-05-03T16:35:44.961Z</time></trkpt><trkpt lat="45.7874832" lon="9.9964559"><ele>346.0</ele><time>2026-05-03T16:35:45.961Z</time></trkpt><trkpt lat="45.7875651" lon="9.9965456"><ele>346.0</ele><time>2026-05-03T16:35:46.962Z</time></trkpt><trkpt lat="45.7876438" lon="9.996629"><ele>346.0</ele><time>2026-05-03T16:35:47.961Z</time></trkpt><trkpt lat="45.7877194" lon="9.9967009"><ele>346.5</ele><time>2026-05-03T16:35:48.962Z</time></trkpt><trkpt lat="45.7877855" lon="9.996769"><ele>347.0</ele><time>2026-05-03T16:35:49.961Z</time></trkpt><trkpt lat="45.7878428" lon="9.9968202"><ele>347.5</ele><time>2026-05-03T16:35:50.961Z</time></trkpt><trkpt lat="45.7879189" lon="9.9969294"><ele>348.0</ele><time>2026-05-03T16:35:52.961Z</time></trkpt><trkpt lat="45.7879494" lon="9.9970409"><ele>348.5</ele><time>2026-05-03T16:35:54.962Z</time></trkpt><trkpt lat="45.7879723" lon="9.9971907"><ele>349.0</ele><time>2026-05-03T16:35:56.96Z</time></trkpt><trkpt lat="45.7879278" lon="9.9973295"><ele>348.99999999999994</ele><time>2026-05-03T16:35:58.962Z</time></trkpt><trkpt lat="45.7878537" lon="9.9973833"><ele>349.0</ele><time>2026-05-03T16:36:00.961Z</time></trkpt><trkpt lat="45.7878058" lon="9.9974523"><ele>349.0</ele><time>2026-05-03T16:36:03.961Z</time></trkpt><trkpt lat="45.7878158" lon="9.9975489"><ele>349.0</ele><time>2026-05-03T16:38:02.961Z</time></trkpt><trkpt lat="45.7878843" lon="9.9975536"><ele>349.0</ele><time>2026-05-03T16:38:50.961Z</time></trkpt><trkpt lat="45.7879518" lon="9.9975113"><ele>348.99999999999994</ele><time>2026-05-03T16:38:59.96Z</time></trkpt><trkpt lat="45.78798" lon="9.9974288"><ele>349.0</ele><time>2026-05-03T16:39:00.962Z</time></trkpt><trkpt lat="45.7880054" lon="9.9973307"><ele>349.0</ele><time>2026-05-03T16:39:01.962Z</time></trkpt><trkpt lat="45.7880149" lon="9.9971819"><ele>349.0</ele><time>2026-05-03T16:39:02.962Z</time></trkpt><trkpt lat="45.7880203" lon="9.9970428"><ele>349.0</ele><time>2026-05-03T16:39:03.962Z</time></trkpt><trkpt lat="45.7880361" lon="9.996888"><ele>349.0</ele><time>2026-05-03T16:39:04.962Z</time></trkpt><trkpt lat="45.788054" lon="9.9967302"><ele>349.0</ele><time>2026-05-03T16:39:05.962Z</time></trkpt><trkpt lat="45.7880684" lon="9.9965721"><ele>348.5</ele><time>2026-05-03T16:39:06.962Z</time></trkpt><trkpt lat="45.7880803" lon="9.9964069"><ele>348.0</ele><time>2026-05-03T16:39:07.962Z</time></trkpt><trkpt lat="45.7880974" lon="9.9962357"><ele>347.5</ele><time>2026-05-03T16:39:08.961Z</time></trkpt><trkpt lat="45.7881124" lon="9.9960567"><ele>347.0</ele><time>2026-05-03T16:39:09.962Z</time></trkpt><trkpt lat="45.788134" lon="9.9958559"><ele>346.75</ele><time>2026-05-03T16:39:10.96Z</time></trkpt><trkpt lat="45.78816" lon="9.9956519"><ele>346.5</ele><time>2026-05-03T16:39:11.962Z</time></trkpt><trkpt lat="45.7881835" lon="9.9954449"><ele>346.25</ele><time>2026-05-03T16:39:12.962Z</time></trkpt><trkpt lat="45.7882027" lon="9.9952456"><ele>346.0</ele><time>2026-05-03T16:39:13.962Z</time></trkpt><trkpt lat="45.7882271" lon="9.9950242"><ele>345.66666666666663</ele><time>2026-05-03T16:39:14.962Z</time></trkpt><trkpt lat="45.7882573" lon="9.9947804"><ele>345.3333333333333</ele><time>2026-05-03T16:39:15.962Z</time></trkpt><trkpt lat="45.7882977" lon="9.9945118"><ele>345.0</ele><time>2026-05-03T16:39:16.961Z</time></trkpt><trkpt lat="45.7883622" lon="9.9942279"><ele>344.3333333333333</ele><time>2026-05-03T16:39:17.962Z</time></trkpt><trkpt lat="45.7884195" lon="9.993959"><ele>343.66666666666663</ele><time>2026-05-03T16:39:18.961Z</time></trkpt><trkpt lat="45.7884682" lon="9.9936976"><ele>343.0</ele><time>2026-05-03T16:39:19.962Z</time></trkpt><trkpt lat="45.7885122" lon="9.993454"><ele>344.3333333333333</ele><time>2026-05-03T16:39:20.961Z</time></trkpt><trkpt lat="45.7885595" lon="9.9932243"><ele>345.6666666666667</ele><time>2026-05-03T16:39:21.962Z</time></trkpt><trkpt lat="45.7886037" lon="9.9930026"><ele>347.0</ele><time>2026-05-03T16:39:22.961Z</time></trkpt><trkpt lat="45.7886584" lon="9.9927869"><ele>347.0</ele><time>2026-05-03T16:39:23.962Z</time></trkpt><trkpt lat="45.7887176" lon="9.9925788"><ele>347.0</ele><time>2026-05-03T16:39:24.961Z</time></trkpt><trkpt lat="45.7887793" lon="9.9923729"><ele>347.0</ele><time>2026-05-03T16:39:25.961Z</time></trkpt><trkpt lat="45.7888539" lon="9.9921798"><ele>346.5</ele><time>2026-05-03T16:39:26.961Z</time></trkpt><trkpt lat="45.7889262" lon="9.9919915"><ele>346.0</ele><time>2026-05-03T16:39:27.962Z</time></trkpt><trkpt lat="45.7890029" lon="9.9918089"><ele>345.5</ele><time>2026-05-03T16:39:28.962Z</time></trkpt><trkpt lat="45.7890797" lon="9.9916293"><ele>345.0</ele><time>2026-05-03T16:39:29.961Z</time></trkpt><trkpt lat="45.7891499" lon="9.9914519"><ele>344.75</ele><time>2026-05-03T16:39:30.961Z</time></trkpt><trkpt lat="45.7892245" lon="9.9912708"><ele>344.5</ele><time>2026-05-03T16:39:31.962Z</time></trkpt><trkpt lat="45.789301" lon="9.9910874"><ele>344.25</ele><time>2026-05-03T16:39:32.962Z</time></trkpt><trkpt lat="45.7893727" lon="9.990905"><ele>344.0</ele><time>2026-05-03T16:39:33.961Z</time></trkpt><trkpt lat="45.7894453" lon="9.990723"><ele>344.0</ele><time>2026-05-03T16:39:34.961Z</time></trkpt><trkpt lat="45.7895161" lon="9.9905471"><ele>344.0</ele><time>2026-05-03T16:39:35.961Z</time></trkpt><trkpt lat="45.7895945" lon="9.9903642"><ele>344.0</ele><time>2026-05-03T16:39:36.962Z</time></trkpt><trkpt lat="45.7896716" lon="9.9901777"><ele>344.0</ele><time>2026-05-03T16:39:37.961Z</time></trkpt><trkpt lat="45.7897463" lon="9.9900008"><ele>344.25</ele><time>2026-05-03T16:39:38.961Z</time></trkpt><trkpt lat="45.789819" lon="9.9898212"><ele>344.5</ele><time>2026-05-03T16:39:39.962Z</time></trkpt><trkpt lat="45.7898919" lon="9.9896461"><ele>344.75</ele><time>2026-05-03T16:39:40.961Z</time></trkpt><trkpt lat="45.7899719" lon="9.9894742"><ele>345.0</ele><time>2026-05-03T16:39:41.962Z</time></trkpt><trkpt lat="45.790048" lon="9.9893082"><ele>345.0</ele><time>2026-05-03T16:39:42.962Z</time></trkpt><trkpt lat="45.7901189" lon="9.989131"><ele>345.0</ele><time>2026-05-03T16:39:43.962Z</time></trkpt><trkpt lat="45.790184" lon="9.9889545"><ele>345.0</ele><time>2026-05-03T16:39:44.962Z</time></trkpt><trkpt lat="45.7902406" lon="9.9887728"><ele>345.0</ele><time>2026-05-03T16:39:45.961Z</time></trkpt><trkpt lat="45.7902823" lon="9.9885906"><ele>345.75</ele><time>2026-05-03T16:39:46.962Z</time></trkpt><trkpt lat="45.7903221" lon="9.9883917"><ele>346.5</ele><time>2026-05-03T16:39:47.96Z</time></trkpt><trkpt lat="45.7903447" lon="9.9881965"><ele>347.25</ele><time>2026-05-03T16:39:48.962Z</time></trkpt><trkpt lat="45.7903553" lon="9.9879915"><ele>348.0</ele><time>2026-05-03T16:39:49.962Z</time></trkpt><trkpt lat="45.7903475" lon="9.9877812"><ele>348.0</ele><time>2026-05-03T16:39:50.962Z</time></trkpt><trkpt lat="45.7903338" lon="9.9875708"><ele>348.0</ele><time>2026-05-03T16:39:51.962Z</time></trkpt><trkpt lat="45.790312" lon="9.9873564"><ele>348.0</ele><time>2026-05-03T16:39:52.962Z</time></trkpt><trkpt lat="45.7902807" lon="9.9871037"><ele>348.3333333333333</ele><time>2026-05-03T16:39:53.961Z</time></trkpt><trkpt lat="45.7902528" lon="9.9868736"><ele>348.66666666666663</ele><time>2026-05-03T16:39:54.96Z</time></trkpt><trkpt lat="45.7902215" lon="9.9866434"><ele>349.0</ele><time>2026-05-03T16:39:55.961Z</time></trkpt><trkpt lat="45.7902096" lon="9.9864223"><ele>349.66666666666663</ele><time>2026-05-03T16:39:56.961Z</time></trkpt><trkpt lat="45.7901971" lon="9.9862048"><ele>350.3333333333333</ele><time>2026-05-03T16:39:57.962Z</time></trkpt><trkpt lat="45.7902019" lon="9.9859848"><ele>351.0</ele><time>2026-05-03T16:39:58.961Z</time></trkpt><trkpt lat="45.7902206" lon="9.985773"><ele>352.0</ele><time>2026-05-03T16:39:59.961Z</time></trkpt><trkpt lat="45.790251" lon="9.9855614"><ele>353.0</ele><time>2026-05-03T16:40:00.962Z</time></trkpt><trkpt lat="45.7902948" lon="9.985353"><ele>354.0</ele><time>2026-05-03T16:40:01.962Z</time></trkpt><trkpt lat="45.7903381" lon="9.9851484"><ele>355.25</ele><time>2026-05-03T16:40:02.962Z</time></trkpt><trkpt lat="45.7903849" lon="9.9849519"><ele>356.5</ele><time>2026-05-03T16:40:03.961Z</time></trkpt><trkpt lat="45.7904193" lon="9.984749"><ele>357.75</ele><time>2026-05-03T16:40:04.961Z</time></trkpt><trkpt lat="45.7904386" lon="9.9845492"><ele>359.0</ele><time>2026-05-03T16:40:05.961Z</time></trkpt><trkpt lat="45.7904513" lon="9.9843443"><ele>358.75</ele><time>2026-05-03T16:40:06.962Z</time></trkpt><trkpt lat="45.790453" lon="9.9841342"><ele>358.5</ele><time>2026-05-03T16:40:07.962Z</time></trkpt><trkpt lat="45.7904423" lon="9.9839262"><ele>358.25</ele><time>2026-05-03T16:40:08.962Z</time></trkpt><trkpt lat="45.7904252" lon="9.9837167"><ele>358.0</ele><time>2026-05-03T16:40:09.961Z</time></trkpt><trkpt lat="45.7904024" lon="9.9835096"><ele>358.5</ele><time>2026-05-03T16:40:10.961Z</time></trkpt><trkpt lat="45.7903819" lon="9.9833104"><ele>359.0</ele><time>2026-05-03T16:40:11.962Z</time></trkpt><trkpt lat="45.7903632" lon="9.983114"><ele>359.5</ele><time>2026-05-03T16:40:12.962Z</time></trkpt><trkpt lat="45.7903413" lon="9.9829184"><ele>360.0</ele><time>2026-05-03T16:40:13.962Z</time></trkpt><trkpt lat="45.7903219" lon="9.9827216"><ele>360.0</ele><time>2026-05-03T16:40:14.962Z</time></trkpt><trkpt lat="45.790303" lon="9.9825249"><ele>360.0</ele><time>2026-05-03T16:40:15.96Z</time></trkpt><trkpt lat="45.7902853" lon="9.9823337"><ele>360.0</ele><time>2026-05-03T16:40:16.961Z</time></trkpt><trkpt lat="45.7902752" lon="9.982136"><ele>360.0</ele><time>2026-05-03T16:40:17.962Z</time></trkpt><trkpt lat="45.7902647" lon="9.981944"><ele>359.25</ele><time>2026-05-03T16:40:18.962Z</time></trkpt><trkpt lat="45.7902633" lon="9.9817614"><ele>358.5</ele><time>2026-05-03T16:40:19.962Z</time></trkpt><trkpt lat="45.7902738" lon="9.9815744"><ele>357.75</ele><time>2026-05-03T16:40:20.961Z</time></trkpt><trkpt lat="45.7902933" lon="9.9813946"><ele>357.0</ele><time>2026-05-03T16:40:21.961Z</time></trkpt><trkpt lat="45.790315" lon="9.9812064"><ele>356.0</ele><time>2026-05-03T16:40:22.962Z</time></trkpt><trkpt lat="45.7903406" lon="9.9810307"><ele>355.0</ele><time>2026-05-03T16:40:23.962Z</time></trkpt><trkpt lat="45.7903682" lon="9.9808482"><ele>354.0</ele><time>2026-05-03T16:40:24.961Z</time></trkpt><trkpt lat="45.7903904" lon="9.9806815"><ele>353.0</ele><time>2026-05-03T16:40:25.961Z</time></trkpt><trkpt lat="45.7904123" lon="9.9805087"><ele>352.75</ele><time>2026-05-03T16:40:26.962Z</time></trkpt><trkpt lat="45.790439" lon="9.9803306"><ele>352.5</ele><time>2026-05-03T16:40:27.962Z</time></trkpt><trkpt lat="45.790466" lon="9.9801659"><ele>352.25</ele><time>2026-05-03T16:40:28.962Z</time></trkpt><trkpt lat="45.7904901" lon="9.9800084"><ele>352.0</ele><time>2026-05-03T16:40:29.961Z</time></trkpt><trkpt lat="45.7905098" lon="9.9798408"><ele>352.0</ele><time>2026-05-03T16:40:30.962Z</time></trkpt><trkpt lat="45.7905219" lon="9.9796852"><ele>352.0</ele><time>2026-05-03T16:40:31.96Z</time></trkpt><trkpt lat="45.7905368" lon="9.9795316"><ele>352.0</ele><time>2026-05-03T16:40:32.961Z</time></trkpt><trkpt lat="45.7905498" lon="9.9793793"><ele>352.0</ele><time>2026-05-03T16:40:33.961Z</time></trkpt><trkpt lat="45.7905667" lon="9.9792224"><ele>352.0</ele><time>2026-05-03T16:40:34.961Z</time></trkpt><trkpt lat="45.7905799" lon="9.9790622"><ele>351.0</ele><time>2026-05-03T16:40:35.962Z</time></trkpt><trkpt lat="45.7905817" lon="9.9788916"><ele>350.0</ele><time>2026-05-03T16:40:36.961Z</time></trkpt><trkpt lat="45.7905826" lon="9.9787191"><ele>349.0</ele><time>2026-05-03T16:40:37.962Z</time></trkpt><trkpt lat="45.7905868" lon="9.9785545"><ele>348.0</ele><time>2026-05-03T16:40:38.961Z</time></trkpt><trkpt lat="45.7905909" lon="9.9783926"><ele>348.5</ele><time>2026-05-03T16:40:39.96Z</time></trkpt><trkpt lat="45.7905903" lon="9.9782284"><ele>349.0</ele><time>2026-05-03T16:40:40.961Z</time></trkpt><trkpt lat="45.7905923" lon="9.9780576"><ele>349.5</ele><time>2026-05-03T16:40:41.961Z</time></trkpt><trkpt lat="45.7905933" lon="9.9778907"><ele>350.0</ele><time>2026-05-03T16:40:42.961Z</time></trkpt><trkpt lat="45.7905927" lon="9.9777208"><ele>350.0</ele><time>2026-05-03T16:40:43.962Z</time></trkpt><trkpt lat="45.7905953" lon="9.97755"><ele>350.0</ele><time>2026-05-03T16:40:44.962Z</time></trkpt><trkpt lat="45.7906029" lon="9.9773754"><ele>350.0</ele><time>2026-05-03T16:40:45.962Z</time></trkpt><trkpt lat="45.7906075" lon="9.9771982"><ele>350.0</ele><time>2026-05-03T16:40:46.961Z</time></trkpt><trkpt lat="45.7906083" lon="9.9770176"><ele>349.8</ele><time>2026-05-03T16:40:47.962Z</time></trkpt><trkpt lat="45.7906085" lon="9.976854"><ele>349.6</ele><time>2026-05-03T16:40:48.962Z</time></trkpt><trkpt lat="45.7906249" lon="9.9767063"><ele>349.4</ele><time>2026-05-03T16:40:49.962Z</time></trkpt><trkpt lat="45.7906503" lon="9.9765663"><ele>349.2</ele><time>2026-05-03T16:40:50.962Z</time></trkpt><trkpt lat="45.7906648" lon="9.9764538"><ele>349.0</ele><time>2026-05-03T16:40:51.962Z</time></trkpt><trkpt lat="45.7906786" lon="9.9763582"><ele>349.0</ele><time>2026-05-03T16:40:52.962Z</time></trkpt><trkpt lat="45.7906706" lon="9.9762512"><ele>349.0</ele><time>2026-05-03T16:40:54.961Z</time></trkpt><trkpt lat="45.7905932" lon="9.9762615"><ele>349.0</ele><time>2026-05-03T16:40:58.962Z</time></trkpt><trkpt lat="45.7905671" lon="9.9764054"><ele>349.0</ele><time>2026-05-03T16:41:00.962Z</time></trkpt><trkpt lat="45.7905652" lon="9.9765919"><ele>349.0</ele><time>2026-05-03T16:41:02.962Z</time></trkpt><trkpt lat="45.7905659" lon="9.9767206"><ele>349.0</ele><time>2026-05-03T16:41:03.962Z</time></trkpt><trkpt lat="45.7905656" lon="9.9768806"><ele>349.0</ele><time>2026-05-03T16:41:04.961Z</time></trkpt><trkpt lat="45.7905688" lon="9.9770559"><ele>349.0</ele><time>2026-05-03T16:41:05.961Z</time></trkpt><trkpt lat="45.790566" lon="9.9772471"><ele>349.0</ele><time>2026-05-03T16:41:06.962Z</time></trkpt><trkpt lat="45.7905617" lon="9.977461"><ele>349.2</ele><time>2026-05-03T16:41:07.962Z</time></trkpt><trkpt lat="45.7905619" lon="9.9776627"><ele>349.4</ele><time>2026-05-03T16:41:08.961Z</time></trkpt><trkpt lat="45.7905578" lon="9.9778199"><ele>349.6</ele><time>2026-05-03T16:41:09.959Z</time></trkpt><trkpt lat="45.7905527" lon="9.9779561"><ele>349.8</ele><time>2026-05-03T16:41:10.961Z</time></trkpt><trkpt lat="45.7905515" lon="9.9780905"><ele>350.0</ele><time>2026-05-03T16:41:11.962Z</time></trkpt><trkpt lat="45.7905481" lon="9.9782048"><ele>350.0</ele><time>2026-05-03T16:41:12.961Z</time></trkpt><trkpt lat="45.7905403" lon="9.9783103"><ele>350.0</ele><time>2026-05-03T16:41:13.961Z</time></trkpt><trkpt lat="45.7905319" lon="9.978404"><ele>350.0</ele><time>2026-05-03T16:41:14.961Z</time></trkpt><trkpt lat="45.7905261" lon="9.9785102"><ele>350.0</ele><time>2026-05-03T16:41:15.962Z</time></trkpt><trkpt lat="45.790524" lon="9.9786196"><ele>350.0</ele><time>2026-05-03T16:41:16.961Z</time></trkpt><trkpt lat="45.7905211" lon="9.9787398"><ele>350.0</ele><time>2026-05-03T16:41:17.961Z</time></trkpt><trkpt lat="45.7905168" lon="9.9788663"><ele>349.6666666666667</ele><time>2026-05-03T16:41:18.961Z</time></trkpt><trkpt lat="45.7905132" lon="9.978992"><ele>349.33333333333337</ele><time>2026-05-03T16:41:19.961Z</time></trkpt><trkpt lat="45.7905088" lon="9.9791241"><ele>349.0</ele><time>2026-05-03T16:41:20.961Z</time></trkpt><trkpt lat="45.7904976" lon="9.9792541"><ele>348.6666666666667</ele><time>2026-05-03T16:41:21.961Z</time></trkpt><trkpt lat="45.7904704" lon="9.979364"><ele>348.3333333333333</ele><time>2026-05-03T16:41:22.962Z</time></trkpt><trkpt lat="45.7904152" lon="9.9794615"><ele>348.0</ele><time>2026-05-03T16:41:23.961Z</time></trkpt><trkpt lat="45.790347" lon="9.979554"><ele>348.79999999999995</ele><time>2026-05-03T16:41:24.96Z</time></trkpt><trkpt lat="45.7902761" lon="9.9796582"><ele>349.6</ele><time>2026-05-03T16:41:25.961Z</time></trkpt><trkpt lat="45.7902062" lon="9.9797422"><ele>350.4</ele><time>2026-05-03T16:41:26.962Z</time></trkpt><trkpt lat="45.7901362" lon="9.9798461"><ele>351.20000000000005</ele><time>2026-05-03T16:41:27.961Z</time></trkpt><trkpt lat="45.7900593" lon="9.9799743"><ele>352.0</ele><time>2026-05-03T16:41:28.962Z</time></trkpt><trkpt lat="45.7899743" lon="9.980089"><ele>349.5</ele><time>2026-05-03T16:41:29.962Z</time></trkpt><trkpt lat="45.7898893" lon="9.9801999"><ele>347.0</ele><time>2026-05-03T16:41:30.961Z</time></trkpt><trkpt lat="45.7897962" lon="9.9802986"><ele>344.5</ele><time>2026-05-03T16:41:31.962Z</time></trkpt><trkpt lat="45.7896931" lon="9.9804033"><ele>342.0</ele><time>2026-05-03T16:41:32.961Z</time></trkpt><trkpt lat="45.7895763" lon="9.9805084"><ele>342.0</ele><time>2026-05-03T16:41:33.962Z</time></trkpt><trkpt lat="45.7894509" lon="9.9806081"><ele>342.0</ele><time>2026-05-03T16:41:34.962Z</time></trkpt><trkpt lat="45.7893194" lon="9.9807015"><ele>342.0</ele><time>2026-05-03T16:41:35.961Z</time></trkpt><trkpt lat="45.7891845" lon="9.9807997"><ele>342.0</ele><time>2026-05-03T16:41:36.96Z</time></trkpt><trkpt lat="45.7890538" lon="9.9808965"><ele>341.25</ele><time>2026-05-03T16:41:37.961Z</time></trkpt><trkpt lat="45.788926" lon="9.9809927"><ele>340.5</ele><time>2026-05-03T16:41:38.961Z</time></trkpt><trkpt lat="45.7887997" lon="9.9810832"><ele>339.75</ele><time>2026-05-03T16:41:39.961Z</time></trkpt><trkpt lat="45.788684" lon="9.9811747"><ele>339.0</ele><time>2026-05-03T16:41:40.96Z</time></trkpt><trkpt lat="45.7885776" lon="9.9812527"><ele>339.2</ele><time>2026-05-03T16:41:41.961Z</time></trkpt><trkpt lat="45.7884711" lon="9.9813182"><ele>339.4</ele><time>2026-05-03T16:41:42.962Z</time></trkpt><trkpt lat="45.7883653" lon="9.9813688"><ele>339.6</ele><time>2026-05-03T16:41:43.962Z</time></trkpt><trkpt lat="45.7882581" lon="9.9813862"><ele>339.8</ele><time>2026-05-03T16:41:44.961Z</time></trkpt><trkpt lat="45.7881559" lon="9.981354"><ele>340.0</ele><time>2026-05-03T16:41:45.962Z</time></trkpt><trkpt lat="45.7880584" lon="9.9812787"><ele>340.0</ele><time>2026-05-03T16:41:46.961Z</time></trkpt><trkpt lat="45.787975" lon="9.981177"><ele>340.0</ele><time>2026-05-03T16:41:47.961Z</time></trkpt><trkpt lat="45.7878918" lon="9.9810644"><ele>340.0</ele><time>2026-05-03T16:41:48.96Z</time></trkpt><trkpt lat="45.7878187" lon="9.9809346"><ele>340.0</ele><time>2026-05-03T16:41:49.96Z</time></trkpt><trkpt lat="45.7877648" lon="9.9807992"><ele>340.0</ele><time>2026-05-03T16:41:50.962Z</time></trkpt><trkpt lat="45.7877194" lon="9.9806623"><ele>339.8</ele><time>2026-05-03T16:41:51.961Z</time></trkpt><trkpt lat="45.7876865" lon="9.9805217"><ele>339.6</ele><time>2026-05-03T16:41:52.962Z</time></trkpt><trkpt lat="45.7876582" lon="9.9803888"><ele>339.4</ele><time>2026-05-03T16:41:53.961Z</time></trkpt><trkpt lat="45.7876337" lon="9.9802617"><ele>339.2</ele><time>2026-05-03T16:41:54.961Z</time></trkpt><trkpt lat="45.7876065" lon="9.9801453"><ele>339.0</ele><time>2026-05-03T16:41:55.962Z</time></trkpt><trkpt lat="45.7875877" lon="9.9800318"><ele>338.8333333333333</ele><time>2026-05-03T16:41:56.961Z</time></trkpt><trkpt lat="45.7875683" lon="9.9799286"><ele>338.6666666666667</ele><time>2026-05-03T16:41:57.962Z</time></trkpt><trkpt lat="45.7875506" lon="9.9798379"><ele>338.5</ele><time>2026-05-03T16:41:58.961Z</time></trkpt><trkpt lat="45.7875381" lon="9.9797207"><ele>338.33333333333337</ele><time>2026-05-03T16:42:00.961Z</time></trkpt><trkpt lat="45.7875903" lon="9.9797896"><ele>338.1666666666667</ele><time>2026-05-03T16:42:37.961Z</time></trkpt><trkpt lat="45.7876249" lon="9.9798711"><ele>338.0</ele><time>2026-05-03T16:42:39.961Z</time></trkpt><trkpt lat="45.7877189" lon="9.9798196"><ele>336.0</ele><time>2026-05-03T16:42:41.961Z</time></trkpt><trkpt lat="45.7877866" lon="9.9797797"><ele>336.0</ele><time>2026-05-03T16:42:44.961Z</time></trkpt></trkseg></trk></gpx>